Provisional Data: Meshoppen Creek near Kaiserville, PA


Please select a monitoring station.
Please select start date.
Please select start date.

Toggle Unit: C/F Toggle Unit: C/F
Sample Time Temperature (C) Temperature (F) Specific Conductivity (mS/cm) pH   Turbidity (NTU+) DO (mg/L)
8/1/2022 12:00:00 AM 21.67 71.006 0.167 7.47 2.45 7.74
8/1/2022 12:15:00 AM 21.61 70.898 0.167 7.47 2.5 7.76
8/1/2022 12:30:00 AM 21.57 70.826 0.167 7.45 3.41 7.76
8/1/2022 12:45:00 AM 21.52 70.736 0.167 7.45 3.34 7.77
8/1/2022 1:00:00 AM 21.47 70.646 0.167 7.46 2.5 7.78
8/1/2022 1:15:00 AM 21.42 70.556 0.168 7.46 2.34 7.77
8/1/2022 1:30:00 AM 21.38 70.484 0.168 7.45 2.57 7.78
8/1/2022 1:45:00 AM 21.33 70.394 0.168 7.44 2.25 7.79
8/1/2022 2:00:00 AM 21.28 70.304 0.168 7.45 2.37 7.81
8/1/2022 2:15:00 AM 21.23 70.214 0.168 7.44 2.23 7.81
8/1/2022 2:30:00 AM 21.19 70.142 0.168 7.44 2.33 7.82
8/1/2022 2:45:00 AM 21.16 70.088 0.168 7.44 2.38 7.84
8/1/2022 3:00:00 AM 21.12 70.016 0.168 7.44 2.3 7.84
8/1/2022 3:15:00 AM 21.08 69.944 0.168 7.44 2.4 7.85
8/1/2022 3:30:00 AM 21.04 69.872 0.168 7.43 2.42 7.86
8/1/2022 3:45:00 AM 21 69.8 0.168 7.44 2.33 7.87
8/1/2022 4:00:00 AM 20.97 69.746 0.168 7.43 3.67 7.88
8/1/2022 4:15:00 AM 20.93 69.674 0.168 7.44 2.52 7.87
8/1/2022 4:30:00 AM 20.89 69.602 0.169 7.42 2.24 7.88
8/1/2022 4:45:00 AM 20.86 69.548 0.169 7.44 2.27 7.89
8/1/2022 5:00:00 AM 20.81 69.458 0.169 7.43 3.42 7.89
8/1/2022 5:15:00 AM 20.78 69.404 0.169 7.44 2.56 7.9
8/1/2022 5:30:00 AM 20.74 69.332 0.169 7.44 2.41 7.9
8/1/2022 5:45:00 AM 20.71 69.278 0.169 7.44 2.55 7.91
8/1/2022 6:00:00 AM 20.68 69.224 0.169 7.44 2.51 7.92
8/1/2022 6:15:00 AM 20.66 69.188 0.169 7.44 2.36 7.93
8/1/2022 6:30:00 AM 20.62 69.116 0.169 7.43 2.58 7.95
8/1/2022 6:45:00 AM 20.61 69.098 0.169 7.45 2.21 7.98
8/1/2022 7:00:00 AM 20.6 69.08 0.169 7.44 2.75 8.03
8/1/2022 7:15:00 AM 20.59 69.062 0.169 7.46 2.13 8.06
8/1/2022 7:30:00 AM 20.58 69.044 0.169 7.47 2.32 8.09
8/1/2022 7:45:00 AM 20.58 69.044 0.169 7.47 3.27 8.15
8/1/2022 8:00:00 AM 20.59 69.062 0.169 7.49 2.01 8.22
8/1/2022 8:15:00 AM 20.6 69.08 0.169 7.5 2.97 8.28
8/1/2022 8:30:00 AM 20.62 69.116 0.169 7.51 3.05 8.34
8/1/2022 8:45:00 AM 20.66 69.188 0.169 7.54 3.26 8.45
8/1/2022 9:00:00 AM 20.7 69.26 0.169 7.56 2.07 8.52
8/1/2022 9:15:00 AM 20.77 69.386 0.169 7.58 2.05 8.62
8/1/2022 9:30:00 AM 20.83 69.494 0.169 7.61 1.81 8.7
8/1/2022 9:45:00 AM 20.93 69.674 0.169 7.65 2.08 8.84
8/1/2022 10:00:00 AM 21.05 69.89 0.169 7.68 2.03 8.91
8/1/2022 10:15:00 AM 21.15 70.07 0.169 7.71 3.07 9.01
8/1/2022 10:30:00 AM 21.2 70.16 0.169 7.74 3.14 9.06
8/1/2022 10:45:00 AM 21.39 70.502 0.169 7.79 3.06 9.12
8/1/2022 11:00:00 AM 21.38 70.484 0.169 7.8 2.07 9.09
8/1/2022 11:15:00 AM 21.66 70.988 0.168 7.87 2.01 9.22
8/1/2022 11:30:00 AM 21.83 71.294 0.168 7.9 2 9.25
8/1/2022 11:45:00 AM 22.15 71.87 0.168 7.97 2.05 9.35
8/1/2022 12:00:00 PM 22.35 72.23 0.168 8.03 1.96 9.39
8/1/2022 12:15:00 PM 22.69 72.842 0.168 8.09 2 9.45
8/1/2022 12:30:00 PM 23.02 73.436 0.168 8.14 2.06 9.44
8/1/2022 12:45:00 PM 23.24 73.832 0.168 8.2 1.92 9.42
8/1/2022 1:00:00 PM 23.55 74.39 0.168 8.22 2.15 9.38
8/1/2022 1:15:00 PM 23.89 75.002 0.167 8.31 1.89 9.37
8/1/2022 1:30:00 PM 24.32 75.776 0.167 8.36 1.92 9.3
8/1/2022 1:45:00 PM 24.7 76.46 0.167 8.42 1.9 9.25
8/1/2022 2:00:00 PM 25.02 77.036 0.167 8.48 1.92 9.2
8/1/2022 2:15:00 PM 25.44 77.792 0.167 8.53 1.91 9.13
8/1/2022 2:30:00 PM 25.84 78.512 0.167 8.57 1.97 9.01
8/1/2022 2:45:00 PM 26.16 79.088 0.167 8.6 1.81 8.94
8/1/2022 3:00:00 PM 26.42 79.556 0.167 8.64 1.99 8.87
8/1/2022 3:15:00 PM 26.63 79.934 0.167 8.65 2.09 8.7
8/1/2022 3:30:00 PM 26.8 80.24 0.167 8.65 2.04 8.63
8/1/2022 3:45:00 PM 26.97 80.546 0.167 8.68 1.97 8.56
8/1/2022 4:00:00 PM 27.21 80.978 0.167 8.68 1.87 8.45
8/1/2022 4:15:00 PM 27.46 81.42799 0.167 8.7 1.9 8.41
8/1/2022 4:30:00 PM 27.6 81.68 0.167 8.7 1.94 8.33
8/1/2022 4:45:00 PM 27.63 81.734 0.167 8.7 1.88 8.28
8/1/2022 5:00:00 PM 27.67 81.806 0.167 8.69 1.89 8.2
8/1/2022 5:15:00 PM 27.76 81.968 0.167 8.67 1.86 8.07
8/1/2022 5:30:00 PM 27.77 81.986 0.167 8.65 2.01 8
8/1/2022 5:45:00 PM 27.73 81.914 0.167 8.62 1.99 7.9
8/1/2022 6:00:00 PM 27.68 81.824 0.168 8.59 1.84 7.83
8/1/2022 6:15:00 PM 27.62 81.716 0.168 8.53 2.82 7.73
8/1/2022 6:30:00 PM 27.51 81.518 0.168 8.48 2.01 7.58
8/1/2022 6:45:00 PM 27.36 81.248 0.168 8.4 1.86 7.46
8/1/2022 7:00:00 PM 27.19 80.942 0.168 8.32 2.12 7.35
8/1/2022 7:15:00 PM 27.03 80.654 0.169 8.22 2 7.28
8/1/2022 7:30:00 PM 26.85 80.33 0.169 8.12 1.99 7.22
8/1/2022 7:45:00 PM 26.64 79.952 0.169 8.03 2.11 7.14
8/1/2022 8:00:00 PM 26.4 79.52 0.17 7.94 1.96 7.1
8/1/2022 8:15:00 PM 26.16 79.088 0.17 7.85 2.13 7.07
8/1/2022 8:30:00 PM 25.89 78.602 0.171 7.79 2.25 7.05
8/1/2022 8:45:00 PM 25.6 78.08 0.171 7.73 2.46 7.03
8/1/2022 9:00:00 PM 25.32 77.576 0.171 7.68 2.2 7.02
8/1/2022 9:15:00 PM 25.06 77.108 0.171 7.63 2.54 7.01
8/1/2022 9:30:00 PM 24.83 76.694 0.171 7.6 2.62 7.01
8/1/2022 9:45:00 PM 24.61 76.298 0.171 7.57 2.51 7.02
8/1/2022 10:00:00 PM 24.4 75.92 0.171 7.54 3.73 7.06
8/1/2022 10:15:00 PM 24.21 75.578 0.171 7.53 2.32 7.07
8/1/2022 10:30:00 PM 24.04 75.272 0.171 7.5 2.82 7.1
8/1/2022 10:45:00 PM 23.86 74.948 0.171 7.49 2.32 7.09
8/1/2022 11:00:00 PM 23.71 74.67799 0.171 7.47 3.44 7.11
8/1/2022 11:15:00 PM 23.59 74.462 0.171 7.47 2.36 7.12
8/1/2022 11:30:00 PM 23.46 74.228 0.171 7.45 3.49 7.16
8/1/2022 11:45:00 PM 23.33 73.994 0.171 7.45 2.37 7.15
8/2/2022 12:00:00 AM 23.2 73.76 0.171 7.43 3.48 7.18
8/2/2022 12:15:00 AM 23.08 73.544 0.171 7.43 2.32 7.19
8/2/2022 12:30:00 AM 22.98 73.364 0.17 7.42 3.71 7.23
8/2/2022 12:45:00 AM 22.87 73.166 0.17 7.43 2.43 7.24
8/2/2022 1:00:00 AM 22.78 73.004 0.17 7.42 2.58 7.25
8/2/2022 1:15:00 AM 22.68 72.824 0.17 7.41 3.57 7.27
8/2/2022 1:30:00 AM 22.56 72.608 0.17 7.41 2.39 7.29
8/2/2022 1:45:00 AM 22.49 72.482 0.17 7.41 2.4 7.3
8/2/2022 2:00:00 AM 22.37 72.266 0.17 7.39 2.44 7.31
8/2/2022 2:15:00 AM 22.3 72.14 0.17 7.41 2.32 7.32
8/2/2022 2:30:00 AM 22.2 71.96 0.17 7.39 3.53 7.35
8/2/2022 2:45:00 AM 22.13 71.834 0.17 7.4 2.24 7.38
8/2/2022 3:00:00 AM 22.04 71.672 0.17 7.39 3.52 7.38
8/2/2022 3:15:00 AM 21.96 71.528 0.17 7.4 2.13 7.39
8/2/2022 3:30:00 AM 21.89 71.402 0.171 7.38 3.07 7.42
8/2/2022 3:45:00 AM 21.81 71.258 0.171 7.4 2.39 7.43
8/2/2022 4:00:00 AM 21.73 71.114 0.171 7.38 3.73 7.45
8/2/2022 4:15:00 AM 21.62 70.916 0.171 7.38 3.48 7.47
8/2/2022 4:30:00 AM 21.55 70.79 0.171 7.39 2.38 7.47
8/2/2022 4:45:00 AM 21.47 70.646 0.171 7.39 3.47 7.49
8/2/2022 5:00:00 AM 21.38 70.484 0.171 7.38 3.48 7.52
8/2/2022 5:15:00 AM 21.33 70.394 0.171 7.39 2.31 7.52
8/2/2022 5:30:00 AM 21.25 70.25 0.171 7.37 3.4 7.54
8/2/2022 5:45:00 AM 21.15 70.07 0.171 7.38 2.39 7.54
8/2/2022 6:00:00 AM 21.08 69.944 0.171 7.38 2.31 7.55
8/2/2022 6:15:00 AM 21.04 69.872 0.171 7.38 2.8 7.57
8/2/2022 6:30:00 AM 20.94 69.692 0.171 7.39 2.27 7.61
8/2/2022 6:45:00 AM 20.91 69.638 0.171 7.39 2.17 7.66
8/2/2022 7:00:00 AM 20.87 69.566 0.171 7.39 2.34 7.69
8/2/2022 7:15:00 AM 20.87 69.566 0.171 7.4 2.48 7.74
8/2/2022 7:30:00 AM 20.85 69.53 0.171 7.4 2.78 7.87
8/2/2022 7:45:00 AM 20.85 69.53 0.171 7.43 2.13 7.95
8/2/2022 8:00:00 AM 20.87 69.566 0.171 7.44 2.28 8.02
8/2/2022 8:15:00 AM 20.89 69.602 0.171 7.45 3.4 8.15
8/2/2022 8:30:00 AM 20.93 69.674 0.17 7.47 3.42 8.23
8/2/2022 8:45:00 AM 20.97 69.746 0.17 7.5 2.07 8.35
8/2/2022 9:00:00 AM 21.01 69.818 0.17 7.52 2.1 8.41
8/2/2022 9:15:00 AM 21.05 69.89 0.17 7.54 2.18 8.46
8/2/2022 9:30:00 AM 21.12 70.016 0.17 7.55 2.1 8.51
8/2/2022 9:45:00 AM 21.19 70.142 0.17 7.57 2.17 8.55
8/2/2022 10:00:00 AM 21.29 70.32201 0.17 7.58 3.29 8.63
8/2/2022 10:15:00 AM 21.45 70.61 0.169 7.62 3.21 8.76
8/2/2022 10:30:00 AM 21.52 70.736 0.169 7.66 2.35 8.72
8/2/2022 10:45:00 AM 21.86 71.348 0.169 7.69 4.62 8.9
8/2/2022 11:00:00 AM 22.01 71.618 0.169 7.73 2.03 8.9
8/2/2022 11:15:00 AM 22.28 72.104 0.169 7.77 2.01 9
8/2/2022 11:30:00 AM 22.37 72.266 0.169 7.81 1.94 9.02
8/2/2022 11:45:00 AM 22.61 72.698 0.169 7.83 2.08 8.98
8/2/2022 12:00:00 PM 22.84 73.112 0.169 7.88 2.2 9.05
8/2/2022 12:15:00 PM 22.96 73.328 0.169 7.9 2.1 9.02
8/2/2022 12:30:00 PM 23.12 73.616 0.169 7.93 2.04 9.03
8/2/2022 12:45:00 PM 23.31 73.958 0.169 7.97 2.09 9.03
8/2/2022 1:00:00 PM 23.73 74.714 0.169 7.99 2.03 9.13
8/2/2022 1:15:00 PM 23.77 74.786 0.169 8.03 1.98 9.04
8/2/2022 1:30:00 PM 24 75.2 0.169 8.11 2.13 9.03
8/2/2022 1:45:00 PM 24.32 75.776 0.169 8.12 1.99 8.93
8/2/2022 2:00:00 PM 24.59 76.262 0.168 8.16 2.01 8.94
8/2/2022 2:15:00 PM 24.81 76.658 0.168 8.19 2.1 8.89
8/2/2022 2:30:00 PM 24.98 76.964 0.168 8.25 2.07 8.82
8/2/2022 2:45:00 PM 25.1 77.18 0.169 8.23 2.04 8.69
8/2/2022 3:00:00 PM 25.18 77.324 0.169 8.25 2.16 8.6
8/2/2022 3:15:00 PM 25.32 77.576 0.169 8.25 2.06 8.54
8/2/2022 3:30:00 PM 25.43 77.774 0.169 8.26 2.12 8.42
8/2/2022 3:45:00 PM 25.55 77.99 0.169 8.25 2.23 8.34
8/2/2022 4:00:00 PM 25.7 78.26 0.169 8.27 2.04 8.34
8/2/2022 4:15:00 PM 25.84 78.512 0.169 8.28 2.01 8.31
8/2/2022 4:30:00 PM 25.97 78.746 0.169 8.29 1.9 8.3
8/2/2022 4:45:00 PM 26.1 78.98 0.169 8.31 2.63 8.3
8/2/2022 5:00:00 PM 26.12 79.016 0.169 8.31 1.9 8.27
8/2/2022 5:15:00 PM 26.13 79.034 0.169 8.26 2.02 8.21
8/2/2022 5:30:00 PM 26.08 78.944 0.169 8.24 2.12 8.13
8/2/2022 5:45:00 PM 26.09 78.962 0.169 8.26 2.09 8.13
8/2/2022 6:00:00 PM 26.08 78.944 0.17 8.23 2.11 8.08
8/2/2022 6:15:00 PM 25.98 78.764 0.17 8.2 2.03 7.99
8/2/2022 6:30:00 PM 25.9 78.62 0.17 8.16 2.44 7.89
8/2/2022 6:45:00 PM 25.75 78.35 0.17 8.09 2.13 7.76
8/2/2022 7:00:00 PM 25.64 78.152 0.17 7.94 2.17 7.65
8/2/2022 7:15:00 PM 25.55 77.99 0.17 7.97 2.17 7.56
8/2/2022 7:30:00 PM 25.46 77.828 0.171 7.91 2.24 7.5
8/2/2022 7:45:00 PM 25.38 77.684 0.171 7.87 2.3 7.44
8/2/2022 8:00:00 PM 25.23 77.414 0.171 7.82 2.1 7.35
8/2/2022 8:15:00 PM 25.13 77.234 0.171 7.79 2.13 7.31
8/2/2022 8:30:00 PM 25 77 0.171 7.74 2.48 7.25
8/2/2022 8:45:00 PM 24.84 76.712 0.172 7.67 3.27 7.22
8/2/2022 9:00:00 PM 24.67 76.406 0.172 7.68 2.57 7.17
8/2/2022 9:15:00 PM 24.46 76.028 0.172 7.67 2.47 7.13
8/2/2022 9:30:00 PM 24.27 75.686 0.172 7.63 2.45 7.11
8/2/2022 9:45:00 PM 24.04 75.272 0.173 7.56 3.27 7.11
8/2/2022 10:00:00 PM 23.83 74.894 0.173 7.59 2.47 7.08
8/2/2022 10:15:00 PM 23.61 74.498 0.173 7.57 2.46 7.12
8/2/2022 10:30:00 PM 23.43 74.174 0.173 7.47 3.34 7.13
8/2/2022 10:45:00 PM 23.3 73.94 0.173 7.54 2.44 7.09
8/2/2022 11:00:00 PM 23.12 73.616 0.173 7.47 2.59 7.13
8/2/2022 11:15:00 PM 22.89 73.202 0.173 7.46 3.61 7.17
8/2/2022 11:30:00 PM 22.73 72.914 0.173 7.44 3.81 7.22
8/2/2022 11:45:00 PM 22.58 72.644 0.173 7.45 2.64 7.25
8/3/2022 12:00:00 AM 22.43 72.374 0.173 7.44 2.43 7.3
8/3/2022 12:15:00 AM 22.28 72.104 0.173 7.42 3.66 7.35
8/3/2022 12:30:00 AM 22.13 71.834 0.172 7.41 3.54 7.38
8/3/2022 12:45:00 AM 21.97 71.546 0.172 7.42 3.54 7.41
8/3/2022 1:00:00 AM 21.88 71.384 0.172 7.42 2.65 7.43
8/3/2022 1:15:00 AM 21.72 71.096 0.172 7.42 2.8 7.47
8/3/2022 1:30:00 AM 21.63 70.934 0.171 7.4 3.5 7.51
8/3/2022 1:45:00 AM 21.53 70.754 0.171 7.42 2.46 7.54
8/3/2022 2:00:00 AM 21.43 70.574 0.171 7.4 3.52 7.56
8/3/2022 2:15:00 AM 21.32 70.376 0.171 7.41 2.5 7.58
8/3/2022 2:30:00 AM 21.21 70.17799 0.171 7.41 2.42 7.61
8/3/2022 2:45:00 AM 21.11 69.998 0.171 7.4 3.65 7.65
8/3/2022 3:00:00 AM 20.97 69.746 0.171 7.4 3.48 7.67
8/3/2022 3:15:00 AM 20.9 69.62 0.171 7.41 2.45 7.67
8/3/2022 3:30:00 AM 20.78 69.404 0.171 7.41 2.51 7.7
8/3/2022 3:45:00 AM 20.69 69.242 0.171 7.41 2.57 7.72
8/3/2022 4:00:00 AM 20.59 69.062 0.171 7.41 2.63 7.74
8/3/2022 4:15:00 AM 20.5 68.9 0.171 7.39 3.45 7.77
8/3/2022 4:30:00 AM 20.39 68.702 0.171 7.39 2.47 7.78
8/3/2022 4:45:00 AM 20.29 68.522 0.171 7.4 3.43 7.81
8/3/2022 5:00:00 AM 20.17 68.306 0.171 7.4 2.43 7.83
8/3/2022 5:15:00 AM 20.08 68.144 0.172 7.41 2.39 7.86
8/3/2022 5:30:00 AM 20 68 0.172 7.4 2.37 7.86
8/3/2022 5:45:00 AM 19.9 67.82 0.172 7.39 3.7 7.91
8/3/2022 6:00:00 AM 19.84 67.712 0.172 7.39 3.67 7.92
8/3/2022 6:15:00 AM 19.73 67.514 0.172 7.39 2.27 7.93
8/3/2022 6:30:00 AM 19.67 67.406 0.172 7.4 3.73 7.99
8/3/2022 6:45:00 AM 19.57 67.226 0.172 7.41 2.2 8.01
8/3/2022 7:00:00 AM 19.54 67.172 0.172 7.41 2.19 8.05
8/3/2022 7:15:00 AM 19.52 67.136 0.172 7.42 2.12 8.13
8/3/2022 7:30:00 AM 19.5 67.1 0.172 7.42 2.09 8.19
8/3/2022 7:45:00 AM 19.5 67.1 0.172 7.43 2.36 8.3
8/3/2022 8:00:00 AM 19.52 67.136 0.172 7.46 2.29 8.38
8/3/2022 8:15:00 AM 19.55 67.19 0.172 7.46 3.32 8.48
8/3/2022 8:30:00 AM 19.58 67.244 0.172 7.49 3.16 8.57
8/3/2022 8:45:00 AM 19.61 67.298 0.172 7.5 3.06 8.62
8/3/2022 9:00:00 AM 19.69 67.442 0.171 7.51 2.2 8.7
8/3/2022 9:15:00 AM 19.82 67.676 0.171 7.54 2.17 8.79
8/3/2022 9:30:00 AM 19.97 67.946 0.171 7.59 2.1 8.88
8/3/2022 9:45:00 AM 20.17 68.306 0.171 7.61 3.12 8.97
8/3/2022 10:00:00 AM 20.38 68.684 0.171 7.65 2.17 9.04
8/3/2022 10:15:00 AM 20.65 69.17 0.17 7.69 2.07 9.15
8/3/2022 10:30:00 AM 20.9 69.62 0.17 7.73 2.12 9.21
8/3/2022 10:45:00 AM 21.27 70.286 0.17 7.78 2.12 9.28
8/3/2022 11:00:00 AM 21.57 70.826 0.17 7.83 2.1 9.33
8/3/2022 11:15:00 AM 21.93 71.474 0.17 7.86 3.04 9.38
8/3/2022 11:30:00 AM 22.31 72.158 0.169 7.91 2.48 9.39
8/3/2022 11:45:00 AM 22.63 72.734 0.169 7.96 2.03 9.36
8/3/2022 12:00:00 PM 22.9 73.22 0.169 8.02 2.18 9.39
8/3/2022 12:15:00 PM 23.12 73.616 0.169 8.05 2.1 9.31
8/3/2022 12:30:00 PM 23.41 74.138 0.169 8.08 2.01 9.28
8/3/2022 12:45:00 PM 23.75 74.75 0.169 8.11 2.09 9.27
8/3/2022 1:00:00 PM 24.04 75.272 0.169 8.16 2.08 9.23
8/3/2022 1:15:00 PM 24.4 75.92 0.169 8.21 2.15 9.19
8/3/2022 1:30:00 PM 24.72 76.496 0.169 8.27 2.06 9.17
8/3/2022 1:45:00 PM 24.99 76.982 0.169 8.29 3.13 9.09
8/3/2022 2:00:00 PM 25.3 77.54 0.168 8.34 2.04 9.04
8/3/2022 2:15:00 PM 25.59 78.062 0.168 8.39 2.15 9.02
8/3/2022 2:30:00 PM 25.87 78.566 0.168 8.42 2.03 8.93
8/3/2022 2:45:00 PM 26.11 78.998 0.168 8.42 2.06 8.86
8/3/2022 3:00:00 PM 26.39 79.502 0.168 8.47 2 8.8
8/3/2022 3:15:00 PM 26.59 79.862 0.168 8.5 2.06 8.7
8/3/2022 3:30:00 PM 26.84 80.312 0.168 8.52 1.97 8.64
8/3/2022 3:45:00 PM 27.04 80.672 0.168 8.54 2.02 8.55
8/3/2022 4:00:00 PM 27.24 81.032 0.168 8.55 1.92 8.47
8/3/2022 4:15:00 PM 27.39 81.302 0.168 8.56 1.91 8.42
8/3/2022 4:30:00 PM 27.51 81.518 0.168 8.57 1.97 8.34
8/3/2022 4:45:00 PM 27.61 81.698 0.168 8.57 1.89 8.26
8/3/2022 5:00:00 PM 27.68 81.824 0.169 8.56 1.9 8.17
8/3/2022 5:15:00 PM 27.75 81.95 0.169 8.55 1.96 8.1
8/3/2022 5:30:00 PM 27.78 82.004 0.169 8.53 2.1 8.03
8/3/2022 5:45:00 PM 27.75 81.95 0.169 8.49 1.98 7.95
8/3/2022 6:00:00 PM 27.74 81.932 0.169 8.47 2 7.85
8/3/2022 6:15:00 PM 27.59 81.662 0.17 8.43 2.07 7.74
8/3/2022 6:30:00 PM 27.52 81.536 0.17 8.35 2.15 7.6
8/3/2022 6:45:00 PM 27.43 81.374 0.17 8.29 2.14 7.51
8/3/2022 7:00:00 PM 27.28 81.104 0.171 8.21 2.12 7.42
8/3/2022 7:15:00 PM 27.1 80.78 0.171 8.13 2.11 7.32
8/3/2022 7:30:00 PM 26.9 80.42 0.171 8.04 2.34 7.26
8/3/2022 7:45:00 PM 26.7 80.06 0.172 7.96 2.06 7.21
8/3/2022 8:00:00 PM 26.45 79.61 0.172 7.89 2.37 7.14
8/3/2022 8:15:00 PM 26.17 79.106 0.173 7.82 2.06 7.09
8/3/2022 8:30:00 PM 25.94 78.692 0.173 7.76 2.41 7.08
8/3/2022 8:45:00 PM 25.67 78.206 0.173 7.71 2.42 7.03
8/3/2022 9:00:00 PM 25.36 77.648 0.174 7.66 2.26 7.02
8/3/2022 9:15:00 PM 25.13 77.234 0.174 7.61 3.39 7.02
8/3/2022 9:30:00 PM 24.91 76.838 0.174 7.58 3.28 7.02
8/3/2022 9:45:00 PM 24.67 76.406 0.174 7.55 2.29 7.02
8/3/2022 10:00:00 PM 24.45 76.01 0.174 7.54 2.45 7
8/3/2022 10:15:00 PM 24.22 75.596 0.174 7.52 2.45 7.05
8/3/2022 10:30:00 PM 24.04 75.272 0.175 7.51 2.29 7.04
8/3/2022 10:45:00 PM 23.87 74.966 0.174 7.48 2.79 7.07
8/3/2022 11:00:00 PM 23.7 74.66 0.175 7.47 3.64 7.08
8/3/2022 11:15:00 PM 23.57 74.426 0.175 7.45 3.37 7.1
8/3/2022 11:30:00 PM 23.37 74.066 0.174 7.45 2.25 7.12
8/3/2022 11:45:00 PM 23.24 73.832 0.175 7.45 2.6 7.13
8/4/2022 12:00:00 AM 23.12 73.616 0.175 7.44 2.39 7.13
8/4/2022 12:15:00 AM 22.97 73.346 0.175 7.44 2.28 7.18
8/4/2022 12:30:00 AM 22.88 73.184 0.174 7.43 2.39 7.17
8/4/2022 12:45:00 AM 22.75 72.95 0.174 7.42 2.46 7.2
8/4/2022 1:00:00 AM 22.63 72.734 0.174 7.41 3.47 7.26
8/4/2022 1:15:00 AM 22.48 72.464 0.174 7.42 2.44 7.28
8/4/2022 1:30:00 AM 22.37 72.266 0.174 7.4 3.5 7.3
8/4/2022 1:45:00 AM 22.27 72.086 0.174 7.41 2.73 7.31
8/4/2022 2:00:00 AM 22.15 71.87 0.174 7.41 2.22 7.33
8/4/2022 2:15:00 AM 21.98 71.564 0.174 7.4 2.25 7.36
8/4/2022 2:30:00 AM 21.88 71.384 0.174 7.4 2.48 7.4
8/4/2022 2:45:00 AM 21.77 71.186 0.174 7.4 2.4 7.42
8/4/2022 3:00:00 AM 21.66 70.988 0.174 7.4 2.44 7.43
8/4/2022 3:15:00 AM 21.55 70.79 0.174 7.4 2.23 7.47
8/4/2022 3:30:00 AM 21.48 70.664 0.174 7.38 3.25 7.49
8/4/2022 3:45:00 AM 21.39 70.502 0.174 7.4 2.4 7.5
8/4/2022 4:00:00 AM 21.3 70.34 0.174 7.39 2.33 7.51
8/4/2022 4:15:00 AM 21.22 70.196 0.174 7.37 3.42 7.54
8/4/2022 4:30:00 AM 21.06 69.908 0.174 7.39 2.42 7.56
8/4/2022 4:45:00 AM 21 69.8 0.174 7.4 2.38 7.58
8/4/2022 5:00:00 AM 20.96 69.728 0.174 7.39 2.5 7.58
8/4/2022 5:15:00 AM 20.89 69.602 0.174 7.37 3.58 7.63
8/4/2022 5:30:00 AM 20.81 69.458 0.175 7.39 2.47 7.62
8/4/2022 5:45:00 AM 20.73 69.314 0.175 7.37 3.52 7.65
8/4/2022 6:00:00 AM 20.63 69.134 0.175 7.39 2.3 7.68
8/4/2022 6:15:00 AM 20.56 69.008 0.175 7.38 2.31 7.68
8/4/2022 6:30:00 AM 20.47 68.846 0.175 7.38 3.28 7.73
8/4/2022 6:45:00 AM 20.47 68.846 0.175 7.4 2.45 7.74
8/4/2022 7:00:00 AM 20.44 68.792 0.175 7.4 2.37 7.81
8/4/2022 7:15:00 AM 20.43 68.774 0.175 7.41 2.4 7.88
8/4/2022 7:30:00 AM 20.42 68.756 0.175 7.41 3.26 7.98
8/4/2022 7:45:00 AM 20.44 68.792 0.175 7.41 3.34 8.08
8/4/2022 8:00:00 AM 20.47 68.846 0.175 7.44 4.03 8.17
8/4/2022 8:15:00 AM 20.53 68.954 0.175 7.47 2.23 8.25
8/4/2022 8:30:00 AM 20.62 69.116 0.175 7.49 2.3 8.33
8/4/2022 8:45:00 AM 20.67 69.206 0.175 7.48 2.08 8.42
8/4/2022 9:00:00 AM 20.8 69.44 0.175 7.53 2.13 8.51
8/4/2022 9:15:00 AM 20.97 69.746 0.174 7.56 2.03 8.62
8/4/2022 9:30:00 AM 21.13 70.034 0.174 7.57 3.12 8.72
8/4/2022 9:45:00 AM 21.3 70.34 0.174 7.62 2.17 8.81
8/4/2022 10:00:00 AM 21.54 70.772 0.174 7.65 2.22 8.89
8/4/2022 10:15:00 AM 21.79 71.222 0.174 7.69 2.22 8.94
8/4/2022 10:30:00 AM 22.13 71.834 0.173 7.73 2.11 9.07
8/4/2022 10:45:00 AM 22.51 72.518 0.173 7.77 2.15 9.15
8/4/2022 11:00:00 AM 22.95 73.31 0.173 7.83 2.08 9.22
8/4/2022 11:15:00 AM 23.07 73.526 0.173 7.86 2.12 9.19
8/4/2022 11:30:00 AM 23.37 74.066 0.173 7.91 2.17 9.2
8/4/2022 11:45:00 AM 23.66 74.588 0.172 7.94 2.12 9.17
8/4/2022 12:00:00 PM 23.67 74.606 0.172 7.94 2.05 9
8/4/2022 12:15:00 PM 23.81 74.858 0.172 7.96 2.03 8.93
8/4/2022 12:30:00 PM 24.08 75.344 0.172 7.97 2.27 8.83
8/4/2022 12:45:00 PM 24.27 75.686 0.172 7.98 1.99 8.77
8/4/2022 1:00:00 PM 24.68 76.424 0.172 8.03 2.01 8.84
8/4/2022 1:15:00 PM 24.99 76.982 0.172 8.06 1.98 8.82
8/4/2022 1:30:00 PM 25.34 77.612 0.172 8.11 1.97 8.84
8/4/2022 1:45:00 PM 25.62 78.116 0.172 8.16 1.87 8.83
8/4/2022 2:00:00 PM 25.85 78.53 0.172 8.19 1.88 8.83
8/4/2022 2:15:00 PM 25.95 78.71 0.172 8.21 1.94 8.73
8/4/2022 2:30:00 PM 26.14 79.052 0.172 8.22 1.96 8.68
8/4/2022 2:45:00 PM 26.3 79.34 0.172 8.23 1.92 8.64
8/4/2022 3:00:00 PM 26.56 79.808 0.171 8.28 1.91 8.64
8/4/2022 3:15:00 PM 26.81 80.258 0.171 8.32 1.9 8.63
8/4/2022 3:30:00 PM 27.02 80.636 0.171 8.35 2 8.59
8/4/2022 3:45:00 PM 26.86 80.348 0.171 8.37 1.98 8.45
8/4/2022 4:00:00 PM 26.66 79.988 0.172 8.33 2 8.2
8/4/2022 4:15:00 PM 26.51 79.718 0.172 8.26 2.04 7.96
8/4/2022 4:30:00 PM 26.43 79.574 0.172 8.2 2.07 7.75
8/4/2022 4:45:00 PM 26.42 79.556 0.172 8.15 2.83 7.67
8/4/2022 5:00:00 PM 26.43 79.574 0.172 8.13 2 7.62
8/4/2022 5:15:00 PM 26.42 79.556 0.172 8.11 2.01 7.63
8/4/2022 5:30:00 PM 26.43 79.574 0.172 8.09 1.94 7.68
8/4/2022 5:45:00 PM 26.41 79.538 0.172 8.07 2.06 7.74
8/4/2022 6:00:00 PM 26.38 79.484 0.172 8.05 2.28 7.79
8/4/2022 6:15:00 PM 26.29 79.32201 0.172 8 2.3 7.74
8/4/2022 6:30:00 PM 26.18 79.124 0.173 7.97 2.11 7.78
8/4/2022 6:45:00 PM 26.07 78.926 0.173 7.93 2.09 7.74
8/4/2022 7:00:00 PM 25.96 78.728 0.173 7.89 1.99 7.71
8/4/2022 7:15:00 PM 25.83 78.494 0.173 7.86 2.14 7.66
8/4/2022 7:30:00 PM 25.68 78.224 0.173 7.82 2.17 7.59
8/4/2022 7:45:00 PM 25.54 77.972 0.174 7.77 2.2 7.51
8/4/2022 8:00:00 PM 25.4 77.72 0.174 7.74 2.21 7.43
8/4/2022 8:15:00 PM 25.26 77.468 0.174 7.7 2.12 7.38
8/4/2022 8:30:00 PM 25.13 77.234 0.174 7.68 2.35 7.35
8/4/2022 8:45:00 PM 25 77 0.174 7.64 2.5 7.27
8/4/2022 9:00:00 PM 24.9 76.82 0.174 7.61 3.56 7.27
8/4/2022 9:15:00 PM 24.77 76.586 0.174 7.58 3.61 7.23
8/4/2022 9:30:00 PM 24.67 76.406 0.174 7.57 2.44 7.19
8/4/2022 9:45:00 PM 24.55 76.19 0.174 7.54 2.34 7.18
8/4/2022 10:00:00 PM 24.43 75.974 0.174 7.53 2.17 7.14
8/4/2022 10:15:00 PM 24.3 75.74 0.175 7.52 2.13 7.15
8/4/2022 10:30:00 PM 24.18 75.524 0.175 7.5 2.37 7.14
8/4/2022 10:45:00 PM 24.07 75.326 0.175 7.49 2.43 7.15
8/4/2022 11:00:00 PM 23.96 75.128 0.175 7.48 2.25 7.15
8/4/2022 11:15:00 PM 23.84 74.912 0.175 7.46 2.26 7.14
8/4/2022 11:30:00 PM 23.74 74.732 0.176 7.46 2.5 7.18
8/4/2022 11:45:00 PM 23.63 74.534 0.176 7.45 2.75 7.16
8/5/2022 12:00:00 AM 23.53 74.354 0.176 7.44 2.32 7.2
8/5/2022 12:15:00 AM 23.42 74.156 0.176 7.44 2.29 7.19
8/5/2022 12:30:00 AM 23.35 74.03 0.176 7.43 2.28 7.2
8/5/2022 12:45:00 AM 23.24 73.832 0.176 7.42 2.41 7.21
8/5/2022 1:00:00 AM 23.16 73.688 0.176 7.42 2.46 7.24
8/5/2022 1:15:00 AM 23.08 73.544 0.175 7.41 3.59 7.26
8/5/2022 1:30:00 AM 23 73.4 0.175 7.4 3.4 7.28
8/5/2022 1:45:00 AM 22.92 73.256 0.175 7.41 2.45 7.29
8/5/2022 2:00:00 AM 22.84 73.112 0.175 7.41 2.32 7.31
8/5/2022 2:15:00 AM 22.75 72.95 0.175 7.4 2.55 7.33
8/5/2022 2:30:00 AM 22.68 72.824 0.175 7.4 2.27 7.35
8/5/2022 2:45:00 AM 22.6 72.68 0.175 7.4 2.32 7.37
8/5/2022 3:00:00 AM 22.53 72.554 0.175 7.4 2.41 7.37
8/5/2022 3:15:00 AM 22.45 72.41 0.175 7.36 3.88 7.4
8/5/2022 3:30:00 AM 22.39 72.302 0.175 7.4 2.39 7.41
8/5/2022 3:45:00 AM 22.33 72.194 0.175 7.38 3.44 7.43
8/5/2022 4:00:00 AM 22.28 72.104 0.175 7.39 2.67 7.43
8/5/2022 4:15:00 AM 22.22 71.996 0.175 7.39 2.51 7.43
8/5/2022 4:30:00 AM 22.13 71.834 0.175 7.39 2.48 7.45
8/5/2022 4:45:00 AM 22.09 71.762 0.175 7.39 2.62 7.47
8/5/2022 5:00:00 AM 22.03 71.654 0.175 7.37 3.75 7.49
8/5/2022 5:15:00 AM 21.96 71.528 0.176 7.38 2.51 7.5
8/5/2022 5:30:00 AM 21.9 71.42 0.176 7.38 3.46 7.52
8/5/2022 5:45:00 AM 21.83 71.294 0.176 7.38 2.55 7.52
8/5/2022 6:00:00 AM 21.78 71.204 0.176 7.37 2.99 7.54
8/5/2022 6:15:00 AM 21.71 71.078 0.176 7.37 3.53 7.55
8/5/2022 6:30:00 AM 21.67 71.006 0.176 7.37 3.63 7.59
8/5/2022 6:45:00 AM 21.6 70.88 0.176 7.38 3.5 7.62
8/5/2022 7:00:00 AM 21.59 70.862 0.176 7.39 2.4 7.64
8/5/2022 7:15:00 AM 21.55 70.79 0.176 7.37 3.58 7.67
8/5/2022 7:30:00 AM 21.52 70.736 0.176 7.4 2.2 7.73
8/5/2022 7:45:00 AM 21.51 70.718 0.176 7.4 3.23 7.79
8/5/2022 8:00:00 AM 21.52 70.736 0.175 7.4 3.43 7.89
8/5/2022 8:15:00 AM 21.53 70.754 0.175 7.43 3.31 7.99
8/5/2022 8:30:00 AM 21.58 70.844 0.175 7.44 3.28 8.12
8/5/2022 8:45:00 AM 21.63 70.934 0.175 7.47 2.06 8.19
8/5/2022 9:00:00 AM 21.73 71.114 0.175 7.49 2.15 8.33
8/5/2022 9:15:00 AM 21.84 71.312 0.175 7.51 3.24 8.45
8/5/2022 9:30:00 AM 21.98 71.564 0.174 7.56 2.18 8.58
8/5/2022 9:45:00 AM 22.16 71.888 0.174 7.6 2 8.73
8/5/2022 10:00:00 AM 22.24 72.032 0.174 7.64 2.11 8.8
8/5/2022 10:15:00 AM 22.4 72.32 0.174 7.65 2.13 8.93
8/5/2022 10:30:00 AM 22.62 72.716 0.173 7.72 2.22 9.01
8/5/2022 10:45:00 AM 23.06 73.508 0.173 7.78 2.23 9.15
8/5/2022 11:00:00 AM 23.39 74.102 0.173 7.84 2.09 9.24
8/5/2022 11:15:00 AM 23.61 74.498 0.172 7.9 2.51 9.26
8/5/2022 11:30:00 AM 23.92 75.056 0.172 7.96 2.04 9.3
8/5/2022 11:45:00 AM 24.27 75.686 0.172 8.02 2.14 9.32
8/5/2022 12:00:00 PM 24.41 75.938 0.172 8.07 2.2 9.32
8/5/2022 12:15:00 PM 24.68 76.424 0.172 8.11 2.14 9.29
8/5/2022 12:30:00 PM 25.01 77.018 0.171 8.16 2.09 9.26
8/5/2022 12:45:00 PM 25.17 77.306 0.171 8.21 2.3 9.21
8/5/2022 1:00:00 PM 25.45 77.81 0.171 8.26 2.09 9.17
8/5/2022 1:15:00 PM 25.63 78.134 0.171 8.31 2.02 9.15
8/5/2022 1:30:00 PM 25.84 78.512 0.171 8.36 1.97 9.1
8/5/2022 1:45:00 PM 26.04 78.872 0.17 8.42 2 9.03
8/5/2022 2:00:00 PM 26.28 79.304 0.17 8.45 2.1 9
8/5/2022 2:15:00 PM 26.62 79.916 0.17 8.51 2.09 9.02
8/5/2022 2:30:00 PM 26.92 80.456 0.17 8.54 1.99 8.95
8/5/2022 2:45:00 PM 27.12 80.816 0.17 8.58 1.85 8.91
8/5/2022 3:00:00 PM 27.17 80.906 0.17 8.58 2 8.74
8/5/2022 3:15:00 PM 27.14 80.852 0.17 8.56 1.93 8.5
8/5/2022 3:30:00 PM 27.09 80.762 0.17 8.5 1.85 8.21
8/5/2022 3:45:00 PM 27.05 80.69 0.17 8.44 2.08 7.99
8/5/2022 4:00:00 PM 27.06 80.708 0.17 8.41 2.29 7.88
8/5/2022 4:15:00 PM 27.1 80.78 0.17 8.41 2.14 7.89
8/5/2022 4:30:00 PM 27.13 80.834 0.17 8.39 1.96 7.91
8/5/2022 4:45:00 PM 27.16 80.888 0.17 8.37 1.94 7.94
8/5/2022 5:00:00 PM 27.16 80.888 0.171 8.35 2.12 7.99
8/5/2022 5:15:00 PM 27.11 80.798 0.171 8.32 2.26 7.97
8/5/2022 5:30:00 PM 26.99 80.582 0.171 8.24 2.08 7.85
8/5/2022 5:45:00 PM 26.86 80.348 0.171 8.15 1.92 7.76
8/5/2022 6:00:00 PM 26.74 80.132 0.171 8.08 1.89 7.69
8/5/2022 6:15:00 PM 26.62 79.916 0.171 8.03 2 7.66
8/5/2022 6:30:00 PM 26.51 79.718 0.172 7.98 2.19 7.62
8/5/2022 6:45:00 PM 26.42 79.556 0.172 7.93 2.14 7.57
8/5/2022 7:00:00 PM 26.31 79.358 0.172 7.89 2.09 7.59
8/5/2022 7:15:00 PM 26.2 79.16 0.172 7.85 2.24 7.54
8/5/2022 7:30:00 PM 26.1 78.98 0.172 7.81 2.28 7.49
8/5/2022 7:45:00 PM 25.98 78.764 0.172 7.77 2.19 7.43
8/5/2022 8:00:00 PM 25.85 78.53 0.172 7.73 2.21 7.37
8/5/2022 8:15:00 PM 25.72 78.296 0.172 7.7 2.24 7.3
8/5/2022 8:30:00 PM 25.59 78.062 0.173 7.67 2.24 7.24
8/5/2022 8:45:00 PM 25.47 77.846 0.173 7.63 2.51 7.21
8/5/2022 9:00:00 PM 25.34 77.612 0.173 7.61 2.32 7.17
8/5/2022 9:15:00 PM 25.23 77.414 0.173 7.58 2.47 7.12
8/5/2022 9:30:00 PM 25.12 77.216 0.173 7.56 2.59 7.11
8/5/2022 9:45:00 PM 25.01 77.018 0.173 7.54 2.59 7.1
8/5/2022 10:00:00 PM 24.87 76.766 0.173 7.52 2.41 7.1
8/5/2022 10:15:00 PM 24.76 76.568 0.173 7.51 2.36 7.1
8/5/2022 10:30:00 PM 24.62 76.316 0.173 7.48 3.25 7.1
8/5/2022 10:45:00 PM 24.5 76.1 0.173 7.48 2.42 7.09
8/5/2022 11:00:00 PM 24.41 75.938 0.173 7.47 2.51 7.1
8/5/2022 11:15:00 PM 24.29 75.722 0.173 7.45 3.49 7.12
8/5/2022 11:30:00 PM 24.2 75.56 0.173 7.45 2.39 7.13
8/5/2022 11:45:00 PM 24.09 75.362 0.173 7.44 2.38 7.12
8/6/2022 12:00:00 AM 23.98 75.164 0.173 7.43 2.59 7.14
8/6/2022 12:15:00 AM 23.88 74.984 0.173 7.43 2.43 7.17
8/6/2022 12:30:00 AM 23.78 74.804 0.173 7.41 3.57 7.19
8/6/2022 12:45:00 AM 23.67 74.606 0.173 7.42 2.65 7.21
8/6/2022 1:00:00 AM 23.58 74.444 0.173 7.41 2.61 7.21
8/6/2022 1:15:00 AM 23.48 74.264 0.173 7.41 2.71 7.24
8/6/2022 1:30:00 AM 23.4 74.12 0.173 7.41 2.51 7.24
8/6/2022 1:45:00 AM 23.32 73.976 0.173 7.4 2.85 7.28
8/6/2022 2:00:00 AM 23.23 73.814 0.173 7.4 2.82 7.28
8/6/2022 2:15:00 AM 23.13 73.634 0.173 7.4 3.65 7.31
8/6/2022 2:30:00 AM 23.05 73.49 0.173 7.4 2.64 7.33
8/6/2022 2:45:00 AM 22.97 73.346 0.173 7.4 2.62 7.35
8/6/2022 3:00:00 AM 22.88 73.184 0.173 7.38 3.42 7.37
8/6/2022 3:15:00 AM 22.82 73.076 0.173 7.4 2.68 7.39
8/6/2022 3:30:00 AM 22.76 72.968 0.173 7.38 3.61 7.42
8/6/2022 3:45:00 AM 22.69 72.842 0.173 7.39 2.68 7.42
8/6/2022 4:00:00 AM 22.63 72.734 0.173 7.39 2.81 7.44
8/6/2022 4:15:00 AM 22.57 72.626 0.173 7.38 3.64 7.46
8/6/2022 4:30:00 AM 22.5 72.5 0.173 7.39 2.76 7.48
8/6/2022 4:45:00 AM 22.45 72.41 0.174 7.38 2.6 7.48
8/6/2022 5:00:00 AM 22.4 72.32 0.174 7.38 3.9 7.51
8/6/2022 5:15:00 AM 22.34 72.212 0.174 7.39 2.77 7.5
8/6/2022 5:30:00 AM 22.29 72.122 0.174 7.38 3.85 7.52
8/6/2022 5:45:00 AM 22.24 72.032 0.174 7.39 2.51 7.52
8/6/2022 6:00:00 AM 22.2 71.96 0.174 7.38 4.06 7.56
8/6/2022 6:15:00 AM 22.16 71.888 0.174 7.39 2.67 7.55
8/6/2022 6:30:00 AM 22.12 71.816 0.174 7.39 2.65 7.55
8/6/2022 6:45:00 AM 22.1 71.78 0.174 7.4 2.72 7.6
8/6/2022 7:00:00 AM 22.08 71.744 0.174 7.4 2.45 7.65
8/6/2022 7:15:00 AM 22.06 71.708 0.174 7.41 2.43 7.71
8/6/2022 7:30:00 AM 22.05 71.69 0.173 7.41 3.57 7.78
8/6/2022 7:45:00 AM 22.06 71.708 0.173 7.44 2.42 7.84
8/6/2022 8:00:00 AM 22.06 71.708 0.173 7.45 2.41 7.92
8/6/2022 8:15:00 AM 22.07 71.726 0.173 7.45 3.56 8.03
8/6/2022 8:30:00 AM 22.09 71.762 0.173 7.46 3.5 8.1
8/6/2022 8:45:00 AM 22.14 71.852 0.173 7.5 2.24 8.22
8/6/2022 9:00:00 AM 22.21 71.978 0.173 7.53 2.32 8.33
8/6/2022 9:15:00 AM 22.32 72.176 0.173 7.55 2.2 8.42
8/6/2022 9:30:00 AM 22.42 72.356 0.172 7.58 2.29 8.48
8/6/2022 9:45:00 AM 22.6 72.68 0.172 7.61 2.29 8.58
8/6/2022 10:00:00 AM 22.76 72.968 0.172 7.63 2.75 8.67
8/6/2022 10:15:00 AM 22.92 73.256 0.172 7.68 2.38 8.76
8/6/2022 10:30:00 AM 23.17 73.706 0.172 7.73 2.25 8.84
8/6/2022 10:45:00 AM 23.46 74.228 0.171 7.77 2.32 8.92
8/6/2022 11:00:00 AM 23.73 74.714 0.171 7.82 2.22 8.97
8/6/2022 11:15:00 AM 23.9 75.02 0.171 7.85 2.41 8.96
8/6/2022 11:30:00 AM 24.44 75.992 0.171 7.92 2.29 9.08
8/6/2022 11:45:00 AM 24.69 76.442 0.171 7.96 2.24 9.05
8/6/2022 12:00:00 PM 24.72 76.496 0.171 7.99 2.24 8.94
8/6/2022 12:15:00 PM 24.84 76.712 0.171 8.01 2.4 8.87
8/6/2022 12:30:00 PM 24.92 76.856 0.171 8 2.17 8.68
8/6/2022 12:45:00 PM 25.18 77.324 0.171 8.03 2.22 8.72
8/6/2022 1:00:00 PM 25.62 78.116 0.171 8.07 2.08 8.78
8/6/2022 1:15:00 PM 26.02 78.836 0.17 8.15 2.26 8.87
8/6/2022 1:30:00 PM 26.26 79.268 0.171 8.2 2.02 8.85
8/6/2022 1:45:00 PM 26.51 79.718 0.171 8.24 2.14 8.84
8/6/2022 2:00:00 PM 26.6 79.88 0.171 8.26 2.12 8.8
8/6/2022 2:15:00 PM 26.74 80.132 0.171 8.29 2 8.78
8/6/2022 2:30:00 PM 26.94 80.492 0.171 8.33 2.2 8.76
8/6/2022 2:45:00 PM 27.1 80.78 0.171 8.36 2.11 8.7
8/6/2022 3:00:00 PM 27.26 81.068 0.171 8.4 2.15 8.68
8/6/2022 3:15:00 PM 27.35 81.23 0.171 8.41 2.14 8.56
8/6/2022 3:30:00 PM 27.42 81.356 0.171 8.41 1.92 8.41
8/6/2022 3:45:00 PM 27.48 81.464 0.171 8.41 2.23 8.32
8/6/2022 4:00:00 PM 27.51 81.518 0.171 8.4 2.07 8.2
8/6/2022 4:15:00 PM 27.51 81.518 0.171 8.38 2.07 8.05
8/6/2022 4:30:00 PM 27.59 81.662 0.171 8.37 2.18 8.01
8/6/2022 4:45:00 PM 27.61 81.698 0.171 8.36 2.14 7.98
8/6/2022 5:00:00 PM 27.57 81.626 0.171 8.32 2.22 7.84
8/6/2022 5:15:00 PM 27.5 81.5 0.171 8.26 2.14 7.7
8/6/2022 5:30:00 PM 27.43 81.374 0.172 8.17 2.16 7.6
8/6/2022 5:45:00 PM 27.4 81.32 0.172 8.14 2.13 7.65
8/6/2022 6:00:00 PM 27.42 81.356 0.172 8.15 2.08 7.82
8/6/2022 6:15:00 PM 27.4 81.32 0.172 8.14 2.1 7.84
8/6/2022 6:30:00 PM 27.34 81.212 0.172 8.11 2.22 7.84
8/6/2022 6:45:00 PM 27.19 80.942 0.173 8.05 2.35 7.76
8/6/2022 7:00:00 PM 27.07 80.726 0.173 8 2.19 7.69
8/6/2022 7:15:00 PM 26.94 80.492 0.173 7.95 2.13 7.61
8/6/2022 7:30:00 PM 26.83 80.294 0.173 7.89 2.35 7.52
8/6/2022 7:45:00 PM 26.7 80.06 0.173 7.84 2.14 7.43
8/6/2022 8:00:00 PM 26.58 79.844 0.173 7.8 2.21 7.37
8/6/2022 8:15:00 PM 26.46 79.628 0.173 7.75 2.6 7.27
8/6/2022 8:30:00 PM 26.35 79.43 0.173 7.72 2.22 7.21
8/6/2022 8:45:00 PM 26.23 79.214 0.173 7.68 2.25 7.16
8/6/2022 9:00:00 PM 26.09 78.962 0.174 7.65 2.55 7.12
8/6/2022 9:15:00 PM 25.96 78.728 0.174 7.62 2.59 7.11
8/6/2022 9:30:00 PM 25.82 78.476 0.174 7.59 2.83 7.06
8/6/2022 9:45:00 PM 25.68 78.224 0.174 7.57 3.5 7.04
8/6/2022 10:00:00 PM 25.55 77.99 0.174 7.55 2.41 7.01
8/6/2022 10:15:00 PM 25.43 77.774 0.174 7.53 2.52 7.02
8/6/2022 10:30:00 PM 25.31 77.558 0.174 7.51 2.49 7.01
8/6/2022 10:45:00 PM 25.19 77.342 0.174 7.5 2.52 7.01
8/6/2022 11:00:00 PM 25.07 77.126 0.174 7.47 2.41 6.99
8/6/2022 11:15:00 PM 24.97 76.946 0.175 7.47 2.57 7.02
8/6/2022 11:30:00 PM 24.87 76.766 0.175 7.46 2.47 7.02
8/6/2022 11:45:00 PM 24.76 76.568 0.175 7.45 2.3 7.02
8/7/2022 12:00:00 AM 24.67 76.406 0.175 7.43 3.53 7.05
8/7/2022 12:15:00 AM 24.58 76.244 0.174 7.42 3.75 7.05
8/7/2022 12:30:00 AM 24.5 76.1 0.174 7.43 2.71 7.05
8/7/2022 12:45:00 AM 24.43 75.974 0.174 7.43 2.73 7.07
8/7/2022 1:00:00 AM 24.36 75.848 0.174 7.42 2.56 7.07
8/7/2022 1:15:00 AM 24.3 75.74 0.174 7.41 2.65 7.08
8/7/2022 1:30:00 AM 24.23 75.614 0.174 7.41 2.45 7.11
8/7/2022 1:45:00 AM 24.17 75.506 0.174 7.41 2.74 7.12
8/7/2022 2:00:00 AM 24.11 75.398 0.174 7.4 2.65 7.13
8/7/2022 2:15:00 AM 24.05 75.29 0.174 7.4 2.51 7.14
8/7/2022 2:30:00 AM 24.01 75.218 0.174 7.4 3.01 7.15
8/7/2022 2:45:00 AM 23.96 75.128 0.174 7.4 2.42 7.15
8/7/2022 3:00:00 AM 23.9 75.02 0.174 7.39 2.45 7.15
8/7/2022 3:15:00 AM 23.86 74.948 0.174 7.4 2.48 7.18
8/7/2022 3:30:00 AM 23.81 74.858 0.175 7.39 2.42 7.19
8/7/2022 3:45:00 AM 23.77 74.786 0.175 7.39 2.84 7.18
8/7/2022 4:00:00 AM 23.72 74.696 0.175 7.4 2.64 7.2
8/7/2022 4:15:00 AM 23.68 74.624 0.175 7.39 2.5 7.2
8/7/2022 4:30:00 AM 23.64 74.552 0.175 7.39 2.59 7.21
8/7/2022 4:45:00 AM 23.58 74.444 0.175 7.39 2.62 7.22
8/7/2022 5:00:00 AM 23.52 74.336 0.175 7.39 2.46 7.23
8/7/2022 5:15:00 AM 23.46 74.228 0.175 7.37 3.68 7.24
8/7/2022 5:30:00 AM 23.4 74.12 0.175 7.39 2.53 7.25
8/7/2022 5:45:00 AM 23.34 74.012 0.175 7.36 2.47 7.25
8/7/2022 6:00:00 AM 23.28 73.904 0.175 7.38 3.83 7.27
8/7/2022 6:15:00 AM 23.22 73.796 0.175 7.38 2.51 7.27
8/7/2022 6:30:00 AM 23.16 73.688 0.175 7.37 3.7 7.29
8/7/2022 6:45:00 AM 23.13 73.634 0.175 7.38 2.42 7.3
8/7/2022 7:00:00 AM 23.1 73.58 0.175 7.39 2.35 7.36
8/7/2022 7:15:00 AM 23.09 73.562 0.175 7.38 3.4 7.42
8/7/2022 7:30:00 AM 23.09 73.562 0.175 7.4 2.42 7.5
8/7/2022 7:45:00 AM 23.06 73.508 0.175 7.41 2.42 7.53
8/7/2022 8:00:00 AM 23.05 73.49 0.175 7.42 2.3 7.61
8/7/2022 8:15:00 AM 23.11 73.598 0.175 7.44 2.51 7.72
8/7/2022 8:30:00 AM 23.14 73.652 0.175 7.45 2.33 7.79
8/7/2022 8:45:00 AM 23.13 73.634 0.175 7.46 2.21 7.83
8/7/2022 9:00:00 AM 23.2 73.76 0.174 7.47 3.27 7.95
8/7/2022 9:15:00 AM 23.24 73.832 0.174 7.5 2.19 8
8/7/2022 9:30:00 AM 23.29 73.922 0.174 7.52 2.18 8.06
8/7/2022 9:45:00 AM 23.43 74.174 0.174 7.55 2.33 8.21
8/7/2022 10:00:00 AM 23.56 74.408 0.174 7.58 2.37 8.28
8/7/2022 10:15:00 AM 23.79 74.82201 0.174 7.59 2.23 8.35
8/7/2022 10:30:00 AM 24.05 75.29 0.173 7.63 2.24 8.53
8/7/2022 10:45:00 AM 24.25 75.65 0.173 7.68 2.33 8.57
8/7/2022 11:00:00 AM 24.47 76.046 0.173 7.71 2.53 8.67
8/7/2022 11:15:00 AM 24.54 76.172 0.173 7.74 2.35 8.7
8/7/2022 11:30:00 AM 24.58 76.244 0.173 7.77 2.2 8.68
8/7/2022 11:45:00 AM 24.67 76.406 0.173 7.76 2.29 8.67
8/7/2022 12:00:00 PM 24.76 76.568 0.173 7.81 2.17 8.7
8/7/2022 12:15:00 PM 24.85 76.73 0.173 7.76 2.29 8.7
8/7/2022 12:30:00 PM 24.92 76.856 0.173 7.82 2.25 8.62
8/7/2022 12:45:00 PM 25.02 77.036 0.173 7.81 2.39 8.58
8/7/2022 1:00:00 PM 25.26 77.468 0.173 7.84 2.17 8.63
8/7/2022 1:15:00 PM 25.33 77.594 0.173 7.66 2.15 8.52
8/7/2022 1:30:00 PM 25.36 77.648 0.173 7.88 2.29 8.46
8/7/2022 1:45:00 PM 25.46 77.828 0.173 7.85 2.29 8.49
8/7/2022 2:00:00 PM 25.56 78.008 0.173 7.85 2.24 8.45
8/7/2022 2:15:00 PM 25.71 78.278 0.172 7.93 2.24 8.52
8/7/2022 2:30:00 PM 25.96 78.728 0.172 7.91 2.17 8.58
8/7/2022 2:45:00 PM 26.17 79.106 0.172 7.96 2.29 8.65
8/7/2022 3:00:00 PM 26.4 79.52 0.172 7.91 2.37 8.62
8/7/2022 3:15:00 PM 26.64 79.952 0.172 7.99 2.29 8.64
8/7/2022 3:30:00 PM 26.78 80.204 0.172 8 2.55 8.65
8/7/2022 3:45:00 PM 26.81 80.258 0.172 8.02 2.39 8.62
8/7/2022 4:00:00 PM 26.83 80.294 0.172 8.02 2.47 8.56
8/7/2022 4:15:00 PM 26.79 80.222 0.172 8.01 2.41 8.43
8/7/2022 4:30:00 PM 26.76 80.168 0.172 8.01 2.31 8.4
8/7/2022 4:45:00 PM 26.86 80.348 0.172 8.02 2.49 8.41
8/7/2022 5:00:00 PM 27 80.6 0.172 8.03 2.53 8.38
8/7/2022 5:15:00 PM 27.15 80.87 0.172 7.98 2.44 8.35
8/7/2022 5:30:00 PM 27.21 80.978 0.172 8.04 2.36 8.32
8/7/2022 5:45:00 PM 27.16 80.888 0.172 7.99 2.39 8.16
8/7/2022 6:00:00 PM 27.14 80.852 0.172 7.9 2.42 8.03
8/7/2022 6:15:00 PM 27.05 80.69 0.173 7.99 2.66 7.87
8/7/2022 6:30:00 PM 27.06 80.708 0.173 7.98 2.39 7.82
8/7/2022 6:45:00 PM 27.03 80.654 0.173 7.95 2.31 7.7
8/7/2022 7:00:00 PM 27.01 80.618 0.173 7.91 2.33 7.62
8/7/2022 7:15:00 PM 26.96 80.528 0.173 7.85 2.5 7.49
8/7/2022 7:30:00 PM 26.88 80.384 0.173 7.83 2.52 7.35
8/7/2022 7:45:00 PM 26.84 80.312 0.174 7.85 2.55 7.24
8/7/2022 8:00:00 PM 26.73 80.114 0.174 7.81 2.16 7.14
8/7/2022 8:15:00 PM 26.66 79.988 0.174 7.81 2.07 7.06
8/7/2022 8:30:00 PM 26.6 79.88 0.175 7.76 2.33 6.99
8/7/2022 8:45:00 PM 26.48 79.664 0.175 7.79 2.47 6.93
8/7/2022 9:00:00 PM 26.37 79.466 0.175 7.71 2.26 6.88
8/7/2022 9:15:00 PM 26.22 79.196 0.175 7.7 2.12 6.82
8/7/2022 9:30:00 PM 26.16 79.088 0.176 7.73 2.07 6.8
8/7/2022 9:45:00 PM 26.02 78.836 0.176 7.66 3.17 6.8
8/7/2022 10:00:00 PM 25.85 78.53 0.177 7.65 2.26 6.67
8/7/2022 10:15:00 PM 25.76 78.368 0.177 7.69 2.23 6.7
8/7/2022 10:30:00 PM 25.66 78.188 0.177 7.67 1.97 6.72
8/7/2022 10:45:00 PM 25.52 77.936 0.177 7.57 2.23 6.71
8/7/2022 11:00:00 PM 25.37 77.666 0.177 7.64 2.26 6.69
8/7/2022 11:15:00 PM 25.27 77.486 0.178 7.63 2.29 6.72
8/7/2022 11:30:00 PM 25.13 77.234 0.178 7.64 2.37 6.74
8/7/2022 11:45:00 PM 24.99 76.982 0.178 7.6 2.15 6.74
8/8/2022 12:00:00 AM 24.85 76.73 0.178 7.45 3.42 6.78
8/8/2022 12:15:00 AM 24.74 76.532 0.178 7.59 3.71 6.8
8/8/2022 12:30:00 AM 24.61 76.298 0.178 7.54 3.4 6.81
8/8/2022 12:45:00 AM 24.52 76.136 0.178 7.59 1.96 6.78
8/8/2022 1:00:00 AM 24.39 75.902 0.178 7.6 2 6.81
8/8/2022 1:15:00 AM 24.27 75.686 0.178 7.49 3.72 6.86
8/8/2022 1:30:00 AM 24.16 75.488 0.178 7.56 2.15 6.83
8/8/2022 1:45:00 AM 24.07 75.326 0.178 7.56 2.2 6.86
8/8/2022 2:00:00 AM 23.95 75.11 0.178 7.55 3.41 6.91
8/8/2022 2:15:00 AM 23.85 74.93 0.178 7.62 2.2 6.88
8/8/2022 2:30:00 AM 23.74 74.732 0.178 7.57 2.24 6.89
8/8/2022 2:45:00 AM 23.66 74.588 0.178 7.52 2.11 6.91
8/8/2022 3:00:00 AM 23.57 74.426 0.178 7.56 2.08 6.93
8/8/2022 3:15:00 AM 23.48 74.264 0.178 7.51 2.51 6.94
8/8/2022 3:30:00 AM 23.4 74.12 0.178 7.51 3.85 7
8/8/2022 3:45:00 AM 23.32 73.976 0.178 7.47 4.29 7.02
8/8/2022 4:00:00 AM 23.25 73.85 0.178 7.47 2.92 7
8/8/2022 4:15:00 AM 23.16 73.688 0.178 7.26 3.49 7.05
8/8/2022 4:30:00 AM 23.07 73.526 0.178 7.24 3.91 7.07
8/8/2022 4:45:00 AM 23 73.4 0.178 7.44 2.79 7.09
8/8/2022 5:00:00 AM 22.9 73.22 0.178 7.44 2.7 7.1
8/8/2022 5:15:00 AM 22.82 73.076 0.178 7.36 3.78 7.14
8/8/2022 5:30:00 AM 22.73 72.914 0.178 7.37 2.61 7.11
8/8/2022 5:45:00 AM 22.65 72.77 0.178 7.32 3.71 7.16
8/8/2022 6:00:00 AM 22.54 72.57201 0.178 7.34 3.07 7.16
8/8/2022 6:15:00 AM 22.48 72.464 0.177 7.34 3.67 7.21
8/8/2022 6:30:00 AM 22.41 72.338 0.177 7.32 3.46 7.22
8/8/2022 6:45:00 AM 22.37 72.266 0.177 7.36 2.78 7.25
8/8/2022 7:00:00 AM 22.34 72.212 0.177 7.34 3.6 7.32
8/8/2022 7:15:00 AM 22.33 72.194 0.177 7.34 3.49 7.39
8/8/2022 7:30:00 AM 22.31 72.158 0.177 7.38 2.29 7.43
8/8/2022 7:45:00 AM 22.34 72.212 0.177 7.38 2.93 7.55
8/8/2022 8:00:00 AM 22.33 72.194 0.177 7.4 2.26 7.62
8/8/2022 8:15:00 AM 22.41 72.338 0.177 7.4 3.54 7.74
8/8/2022 8:30:00 AM 22.45 72.41 0.177 7.41 3.26 7.8
8/8/2022 8:45:00 AM 22.5 72.5 0.176 7.43 2.87 7.88
8/8/2022 9:00:00 AM 22.57 72.626 0.176 7.44 3.31 7.94
8/8/2022 9:15:00 AM 22.67 72.806 0.176 7.47 3.43 8.06
8/8/2022 9:30:00 AM 22.81 73.058 0.176 7.51 2.24 8.15
8/8/2022 9:45:00 AM 22.97 73.346 0.175 7.54 2.24 8.26
8/8/2022 10:00:00 AM 23.14 73.652 0.175 7.57 2.34 8.37
8/8/2022 10:15:00 AM 23.28 73.904 0.175 7.6 2.42 8.43
8/8/2022 10:30:00 AM 23.53 74.354 0.175 7.64 2.19 8.57
8/8/2022 10:45:00 AM 23.84 74.912 0.174 7.67 2.31 8.61
8/8/2022 11:00:00 AM 24.26 75.668 0.174 7.72 2.27 8.74
8/8/2022 11:15:00 AM 24.43 75.974 0.174 7.75 2.24 8.72
8/8/2022 11:30:00 AM 24.64 76.352 0.173 7.79 2.27 8.76
8/8/2022 11:45:00 AM 25.01 77.018 0.173 7.84 2.25 8.81
8/8/2022 12:00:00 PM 25.08 77.144 0.173 7.87 2.33 8.75
8/8/2022 12:15:00 PM 25.14 77.252 0.173 7.89 2.06 8.7
8/8/2022 12:30:00 PM 25.29 77.522 0.173 7.91 2.25 8.65
8/8/2022 12:45:00 PM 25.51 77.918 0.173 7.93 1.98 8.61
8/8/2022 1:00:00 PM 25.7 78.26 0.172 7.96 2.05 8.59
8/8/2022 1:15:00 PM 25.97 78.746 0.172 7.99 2.12 8.58
8/8/2022 1:30:00 PM 26.28 79.304 0.172 8.03 2.11 8.58
8/8/2022 1:45:00 PM 26.51 79.718 0.172 8.07 2.25 8.6
8/8/2022 2:00:00 PM 26.76 80.168 0.172 8.11 2.34 8.6
8/8/2022 2:15:00 PM 26.91 80.438 0.172 8.15 2.3 8.59
8/8/2022 2:30:00 PM 27.03 80.654 0.172 8.16 2.14 8.51
8/8/2022 2:45:00 PM 27.08 80.744 0.172 8.17 2.17 8.46
8/8/2022 3:00:00 PM 27.16 80.888 0.172 8.17 2.23 8.39
8/8/2022 3:15:00 PM 27.27 81.086 0.172 8.19 2.2 8.33
8/8/2022 3:30:00 PM 27.35 81.23 0.172 8.2 2.02 8.26
8/8/2022 3:45:00 PM 27.55 81.59 0.172 8.21 2.34 8.19
8/8/2022 4:00:00 PM 27.75 81.95 0.172 8.24 2.21 8.18
8/8/2022 4:15:00 PM 27.92 82.256 0.172 8.28 2.15 8.2
8/8/2022 4:30:00 PM 28.07 82.526 0.172 8.28 2.14 8.18
8/8/2022 4:45:00 PM 28.12 82.616 0.172 8.31 2.17 8.1
8/8/2022 5:00:00 PM 28.19 82.742 0.172 8.3 2.19 8.08
8/8/2022 5:15:00 PM 28.12 82.616 0.172 8.28 3.08 7.89
8/8/2022 5:30:00 PM 28.05 82.49 0.172 8.24 2.34 7.75
8/8/2022 5:45:00 PM 27.97 82.346 0.172 8.18 2.17 7.61
8/8/2022 6:00:00 PM 27.94 82.292 0.172 8.15 2.14 7.57
8/8/2022 6:15:00 PM 27.93 82.274 0.172 8.14 2.28 7.54
8/8/2022 6:30:00 PM 27.9 82.22 0.173 8.11 2.41 7.47
8/8/2022 6:45:00 PM 27.83 82.094 0.173 8.06 2.26 7.39
8/8/2022 7:00:00 PM 27.76 81.968 0.173 7.98 2.33 7.29
8/8/2022 7:15:00 PM 27.69 81.842 0.173 7.92 2.41 7.22
8/8/2022 7:30:00 PM 27.61 81.698 0.173 7.88 2.19 7.15
8/8/2022 7:45:00 PM 27.5 81.5 0.174 7.82 2.29 7.06
8/8/2022 8:00:00 PM 27.37 81.266 0.174 7.78 2.35 7.01
8/8/2022 8:15:00 PM 27.24 81.032 0.174 7.71 2.33 6.94
8/8/2022 8:30:00 PM 27.1 80.78 0.174 7.7 2.11 6.9
8/8/2022 8:45:00 PM 26.96 80.528 0.174 7.66 2.47 6.86
8/8/2022 9:00:00 PM 26.81 80.258 0.174 7.62 2.48 6.81
8/8/2022 9:15:00 PM 26.67 80.006 0.174 7.59 2.42 6.76
8/8/2022 9:30:00 PM 26.52 79.736 0.175 7.57 2.55 6.77
8/8/2022 9:45:00 PM 26.39 79.502 0.175 7.55 2.57 6.75
8/8/2022 10:00:00 PM 26.22 79.196 0.175 7.52 2.46 6.76
8/8/2022 10:15:00 PM 26.12 79.016 0.175 7.51 2.55 6.76
8/8/2022 10:30:00 PM 25.98 78.764 0.175 7.49 2.76 6.75
8/8/2022 10:45:00 PM 25.86 78.548 0.175 7.48 2.65 6.74
8/8/2022 11:00:00 PM 25.72 78.296 0.175 7.47 2.41 6.76
8/8/2022 11:15:00 PM 25.61 78.098 0.175 7.46 2.71 6.78
8/8/2022 11:30:00 PM 25.49 77.882 0.175 7.45 2.54 6.78
8/8/2022 11:45:00 PM 25.38 77.684 0.175 7.43 2.56 6.79
8/9/2022 12:00:00 AM 25.28 77.504 0.175 7.43 2.89 6.83
8/9/2022 12:15:00 AM 25.15 77.27 0.175 7.42 2.46 6.81
8/9/2022 12:30:00 AM 25.06 77.108 0.174 7.42 2.37 6.84
8/9/2022 12:45:00 AM 24.97 76.946 0.174 7.41 2.57 6.85
8/9/2022 1:00:00 AM 24.88 76.784 0.174 7.41 2.62 6.89
8/9/2022 1:15:00 AM 24.79 76.622 0.174 7.41 2.45 6.91
8/9/2022 1:30:00 AM 24.71 76.478 0.174 7.4 2.62 6.91
8/9/2022 1:45:00 AM 24.62 76.316 0.174 7.4 2.87 6.91
8/9/2022 2:00:00 AM 24.54 76.172 0.174 7.4 2.79 6.94
8/9/2022 2:15:00 AM 24.46 76.028 0.174 7.39 3.81 6.98
8/9/2022 2:30:00 AM 24.38 75.884 0.174 7.4 2.66 6.98
8/9/2022 2:45:00 AM 24.31 75.758 0.174 7.4 2.75 6.99
8/9/2022 3:00:00 AM 24.24 75.632 0.174 7.39 2.87 7
8/9/2022 3:15:00 AM 24.18 75.524 0.174 7.39 2.73 7.01
8/9/2022 3:30:00 AM 24.12 75.416 0.174 7.39 2.6 7.03
8/9/2022 3:45:00 AM 24.07 75.326 0.174 7.38 2.72 7.02
8/9/2022 4:00:00 AM 24.02 75.236 0.175 7.39 2.61 7.03
8/9/2022 4:15:00 AM 23.97 75.146 0.175 7.39 2.76 7.05
8/9/2022 4:30:00 AM 23.93 75.074 0.175 7.38 2.77 7.07
8/9/2022 4:45:00 AM 23.89 75.002 0.175 7.39 2.86 7.1
8/9/2022 5:00:00 AM 23.86 74.948 0.175 7.38 2.73 7.07
8/9/2022 5:15:00 AM 23.82 74.876 0.175 7.38 2.58 7.06
8/9/2022 5:30:00 AM 23.79 74.82201 0.175 7.38 2.66 7.09
8/9/2022 5:45:00 AM 23.76 74.768 0.175 7.38 2.66 7.11
8/9/2022 6:00:00 AM 23.72 74.696 0.175 7.38 2.61 7.11
8/9/2022 6:15:00 AM 23.7 74.66 0.175 7.37 2.88 7.11
8/9/2022 6:30:00 AM 23.67 74.606 0.175 7.38 2.71 7.11
8/9/2022 6:45:00 AM 23.65 74.57 0.175 7.38 2.5 7.12
8/9/2022 7:00:00 AM 23.63 74.534 0.175 7.38 2.31 7.15
8/9/2022 7:15:00 AM 23.61 74.498 0.175 7.35 2.52 7.15
8/9/2022 7:30:00 AM 23.61 74.498 0.175 7.39 2.41 7.21
8/9/2022 7:45:00 AM 23.61 74.498 0.175 7.4 2.52 7.27
8/9/2022 8:00:00 AM 23.63 74.534 0.175 7.41 2.28 7.35
8/9/2022 8:15:00 AM 23.64 74.552 0.175 7.4 3.33 7.4
8/9/2022 8:30:00 AM 23.67 74.606 0.175 7.43 2.45 7.47
8/9/2022 8:45:00 AM 23.71 74.67799 0.175 7.44 2.4 7.55
8/9/2022 9:00:00 AM 23.75 74.75 0.175 7.45 2.22 7.62
8/9/2022 9:15:00 AM 23.86 74.948 0.175 7.48 2.31 7.79
8/9/2022 9:30:00 AM 23.96 75.128 0.174 7.5 2.22 7.9
8/9/2022 9:45:00 AM 24.09 75.362 0.174 7.53 2.22 8.02
8/9/2022 10:00:00 AM 24.21 75.578 0.174 7.57 2.38 8.16
8/9/2022 10:15:00 AM 24.33 75.794 0.174 7.62 2.83 8.33
8/9/2022 10:30:00 AM 24.39 75.902 0.174 7.64 2.77 8.3
8/9/2022 10:45:00 AM 24.49 76.082 0.173 7.67 2.46 8.32
8/9/2022 11:00:00 AM 24.82 76.676 0.173 7.71 2.52 8.44
8/9/2022 11:15:00 AM 24.74 76.532 0.172 7.71 2.37 8.28
8/9/2022 11:30:00 AM 24.86 76.748 0.172 7.74 2.42 8.3
8/9/2022 11:45:00 AM 24.96 76.92799 0.172 7.75 2.43 8.25
8/9/2022 12:00:00 PM 25 77 0.171 7.78 2.51 8.27
8/9/2022 12:15:00 PM 25.06 77.108 0.171 7.81 2.39 8.26
8/9/2022 12:30:00 PM 25.11 77.198 0.171 7.8 2.22 8.18
8/9/2022 12:45:00 PM 25.21 77.378 0.171 7.83 2.27 8.27
8/9/2022 1:00:00 PM 25.39 77.702 0.17 7.88 2.3 8.42
8/9/2022 1:15:00 PM 25.62 78.116 0.17 7.94 2.28 8.56
8/9/2022 1:30:00 PM 25.81 78.458 0.17 7.99 2.25 8.6
8/9/2022 1:45:00 PM 26.02 78.836 0.17 8.03 2.23 8.67
8/9/2022 2:00:00 PM 26.13 79.034 0.17 8.06 2.07 8.68
8/9/2022 2:15:00 PM 26.28 79.304 0.17 8.11 2.07 8.72
8/9/2022 2:30:00 PM 26.38 79.484 0.17 8.15 2.32 8.73
8/9/2022 2:45:00 PM 26.54 79.772 0.17 8.19 2.06 8.7
8/9/2022 3:00:00 PM 26.69 80.042 0.169 8.24 2.13 8.65
8/9/2022 3:15:00 PM 26.74 80.132 0.169 8.25 2.12 8.53
8/9/2022 3:30:00 PM 26.84 80.312 0.169 8.27 2.32 8.45
8/9/2022 3:45:00 PM 27.04 80.672 0.169 8.31 2.14 8.44
8/9/2022 4:00:00 PM 27.24 81.032 0.169 8.36 2.17 8.44
8/9/2022 4:15:00 PM 27.37 81.266 0.169 8.38 2.13 8.37
8/9/2022 4:30:00 PM 27.41 81.338 0.169 8.38 2.11 8.29
8/9/2022 4:45:00 PM 27.46 81.42799 0.169 8.38 1.96 8.21
8/9/2022 5:00:00 PM 27.48 81.464 0.169 8.38 2.14 8.16
8/9/2022 5:15:00 PM 27.48 81.464 0.169 8.38 2.12 8.1
8/9/2022 5:30:00 PM 27.46 81.42799 0.169 8.35 2.17 8.01
8/9/2022 5:45:00 PM 27.44 81.392 0.169 8.31 2.18 7.9
8/9/2022 6:00:00 PM 27.39 81.302 0.169 8.27 1.98 7.84
8/9/2022 6:15:00 PM 27.34 81.212 0.169 8.25 2.2 7.84
8/9/2022 6:30:00 PM 27.27 81.086 0.17 8.22 2.13 7.78
8/9/2022 6:45:00 PM 27.16 80.888 0.17 8.16 2.32 7.68
8/9/2022 7:00:00 PM 27.02 80.636 0.17 8.1 2.2 7.58
8/9/2022 7:15:00 PM 26.91 80.438 0.17 8.04 2.29 7.54
8/9/2022 7:30:00 PM 26.8 80.24 0.17 7.99 2.16 7.51
8/9/2022 7:45:00 PM 26.67 80.006 0.17 7.94 2.23 7.46
8/9/2022 8:00:00 PM 26.54 79.772 0.171 7.89 2.33 7.4
8/9/2022 8:15:00 PM 26.39 79.502 0.171 7.82 2.39 7.3
8/9/2022 8:30:00 PM 26.26 79.268 0.171 7.77 2.46 7.23
8/9/2022 8:45:00 PM 26.12 79.016 0.171 7.73 2.57 7.19
8/9/2022 9:00:00 PM 25.98 78.764 0.171 7.69 2.6 7.16
8/9/2022 9:15:00 PM 25.82 78.476 0.172 7.66 2.76 7.12
8/9/2022 9:30:00 PM 25.68 78.224 0.172 7.63 2.61 7.11
8/9/2022 9:45:00 PM 25.54 77.972 0.172 7.61 2.79 7.1
8/9/2022 10:00:00 PM 25.4 77.72 0.172 7.59 2.62 7.1
8/9/2022 10:15:00 PM 25.27 77.486 0.172 7.57 2.59 7.09
8/9/2022 10:30:00 PM 25.15 77.27 0.172 7.55 2.68 7.09
8/9/2022 10:45:00 PM 25.02 77.036 0.172 7.53 2.61 7.08
8/9/2022 11:00:00 PM 24.9 76.82 0.172 7.52 2.62 7.1
8/9/2022 11:15:00 PM 24.78 76.604 0.172 7.51 2.54 7.08
8/9/2022 11:30:00 PM 24.67 76.406 0.172 7.5 2.72 7.08
8/9/2022 11:45:00 PM 24.55 76.19 0.172 7.49 2.49 7.09
8/10/2022 12:00:00 AM 24.43 75.974 0.172 7.48 2.58 7.1
8/10/2022 12:15:00 AM 24.33 75.794 0.173 7.46 2.67 7.12
8/10/2022 12:30:00 AM 24.21 75.578 0.173 7.47 2.59 7.12
8/10/2022 12:45:00 AM 24.15 75.47 0.173 7.46 2.46 7.14
8/10/2022 1:00:00 AM 24.06 75.308 0.173 7.46 2.78 7.16
8/10/2022 1:15:00 AM 23.98 75.164 0.173 7.45 2.55 7.16
8/10/2022 1:30:00 AM 23.9 75.02 0.173 7.45 2.61 7.16
8/10/2022 1:45:00 AM 23.8 74.84 0.173 7.44 2.54 7.19
8/10/2022 2:00:00 AM 23.73 74.714 0.173 7.44 2.52 7.2
8/10/2022 2:15:00 AM 23.62 74.516 0.173 7.44 2.79 7.21
8/10/2022 2:30:00 AM 23.56 74.408 0.173 7.44 2.6 7.22
8/10/2022 2:45:00 AM 23.47 74.246 0.173 7.44 2.57 7.24
8/10/2022 3:00:00 AM 23.37 74.066 0.173 7.44 3.74 7.28
8/10/2022 3:15:00 AM 23.25 73.85 0.174 7.44 2.58 7.28
8/10/2022 3:30:00 AM 23.13 73.634 0.174 7.43 2.7 7.31
8/10/2022 3:45:00 AM 22.99 73.382 0.174 7.43 2.45 7.33
8/10/2022 4:00:00 AM 22.93 73.274 0.174 7.42 4 7.34
8/10/2022 4:15:00 AM 22.81 73.058 0.174 7.42 3.67 7.37
8/10/2022 4:30:00 AM 22.69 72.842 0.174 7.44 2.72 7.4
8/10/2022 4:45:00 AM 22.63 72.734 0.174 7.43 2.52 7.43
8/10/2022 5:00:00 AM 22.5 72.5 0.174 7.43 2.64 7.43
8/10/2022 5:15:00 AM 22.42 72.356 0.174 7.42 3.67 7.45
8/10/2022 5:30:00 AM 22.34 72.212 0.174 7.42 3.9 7.45
8/10/2022 5:45:00 AM 22.22 71.996 0.174 7.43 2.78 7.47
8/10/2022 6:00:00 AM 22.13 71.834 0.174 7.42 3.62 7.5
8/10/2022 6:15:00 AM 22.06 71.708 0.174 7.43 2.71 7.52
8/10/2022 6:30:00 AM 21.95 71.51 0.174 7.43 2.67 7.53
8/10/2022 6:45:00 AM 21.88 71.384 0.174 7.43 2.43 7.57
8/10/2022 7:00:00 AM 21.83 71.294 0.174 7.43 3.62 7.62
8/10/2022 7:15:00 AM 21.77 71.186 0.174 7.44 2.34 7.66
8/10/2022 7:30:00 AM 21.78 71.204 0.174 7.43 3.67 7.74
8/10/2022 7:45:00 AM 21.7 71.06 0.174 7.46 2.36 7.81
8/10/2022 8:00:00 AM 21.71 71.078 0.174 7.47 2.41 7.9
8/10/2022 8:15:00 AM 21.74 71.132 0.174 7.49 2.31 8
8/10/2022 8:30:00 AM 21.75 71.15 0.174 7.49 3.6 8.08
8/10/2022 8:45:00 AM 21.76 71.168 0.174 7.51 3.31 8.2
8/10/2022 9:00:00 AM 21.79 71.222 0.174 7.55 2.31 8.3
8/10/2022 9:15:00 AM 21.83 71.294 0.174 7.58 2.11 8.41
8/10/2022 9:30:00 AM 21.93 71.474 0.174 7.6 2.4 8.5
8/10/2022 9:45:00 AM 22.02 71.636 0.173 7.64 2.28 8.62
8/10/2022 10:00:00 AM 22.05 71.69 0.173 7.67 2.27 8.71
8/10/2022 10:15:00 AM 22.15 71.87 0.173 7.7 3.41 8.8
8/10/2022 10:30:00 AM 22.32 72.176 0.173 7.74 2.24 8.86
8/10/2022 10:45:00 AM 22.43 72.374 0.172 7.77 2.24 8.9
8/10/2022 11:00:00 AM 22.81 73.058 0.172 7.81 2.13 8.96
8/10/2022 11:15:00 AM 22.83 73.094 0.172 7.84 2.33 8.95
8/10/2022 11:30:00 AM 23 73.4 0.172 7.83 3.26 9.02
8/10/2022 11:45:00 AM 23.02 73.436 0.171 7.92 1.97 9
8/10/2022 12:00:00 PM 23.23 73.814 0.171 7.93 2.01 9
8/10/2022 12:15:00 PM 23.49 74.282 0.171 7.99 2.15 9.07
8/10/2022 12:30:00 PM 23.61 74.498 0.171 8.02 2.71 9.04
8/10/2022 12:45:00 PM 23.94 75.092 0.171 8.06 2.4 9.04
8/10/2022 1:00:00 PM 24.06 75.308 0.171 8.13 1.95 9.1
8/10/2022 1:15:00 PM 24.2 75.56 0.171 8.16 2.08 9.08
8/10/2022 1:30:00 PM 24.45 76.01 0.17 8.19 2.07 9
8/10/2022 1:45:00 PM 24.65 76.37 0.17 8.23 1.96 9
8/10/2022 2:00:00 PM 24.8 76.64 0.17 8.27 2.07 8.99
8/10/2022 2:15:00 PM 25.03 77.054 0.17 8.3 2.07 8.96
8/10/2022 2:30:00 PM 25.2 77.36 0.17 8.34 1.98 8.87
8/10/2022 2:45:00 PM 25.43 77.774 0.17 8.37 1.9 8.88
8/10/2022 3:00:00 PM 25.65 78.17 0.17 8.41 3.16 8.81
8/10/2022 3:15:00 PM 25.84 78.512 0.17 8.44 1.99 8.73
8/10/2022 3:30:00 PM 26.04 78.872 0.17 8.45 1.89 8.66
8/10/2022 3:45:00 PM 26.23 79.214 0.17 8.49 1.95 8.61
8/10/2022 4:00:00 PM 26.38 79.484 0.169 8.51 1.9 8.52
8/10/2022 4:15:00 PM 26.57 79.826 0.169 8.52 1.92 8.41
8/10/2022 4:30:00 PM 26.69 80.042 0.169 8.53 1.92 8.39
8/10/2022 4:45:00 PM 26.82 80.276 0.169 8.54 1.8 8.31
8/10/2022 5:00:00 PM 26.93 80.474 0.169 8.55 1.86 8.23
8/10/2022 5:15:00 PM 26.99 80.582 0.169 8.54 2.33 8.13
8/10/2022 5:30:00 PM 26.98 80.564 0.17 8.53 2.19 8.1
8/10/2022 5:45:00 PM 27.03 80.654 0.17 8.5 2.06 7.99
8/10/2022 6:00:00 PM 27.04 80.672 0.17 8.47 3.03 7.91
8/10/2022 6:15:00 PM 26.96 80.528 0.17 8.44 2.07 7.81
8/10/2022 6:30:00 PM 26.88 80.384 0.17 8.38 2.04 7.69
8/10/2022 6:45:00 PM 26.8 80.24 0.171 8.32 2.24 7.59
8/10/2022 7:00:00 PM 26.69 80.042 0.171 8.23 2.04 7.45
8/10/2022 7:15:00 PM 26.54 79.772 0.171 8.15 2.12 7.38
8/10/2022 7:30:00 PM 26.4 79.52 0.172 8.07 2.07 7.33
8/10/2022 7:45:00 PM 26.19 79.142 0.172 7.99 2.2 7.27
8/10/2022 8:00:00 PM 25.97 78.746 0.173 7.9 3.42 7.23
8/10/2022 8:15:00 PM 25.72 78.296 0.173 7.85 2.37 7.18
8/10/2022 8:30:00 PM 25.42 77.756 0.173 7.79 2.31 7.18
8/10/2022 8:45:00 PM 25.16 77.288 0.174 7.75 3.52 7.18
8/10/2022 9:00:00 PM 24.93 76.874 0.174 7.71 2.41 7.16
8/10/2022 9:15:00 PM 24.7 76.46 0.174 7.67 2.6 7.13
8/10/2022 9:30:00 PM 24.46 76.028 0.174 7.63 2.9 7.16
8/10/2022 9:45:00 PM 24.24 75.632 0.174 7.61 2.37 7.19
8/10/2022 10:00:00 PM 24.05 75.29 0.174 7.57 3.39 7.19
8/10/2022 10:15:00 PM 23.86 74.948 0.174 7.56 3.53 7.21
8/10/2022 10:30:00 PM 23.71 74.67799 0.174 7.55 2.5 7.21
8/10/2022 10:45:00 PM 23.55 74.39 0.174 7.54 2.47 7.23
8/10/2022 11:00:00 PM 23.39 74.102 0.174 7.53 2.18 7.26
8/10/2022 11:15:00 PM 23.24 73.832 0.174 7.51 3.61 7.28
8/10/2022 11:30:00 PM 23.12 73.616 0.174 7.51 2.36 7.3
8/10/2022 11:45:00 PM 22.97 73.346 0.174 7.5 2.76 7.3
8/11/2022 12:00:00 AM 22.85 73.13 0.174 7.48 3.6 7.32
8/11/2022 12:15:00 AM 22.73 72.914 0.174 7.47 3.46 7.34
8/11/2022 12:30:00 AM 22.6 72.68 0.174 7.47 3.67 7.36
8/11/2022 12:45:00 AM 22.46 72.42799 0.174 7.47 2.37 7.36
8/11/2022 1:00:00 AM 22.31 72.158 0.174 7.47 2.34 7.39
8/11/2022 1:15:00 AM 22.22 71.996 0.174 7.47 2.39 7.42
8/11/2022 1:30:00 AM 22.11 71.798 0.174 7.46 2.45 7.42
8/11/2022 1:45:00 AM 21.99 71.582 0.174 7.43 3.54 7.46
8/11/2022 2:00:00 AM 21.87 71.366 0.174 7.44 3.39 7.5
8/11/2022 2:15:00 AM 21.77 71.186 0.174 7.43 2.41 7.48
8/11/2022 2:30:00 AM 21.63 70.934 0.174 7.46 2.31 7.53
8/11/2022 2:45:00 AM 21.48 70.664 0.174 7.44 3.62 7.56
8/11/2022 3:00:00 AM 21.36 70.448 0.174 7.44 3.51 7.59
8/11/2022 3:15:00 AM 21.25 70.25 0.174 7.45 2.28 7.62
8/11/2022 3:30:00 AM 21.12 70.016 0.174 7.45 2.44 7.64
8/11/2022 3:45:00 AM 21.04 69.872 0.174 7.45 2.34 7.66
8/11/2022 4:00:00 AM 20.93 69.674 0.174 7.44 3.42 7.68
8/11/2022 4:15:00 AM 20.82 69.476 0.175 7.43 3.47 7.7
8/11/2022 4:30:00 AM 20.7 69.26 0.175 7.43 3.63 7.73
8/11/2022 4:45:00 AM 20.61 69.098 0.175 7.45 2.31 7.76
8/11/2022 5:00:00 AM 20.52 68.936 0.175 7.44 3.44 7.77
8/11/2022 5:15:00 AM 20.41 68.738 0.175 7.45 2.63 7.77
8/11/2022 5:30:00 AM 20.3 68.54 0.175 7.42 3.5 7.79
8/11/2022 5:45:00 AM 20.23 68.414 0.175 7.44 2.5 7.83
8/11/2022 6:00:00 AM 20.11 68.198 0.175 7.44 2.41 7.84
8/11/2022 6:15:00 AM 20.02 68.036 0.175 7.44 2.39 7.86
8/11/2022 6:30:00 AM 19.91 67.838 0.175 7.41 2.33 7.87
8/11/2022 6:45:00 AM 19.83 67.694 0.175 7.41 2.19 7.91
8/11/2022 7:00:00 AM 19.77 67.586 0.175 7.41 3.09 7.96
8/11/2022 7:15:00 AM 19.68 67.424 0.175 7.43 2.16 7.98
8/11/2022 7:30:00 AM 19.7 67.46 0.175 7.43 3.02 8.06
8/11/2022 7:45:00 AM 19.7 67.46 0.175 7.45 2.01 8.08
8/11/2022 8:00:00 AM 19.69 67.442 0.175 7.46 2.02 8.18
8/11/2022 8:15:00 AM 19.74 67.532 0.175 7.49 2.14 8.28
8/11/2022 8:30:00 AM 19.78 67.604 0.175 7.5 2.22 8.33
8/11/2022 8:45:00 AM 19.8 67.64 0.175 7.5 3.32 8.39
8/11/2022 9:00:00 AM 19.87 67.766 0.175 7.53 3.17 8.47
8/11/2022 9:15:00 AM 19.99 67.982 0.174 7.54 3.1 8.57
8/11/2022 9:30:00 AM 20.06 68.108 0.174 7.58 2.26 8.63
8/11/2022 9:45:00 AM 20.19 68.342 0.174 7.6 1.97 8.73
8/11/2022 10:00:00 AM 20.35 68.63 0.174 7.62 2 8.79
8/11/2022 10:15:00 AM 20.54 68.972 0.174 7.65 3.21 8.9
8/11/2022 10:30:00 AM 20.87 69.566 0.173 7.69 3.22 9.02
8/11/2022 10:45:00 AM 21.25 70.25 0.173 7.74 3.23 9.14
8/11/2022 11:00:00 AM 21.62 70.916 0.173 7.79 1.96 9.17
8/11/2022 11:15:00 AM 21.93 71.474 0.173 7.84 1.96 9.22
8/11/2022 11:30:00 AM 22.27 72.086 0.172 7.89 2.13 9.27
8/11/2022 11:45:00 AM 22.48 72.464 0.172 7.93 2.3 9.28
8/11/2022 12:00:00 PM 22.64 72.752 0.172 7.97 1.94 9.26
8/11/2022 12:15:00 PM 22.83 73.094 0.172 8.01 2.01 9.28
8/11/2022 12:30:00 PM 23.08 73.544 0.172 8.04 1.99 9.24
8/11/2022 12:45:00 PM 23.28 73.904 0.171 8.07 1.98 9.17
8/11/2022 1:00:00 PM 23.61 74.498 0.171 8.11 1.92 9.13
8/11/2022 1:15:00 PM 23.89 75.002 0.171 8.14 2.05 9.11
8/11/2022 1:30:00 PM 24.11 75.398 0.171 8.19 1.94 9.09
8/11/2022 1:45:00 PM 24.41 75.938 0.171 8.23 2.07 9.03
8/11/2022 2:00:00 PM 24.58 76.244 0.171 8.27 1.9 9.04
8/11/2022 2:15:00 PM 24.79 76.622 0.171 8.31 2.06 8.99
8/11/2022 2:30:00 PM 24.98 76.964 0.171 8.35 2.11 8.96
8/11/2022 2:45:00 PM 25.08 77.144 0.17 8.38 2.11 8.85
8/11/2022 3:00:00 PM 25.2 77.36 0.17 8.38 2 8.75
8/11/2022 3:15:00 PM 25.24 77.432 0.17 8.38 1.88 8.58
8/11/2022 3:30:00 PM 25.36 77.648 0.17 8.39 1.99 8.52
8/11/2022 3:45:00 PM 25.52 77.936 0.17 8.4 1.86 8.46
8/11/2022 4:00:00 PM 25.69 78.242 0.17 8.41 1.87 8.37
8/11/2022 4:15:00 PM 25.82 78.476 0.17 8.43 1.91 8.37
8/11/2022 4:30:00 PM 25.9 78.62 0.17 8.44 1.85 8.34
8/11/2022 4:45:00 PM 25.96 78.728 0.17 8.44 1.88 8.28
8/11/2022 5:00:00 PM 26.01 78.818 0.17 8.44 1.98 8.23
8/11/2022 5:15:00 PM 26.02 78.836 0.171 8.43 2 8.2
8/11/2022 5:30:00 PM 25.99 78.782 0.171 8.43 1.98 8.16
8/11/2022 5:45:00 PM 25.97 78.746 0.171 8.4 2 8.09
8/11/2022 6:00:00 PM 25.91 78.638 0.171 8.38 1.93 8
8/11/2022 6:15:00 PM 25.78 78.404 0.171 8.35 1.89 7.95
8/11/2022 6:30:00 PM 25.67 78.206 0.171 8.3 2.06 7.86
8/11/2022 6:45:00 PM 25.56 78.008 0.171 8.24 1.97 7.72
8/11/2022 7:00:00 PM 25.47 77.846 0.171 8.17 2.29 7.6
8/11/2022 7:15:00 PM 25.38 77.684 0.172 8.11 1.94 7.52
8/11/2022 7:30:00 PM 25.24 77.432 0.172 8.05 2.23 7.47
8/11/2022 7:45:00 PM 25.13 77.234 0.172 7.99 2.13 7.42
8/11/2022 8:00:00 PM 24.91 76.838 0.172 7.95 1.98 7.41
8/11/2022 8:15:00 PM 24.79 76.622 0.173 7.88 3.03 7.38
8/11/2022 8:30:00 PM 24.62 76.316 0.173 7.83 2.06 7.28
8/11/2022 8:45:00 PM 24.38 75.884 0.174 7.78 2.24 7.28
8/11/2022 9:00:00 PM 24.17 75.506 0.174 7.74 2.44 7.26
8/11/2022 9:15:00 PM 23.94 75.092 0.174 7.7 2.34 7.25
8/11/2022 9:30:00 PM 23.73 74.714 0.174 7.66 2.41 7.2
8/11/2022 9:45:00 PM 23.44 74.192 0.175 7.64 2.58 7.24
8/11/2022 10:00:00 PM 23.22 73.796 0.175 7.6 3.28 7.25
8/11/2022 10:15:00 PM 23.02 73.436 0.175 7.59 2.38 7.24
8/11/2022 10:30:00 PM 22.81 73.058 0.175 7.56 3.28 7.3
8/11/2022 10:45:00 PM 22.62 72.716 0.175 7.56 2.22 7.28
8/11/2022 11:00:00 PM 22.4 72.32 0.175 7.53 3.65 7.32
8/11/2022 11:15:00 PM 22.22 71.996 0.175 7.51 2.24 7.32
8/11/2022 11:30:00 PM 22.07 71.726 0.175 7.51 3.41 7.35
8/11/2022 11:45:00 PM 21.94 71.492 0.175 7.51 2.08 7.36
8/12/2022 12:00:00 AM 21.76 71.168 0.175 7.5 2.25 7.42
8/12/2022 12:15:00 AM 21.62 70.916 0.175 7.48 3.41 7.43
8/12/2022 12:30:00 AM 21.49 70.682 0.175 7.47 3.29 7.47
8/12/2022 12:45:00 AM 21.34 70.412 0.175 7.47 3.25 7.49
8/12/2022 1:00:00 AM 21.21 70.17799 0.175 7.48 3.42 7.52
8/12/2022 1:15:00 AM 21.06 69.908 0.175 7.46 2.84 7.54
8/12/2022 1:30:00 AM 20.97 69.746 0.175 7.46 3.6 7.55
8/12/2022 1:45:00 AM 20.85 69.53 0.175 7.46 2.14 7.53
8/12/2022 2:00:00 AM 20.73 69.314 0.175 7.45 2.41 7.6
8/12/2022 2:15:00 AM 20.65 69.17 0.175 7.42 3.44 7.63
8/12/2022 2:30:00 AM 20.49 68.882 0.175 7.42 3.39 7.64
8/12/2022 2:45:00 AM 20.37 68.666 0.175 7.43 2.52 7.64
8/12/2022 3:00:00 AM 20.21 68.378 0.175 7.43 2.5 7.7
8/12/2022 3:15:00 AM 20.14 68.252 0.175 7.42 3.63 7.73
8/12/2022 3:30:00 AM 19.97 67.946 0.175 7.39 3.31 7.77
8/12/2022 3:45:00 AM 19.95 67.91 0.175 7.42 2.19 7.75
8/12/2022 4:00:00 AM 19.74 67.532 0.175 7.42 2.23 7.77
8/12/2022 4:15:00 AM 19.73 67.514 0.175 7.42 2.16 7.82
8/12/2022 4:30:00 AM 19.63 67.334 0.175 7.43 3.52 7.88
8/12/2022 4:45:00 AM 19.54 67.172 0.175 7.43 2.27 7.88
8/12/2022 5:00:00 AM 19.46 67.028 0.175 7.42 2.18 7.89
8/12/2022 5:15:00 AM 19.36 66.848 0.175 7.43 2.16 7.9
8/12/2022 5:30:00 AM 19.25 66.65 0.175 7.42 2.18 7.93
8/12/2022 5:45:00 AM 19.16 66.488 0.175 7.42 2.04 7.93
8/12/2022 6:00:00 AM 19.06 66.308 0.175 7.42 2.28 7.98
8/12/2022 6:15:00 AM 18.96 66.128 0.175 7.37 2.36 8.01
8/12/2022 6:30:00 AM 18.82 65.876 0.175 7.4 2.27 8.01
8/12/2022 6:45:00 AM 18.69 65.642 0.175 7.41 2.11 8.04
8/12/2022 7:00:00 AM 18.65 65.57 0.175 7.4 1.89 8.07
8/12/2022 7:15:00 AM 18.62 65.516 0.175 7.42 3.25 8.17
8/12/2022 7:30:00 AM 18.64 65.552 0.175 7.44 2.12 8.2
8/12/2022 7:45:00 AM 18.63 65.534 0.175 7.43 3.35 8.34
8/12/2022 8:00:00 AM 18.69 65.642 0.175 7.47 2.31 8.38
8/12/2022 8:15:00 AM 18.72 65.696 0.175 7.48 2.18 8.46
8/12/2022 8:30:00 AM 18.74 65.732 0.175 7.5 2.09 8.55
8/12/2022 8:45:00 AM 18.72 65.696 0.175 7.5 3.53 8.61
8/12/2022 9:00:00 AM 18.75 65.75 0.175 7.54 2.13 8.66
8/12/2022 9:15:00 AM 18.8 65.84 0.175 7.56 1.96 8.74
8/12/2022 9:30:00 AM 18.86 65.948 0.175 7.58 1.9 8.82
8/12/2022 9:45:00 AM 19 66.2 0.175 7.6 2.1 8.9
8/12/2022 10:00:00 AM 19.14 66.452 0.175 7.61 3.35 9.02
8/12/2022 10:15:00 AM 19.34 66.812 0.174 7.64 3.26 9.11
8/12/2022 10:30:00 AM 19.55 67.19 0.174 7.68 3.67 9.21
8/12/2022 10:45:00 AM 19.99 67.982 0.174 7.72 3.32 9.33
8/12/2022 11:00:00 AM 20.34 68.612 0.174 7.77 2.05 9.37
8/12/2022 11:15:00 AM 20.64 69.152 0.174 7.79 2.95 9.44
8/12/2022 11:30:00 AM 20.97 69.746 0.174 7.86 2.04 9.47
8/12/2022 11:45:00 AM 21.16 70.088 0.173 7.89 1.92 9.46
8/12/2022 12:00:00 PM 21.31 70.358 0.173 7.94 2.08 9.47
8/12/2022 12:15:00 PM 21.42 70.556 0.173 7.96 3.18 9.45
8/12/2022 12:30:00 PM 21.62 70.916 0.173 8.01 1.95 9.41
8/12/2022 12:45:00 PM 21.87 71.366 0.173 8.05 1.8 9.41
8/12/2022 1:00:00 PM 22.09 71.762 0.172 8.08 1.99 9.36
8/12/2022 1:15:00 PM 22.37 72.266 0.172 8.11 3.13 9.37
8/12/2022 1:30:00 PM 22.6 72.68 0.172 8.18 2.9 9.35
8/12/2022 1:45:00 PM 22.82 73.076 0.172 8.22 2.88 9.31
8/12/2022 2:00:00 PM 22.99 73.382 0.172 8.24 2.04 9.21
8/12/2022 2:15:00 PM 23.31 73.958 0.172 8.28 1.97 9.19
8/12/2022 2:30:00 PM 23.49 74.282 0.172 8.31 3.01 9.15
8/12/2022 2:45:00 PM 23.73 74.714 0.171 8.36 1.95 9.08
8/12/2022 3:00:00 PM 23.98 75.164 0.171 8.38 3.17 9.07
8/12/2022 3:15:00 PM 24.15 75.47 0.171 8.42 2.07 8.99
8/12/2022 3:30:00 PM 24.28 75.704 0.171 8.45 1.8 8.9
8/12/2022 3:45:00 PM 24.46 76.028 0.171 8.44 1.94 8.82
8/12/2022 4:00:00 PM 24.56 76.208 0.171 8.49 1.88 8.77
8/12/2022 4:15:00 PM 24.72 76.496 0.171 8.51 1.92 8.72
8/12/2022 4:30:00 PM 24.89 76.802 0.171 8.54 2.07 8.69
8/12/2022 4:45:00 PM 25.02 77.036 0.171 8.56 2.35 8.66
8/12/2022 5:00:00 PM 24.97 76.946 0.171 8.54 2.09 8.55
8/12/2022 5:15:00 PM 25.08 77.144 0.171 8.55 2.16 8.53
8/12/2022 5:30:00 PM 25.07 77.126 0.171 8.55 2.05 8.45
8/12/2022 5:45:00 PM 25.02 77.036 0.171 8.53 2.79 8.38
8/12/2022 6:00:00 PM 24.96 76.92799 0.171 8.51 2.27 8.29
8/12/2022 6:15:00 PM 24.88 76.784 0.171 8.48 1.94 8.19
8/12/2022 6:30:00 PM 24.73 76.514 0.171 8.45 2.03 8.1
8/12/2022 6:45:00 PM 24.61 76.298 0.172 8.37 3.4 7.99
8/12/2022 7:00:00 PM 24.48 76.064 0.172 8.33 2.1 7.88
8/12/2022 7:15:00 PM 24.35 75.83 0.172 8.24 3.03 7.81
8/12/2022 7:30:00 PM 24.2 75.56 0.172 8.2 2.19 7.73
8/12/2022 7:45:00 PM 24.07 75.326 0.173 8.12 2.27 7.69
8/12/2022 8:00:00 PM 23.93 75.074 0.173 8.05 2.53 7.65
8/12/2022 8:15:00 PM 23.73 74.714 0.173 7.98 3.3 7.61
8/12/2022 8:30:00 PM 23.52 74.336 0.174 7.92 2.36 7.56
8/12/2022 8:45:00 PM 23.26 73.868 0.174 7.84 3.92 7.54
8/12/2022 9:00:00 PM 23.04 73.472 0.175 7.81 2.44 7.52
8/12/2022 9:15:00 PM 22.74 72.932 0.175 7.76 2.42 7.48
8/12/2022 9:30:00 PM 22.42 72.356 0.175 7.69 3.74 7.51
8/12/2022 9:45:00 PM 22.19 71.942 0.176 7.66 3.26 7.52
8/12/2022 10:00:00 PM 21.97 71.546 0.176 7.64 3.59 7.56
8/12/2022 10:15:00 PM 21.67 71.006 0.176 7.61 3.22 7.57
8/12/2022 10:30:00 PM 21.37 70.466 0.176 7.61 2.19 7.54
8/12/2022 10:45:00 PM 21.21 70.17799 0.176 7.59 2.33 7.6
8/12/2022 11:00:00 PM 20.94 69.692 0.176 7.57 2.49 7.62
8/12/2022 11:15:00 PM 20.78 69.404 0.176 7.56 2.28 7.67
8/12/2022 11:30:00 PM 20.5 68.9 0.176 7.55 2.15 7.7
8/12/2022 11:45:00 PM 20.36 68.648 0.176 7.52 3.5 7.75
8/13/2022 12:00:00 AM 20.19 68.342 0.176 7.47 3.66 7.77
8/13/2022 12:15:00 AM 20.02 68.036 0.176 7.45 4.15 7.78
8/13/2022 12:30:00 AM 19.84 67.712 0.176 7.47 2.09 7.79
8/13/2022 12:45:00 AM 19.75 67.55 0.176 7.47 2.31 7.82
8/13/2022 1:00:00 AM 19.55 67.19 0.176 7.46 2.33 7.84
8/13/2022 1:15:00 AM 19.4 66.92 0.176 7.43 3.62 7.91
8/13/2022 1:30:00 AM 19.29 66.722 0.176 7.46 2.35 7.89
8/13/2022 1:45:00 AM 19.12 66.416 0.176 7.45 2.13 7.94
8/13/2022 2:00:00 AM 18.99 66.182 0.176 7.45 2.17 7.97
8/13/2022 2:15:00 AM 18.88 65.984 0.176 7.45 2.33 7.97
8/13/2022 2:30:00 AM 18.72 65.696 0.176 7.44 2.3 8
8/13/2022 2:45:00 AM 18.62 65.516 0.176 7.44 2.59 8.05
8/13/2022 3:00:00 AM 18.48 65.264 0.176 7.45 2.33 8.08
8/13/2022 3:15:00 AM 18.36 65.048 0.176 7.36 2.31 8.11
8/13/2022 3:30:00 AM 18.21 64.778 0.176 7.45 2.44 8.15
8/13/2022 3:45:00 AM 18.07 64.526 0.176 7.44 2.37 8.14
8/13/2022 4:00:00 AM 17.93 64.274 0.176 7.43 2.13 8.15
8/13/2022 4:15:00 AM 17.84 64.112 0.176 7.44 2.61 8.22
8/13/2022 4:30:00 AM 17.72 63.896 0.176 7.43 2.53 8.26
8/13/2022 4:45:00 AM 17.59 63.662 0.176 7.43 2.39 8.29
8/13/2022 5:00:00 AM 17.47 63.446 0.176 7.44 2.38 8.35
8/13/2022 5:15:00 AM 17.34 63.212 0.176 7.44 2.41 8.35
8/13/2022 5:30:00 AM 17.19 62.942 0.176 7.43 2.36 8.38
8/13/2022 5:45:00 AM 17.08 62.744 0.176 7.43 2.14 8.41
8/13/2022 6:00:00 AM 16.93 62.474 0.176 7.43 2.24 8.45
8/13/2022 6:15:00 AM 16.84 62.312 0.176 7.43 2.39 8.48
8/13/2022 6:30:00 AM 16.7 62.06 0.176 7.45 2.2 8.51
8/13/2022 6:45:00 AM 16.6 61.88 0.176 7.43 2.13 8.53
8/13/2022 7:00:00 AM 16.54 61.772 0.176 7.44 2.16 8.6
8/13/2022 7:15:00 AM 16.47 61.646 0.177 7.45 2.13 8.66
8/13/2022 7:30:00 AM 16.43 61.574 0.177 7.43 2.09 8.73
8/13/2022 7:45:00 AM 16.44 61.592 0.176 7.49 2.1 8.81
8/13/2022 8:00:00 AM 16.45 61.61 0.176 7.49 2.03 8.9
8/13/2022 8:15:00 AM 16.45 61.61 0.176 7.5 2.01 8.98
8/13/2022 8:30:00 AM 16.46 61.628 0.176 7.52 2.15 9.04
8/13/2022 8:45:00 AM 16.49 61.682 0.176 7.5 1.94 9.09
8/13/2022 9:00:00 AM 16.52 61.736 0.176 7.56 1.98 9.15
8/13/2022 9:15:00 AM 16.56 61.808 0.176 7.57 1.84 9.21
8/13/2022 9:30:00 AM 16.68 62.024 0.176 7.55 3.31 9.31
8/13/2022 9:45:00 AM 16.85 62.33 0.176 7.57 3.16 9.39
8/13/2022 10:00:00 AM 17.04 62.672 0.176 7.63 1.97 9.48
8/13/2022 10:15:00 AM 17.32 63.176 0.176 7.61 2.14 9.59
8/13/2022 10:30:00 AM 17.67 63.806 0.175 7.69 1.99 9.68
8/13/2022 10:45:00 AM 18.08 64.544 0.175 7.73 1.89 9.74
8/13/2022 11:00:00 AM 18.47 65.246 0.175 7.73 3.19 9.8
8/13/2022 11:15:00 AM 18.77 65.786 0.175 7.8 1.84 9.84
8/13/2022 11:30:00 AM 19.02 66.236 0.175 7.81 1.94 9.86
8/13/2022 11:45:00 AM 19.23 66.614 0.175 7.88 1.89 9.88
8/13/2022 12:00:00 PM 19.37 66.866 0.174 7.88 1.82 9.84
8/13/2022 12:15:00 PM 19.57 67.226 0.174 7.94 1.74 9.84
8/13/2022 12:30:00 PM 19.81 67.658 0.174 7.97 1.91 9.82
8/13/2022 12:45:00 PM 20 68 0.174 8.01 2 9.78
8/13/2022 1:00:00 PM 20.31 68.558 0.174 8.04 2.03 9.77
8/13/2022 1:15:00 PM 20.59 69.062 0.174 8.08 1.96 9.74
8/13/2022 1:30:00 PM 20.84 69.512 0.174 8.12 2.1 9.71
8/13/2022 1:45:00 PM 21.07 69.926 0.174 8.13 1.89 9.59
8/13/2022 2:00:00 PM 21.37 70.466 0.173 8.15 3.08 9.6
8/13/2022 2:15:00 PM 21.64 70.952 0.173 8.21 1.95 9.52
8/13/2022 2:30:00 PM 21.99 71.582 0.173 8.26 2.01 9.49
8/13/2022 2:45:00 PM 22.3 72.14 0.173 8.28 2.05 9.38
8/13/2022 3:00:00 PM 22.5 72.5 0.173 8.32 1.82 9.32
8/13/2022 3:15:00 PM 22.8 73.04 0.173 8.36 2.08 9.28
8/13/2022 3:30:00 PM 23.07 73.526 0.172 8.39 1.95 9.21
8/13/2022 3:45:00 PM 23.31 73.958 0.172 8.38 3.12 9.16
8/13/2022 4:00:00 PM 23.48 74.264 0.172 8.44 1.91 9.08
8/13/2022 4:15:00 PM 23.69 74.642 0.172 8.47 2.27 9.01
8/13/2022 4:30:00 PM 23.86 74.948 0.172 8.46 3.11 8.98
8/13/2022 4:45:00 PM 23.98 75.164 0.172 8.51 2.13 8.89
8/13/2022 5:00:00 PM 24.19 75.542 0.172 8.52 2.06 8.85
8/13/2022 5:15:00 PM 24.27 75.686 0.172 8.53 2.04 8.76
8/13/2022 5:30:00 PM 24.32 75.776 0.172 8.53 2.02 8.69
8/13/2022 5:45:00 PM 24.37 75.866 0.172 8.53 2.1 8.59
8/13/2022 6:00:00 PM 24.4 75.92 0.172 8.52 2.21 8.49
8/13/2022 6:15:00 PM 24.35 75.83 0.172 8.5 2.24 8.4
8/13/2022 6:30:00 PM 24.31 75.758 0.172 8.46 2.13 8.27
8/13/2022 6:45:00 PM 24.24 75.632 0.172 8.37 2.68 8.15
8/13/2022 7:00:00 PM 24.13 75.434 0.172 8.36 2.43 8.02
8/13/2022 7:15:00 PM 24.06 75.308 0.173 8.3 2.27 7.91
8/13/2022 7:30:00 PM 23.97 75.146 0.173 8.23 2.42 7.84
8/13/2022 7:45:00 PM 23.86 74.948 0.173 8.15 3.09 7.74
8/13/2022 8:00:00 PM 23.71 74.67799 0.173 8.1 2.19 7.69
8/13/2022 8:15:00 PM 23.55 74.39 0.174 8.02 2.34 7.62
8/13/2022 8:30:00 PM 23.36 74.048 0.174 7.96 2.37 7.57
8/13/2022 8:45:00 PM 23.17 73.706 0.174 7.89 2.72 7.53
8/13/2022 9:00:00 PM 22.95 73.31 0.175 7.84 2.39 7.51
8/13/2022 9:15:00 PM 22.74 72.932 0.175 7.74 3.91 7.52
8/13/2022 9:30:00 PM 22.5 72.5 0.176 7.74 2.44 7.45
8/13/2022 9:45:00 PM 22.29 72.122 0.176 7.67 3.63 7.48
8/13/2022 10:00:00 PM 22.04 71.672 0.176 7.65 3.76 7.52
8/13/2022 10:15:00 PM 21.79 71.222 0.176 7.65 2.49 7.49
8/13/2022 10:30:00 PM 21.56 70.808 0.177 7.62 2.68 7.51
8/13/2022 10:45:00 PM 21.29 70.32201 0.177 7.61 2.62 7.56
8/13/2022 11:00:00 PM 21.1 69.98 0.177 7.59 2.43 7.6
8/13/2022 11:15:00 PM 20.87 69.566 0.177 7.57 2.56 7.61
8/13/2022 11:30:00 PM 20.66 69.188 0.177 7.52 3.69 7.66
8/13/2022 11:45:00 PM 20.43 68.774 0.177 7.55 2.64 7.66
8/14/2022 12:00:00 AM 20.25 68.45 0.177 7.49 3.69 7.72
8/14/2022 12:15:00 AM 20.05 68.09 0.177 7.53 2.46 7.73
8/14/2022 12:30:00 AM 19.87 67.766 0.177 7.51 2.35 7.78
8/14/2022 12:45:00 AM 19.7 67.46 0.177 7.51 2.39 7.77
8/14/2022 1:00:00 AM 19.55 67.19 0.177 7.48 2.71 7.82
8/14/2022 1:15:00 AM 19.38 66.884 0.177 7.49 3.56 7.87
8/14/2022 1:30:00 AM 19.23 66.614 0.177 7.49 2.5 7.86
8/14/2022 1:45:00 AM 19.08 66.344 0.177 7.48 2.47 7.9
8/14/2022 2:00:00 AM 18.95 66.11 0.177 7.48 2.35 7.94
8/14/2022 2:15:00 AM 18.79 65.82201 0.177 7.44 2.67 7.99
8/14/2022 2:30:00 AM 18.65 65.57 0.177 7.47 2.27 7.96
8/14/2022 2:45:00 AM 18.54 65.372 0.177 7.46 2.28 8.01
8/14/2022 3:00:00 AM 18.4 65.12 0.177 7.46 2.27 8.05
8/14/2022 3:15:00 AM 18.27 64.886 0.177 7.46 2.56 8.06
8/14/2022 3:30:00 AM 18.13 64.634 0.177 7.4 3.65 8.14
8/14/2022 3:45:00 AM 17.98 64.364 0.177 7.46 2.35 8.11
8/14/2022 4:00:00 AM 17.89 64.202 0.177 7.44 3.64 8.19
8/14/2022 4:15:00 AM 17.76 63.968 0.177 7.46 2.91 8.17
8/14/2022 4:30:00 AM 17.63 63.734 0.177 7.43 3.63 8.25
8/14/2022 4:45:00 AM 17.55 63.59 0.177 7.45 2.32 8.24
8/14/2022 5:00:00 AM 17.4 63.32 0.177 7.45 2.33 8.28
8/14/2022 5:15:00 AM 17.26 63.068 0.177 7.44 2.32 8.27
8/14/2022 5:30:00 AM 17.16 62.888 0.177 7.41 3.99 8.36
8/14/2022 5:45:00 AM 17.03 62.654 0.177 7.46 2.39 8.36
8/14/2022 6:00:00 AM 16.91 62.438 0.177 7.44 2.26 8.4
8/14/2022 6:15:00 AM 16.82 62.276 0.177 7.45 2.14 8.42
8/14/2022 6:30:00 AM 16.7 62.06 0.177 7.45 2.42 8.43
8/14/2022 6:45:00 AM 16.59 61.862 0.177 7.4 3.44 8.54
8/14/2022 7:00:00 AM 16.55 61.79 0.177 7.47 2.52 8.55
8/14/2022 7:15:00 AM 16.47 61.646 0.177 7.48 2.23 8.59
8/14/2022 7:30:00 AM 16.44 61.592 0.177 7.49 2.24 8.68
8/14/2022 7:45:00 AM 16.45 61.61 0.177 7.51 2.06 8.77
8/14/2022 8:00:00 AM 16.44 61.592 0.177 7.52 2.04 8.86
8/14/2022 8:15:00 AM 16.47 61.646 0.177 7.45 3.43 8.94
8/14/2022 8:30:00 AM 16.5 61.7 0.177 7.55 2.05 9
8/14/2022 8:45:00 AM 16.51 61.718 0.177 7.55 2.1 9.04
8/14/2022 9:00:00 AM 16.5 61.7 0.177 7.56 1.97 9.11
8/14/2022 9:15:00 AM 16.58 61.844 0.177 7.58 2.05 9.16
8/14/2022 9:30:00 AM 16.71 62.078 0.177 7.54 3.34 9.27
8/14/2022 9:45:00 AM 16.87 62.366 0.177 7.58 3.22 9.34
8/14/2022 10:00:00 AM 17.05 62.69 0.177 7.64 2.08 9.4
8/14/2022 10:15:00 AM 17.33 63.194 0.176 7.61 3.4 9.55
8/14/2022 10:30:00 AM 17.7 63.86 0.176 7.68 2.02 9.61
8/14/2022 10:45:00 AM 18.14 64.652 0.176 7.74 2.04 9.72
8/14/2022 11:00:00 AM 18.54 65.372 0.176 7.74 2.19 9.75
8/14/2022 11:15:00 AM 18.89 66.002 0.176 7.72 3.29 9.84
8/14/2022 11:30:00 AM 19.23 66.614 0.176 7.79 1.9 9.87
8/14/2022 11:45:00 AM 19.45 67.01 0.176 7.81 1.89 9.88
8/14/2022 12:00:00 PM 19.57 67.226 0.175 7.86 2.11 9.9
8/14/2022 12:15:00 PM 19.77 67.586 0.175 7.9 2.05 9.89
8/14/2022 12:30:00 PM 19.98 67.964 0.175 7.93 2.01 9.85
8/14/2022 12:45:00 PM 20.25 68.45 0.175 7.96 1.92 9.85
8/14/2022 1:00:00 PM 20.58 69.044 0.175 7.99 1.99 9.85
8/14/2022 1:15:00 PM 20.86 69.548 0.175 8.03 1.94 9.83
8/14/2022 1:30:00 PM 21.17 70.106 0.174 8.07 2.1 9.81
8/14/2022 1:45:00 PM 21.3 70.34 0.174 8.08 2.06 9.73
8/14/2022 2:00:00 PM 21.6 70.88 0.174 8.07 2.03 9.66
8/14/2022 2:15:00 PM 21.89 71.402 0.174 8.06 2.09 9.62
8/14/2022 2:30:00 PM 22.22 71.996 0.174 8.03 1.96 9.61
8/14/2022 2:45:00 PM 22.43 72.374 0.174 8.07 2.13 9.62
8/14/2022 3:00:00 PM 22.74 72.932 0.174 8.2 2.2 9.61
8/14/2022 3:15:00 PM 22.89 73.202 0.173 8.14 2.11 9.58
8/14/2022 3:30:00 PM 23.13 73.634 0.173 8.35 2.03 9.53
8/14/2022 3:45:00 PM 23.29 73.922 0.173 8.2 2.03 9.46
8/14/2022 4:00:00 PM 23.42 74.156 0.173 8.36 2.08 9.36
8/14/2022 4:15:00 PM 23.5 74.3 0.173 8.31 2.04 9.27
8/14/2022 4:30:00 PM 23.64 74.552 0.173 8.38 2.05 9.17
8/14/2022 4:45:00 PM 23.61 74.498 0.173 8.36 1.92 9
8/14/2022 5:00:00 PM 23.66 74.588 0.173 8.39 2.13 8.86
8/14/2022 5:15:00 PM 23.83 74.894 0.173 8.4 2.07 8.85
8/14/2022 5:30:00 PM 23.94 75.092 0.172 8.37 2.11 8.81
8/14/2022 5:45:00 PM 23.95 75.11 0.172 8.34 2.1 8.68
8/14/2022 6:00:00 PM 23.96 75.128 0.172 8.34 2.16 8.57
8/14/2022 6:15:00 PM 23.97 75.146 0.172 8.38 2.16 8.53
8/14/2022 6:30:00 PM 23.95 75.11 0.173 8.37 2.21 8.43
8/14/2022 6:45:00 PM 23.91 75.038 0.173 8.28 2.26 8.35
8/14/2022 7:00:00 PM 23.82 74.876 0.173 8.27 2.15 8.24
8/14/2022 7:15:00 PM 23.74 74.732 0.173 8.15 3.53 8.18
8/14/2022 7:30:00 PM 23.66 74.588 0.173 8.2 2.33 8.11
8/14/2022 7:45:00 PM 23.54 74.372 0.173 8.05 3.36 8.03
8/14/2022 8:00:00 PM 23.42 74.156 0.174 8.07 2.15 7.94
8/14/2022 8:15:00 PM 23.27 73.886 0.174 8 2.42 7.88
8/14/2022 8:30:00 PM 23.14 73.652 0.174 7.97 2.77 7.78
8/14/2022 8:45:00 PM 22.99 73.382 0.174 7.9 2.73 7.71
8/14/2022 9:00:00 PM 22.82 73.076 0.175 7.73 3.91 7.68
8/14/2022 9:15:00 PM 22.65 72.77 0.175 7.81 3.02 7.64
8/14/2022 9:30:00 PM 22.48 72.464 0.175 7.81 2.4 7.58
8/14/2022 9:45:00 PM 22.32 72.176 0.175 7.26 2.52 7.57
8/14/2022 10:00:00 PM 22.17 71.906 0.176 7.71 3.94 7.59
8/14/2022 10:15:00 PM 21.99 71.582 0.176 7.65 3.82 7.58
8/14/2022 10:30:00 PM 21.84 71.312 0.176 7.69 2.46 7.56
8/14/2022 10:45:00 PM 21.69 71.042 0.176 7.66 2.39 7.56
8/14/2022 11:00:00 PM 21.53 70.754 0.177 7.56 3.51 7.59
8/14/2022 11:15:00 PM 21.38 70.484 0.177 7.38 3.02 7.6
8/14/2022 11:30:00 PM 21.23 70.214 0.177 7.69 2.58 7.59
8/14/2022 11:45:00 PM 21.08 69.944 0.177 7.64 2.3 7.58
8/15/2022 12:00:00 AM 20.94 69.692 0.177 7.61 2.44 7.59
8/15/2022 12:15:00 AM 20.8 69.44 0.177 7.62 2.56 7.6
8/15/2022 12:30:00 AM 20.67 69.206 0.177 7.48 2.93 7.66
8/15/2022 12:45:00 AM 20.56 69.008 0.177 7.6 2.43 7.64
8/15/2022 1:00:00 AM 20.43 68.774 0.177 7.57 2.48 7.64
8/15/2022 1:15:00 AM 20.32 68.576 0.177 7.57 2.39 7.66
8/15/2022 1:30:00 AM 20.2 68.36 0.177 7.59 2.42 7.68
8/15/2022 1:45:00 AM 20.09 68.162 0.177 7.59 2.34 7.71
8/15/2022 2:00:00 AM 19.97 67.946 0.177 7.47 3.95 7.75
8/15/2022 2:15:00 AM 19.86 67.748 0.177 7.45 4.07 7.77
8/15/2022 2:30:00 AM 19.76 67.568 0.177 7.56 2.17 7.77
8/15/2022 2:45:00 AM 19.65 67.37 0.177 7.62 2.37 7.78
8/15/2022 3:00:00 AM 19.53 67.154 0.177 6.81 3.75 7.85
8/15/2022 3:15:00 AM 19.42 66.956 0.177 7.7 2.64 7.8
8/15/2022 3:30:00 AM 19.31 66.758 0.177 7.59 2.58 7.82
8/15/2022 3:45:00 AM 19.22 66.596 0.177 7.59 2.54 7.85
8/15/2022 4:00:00 AM 19.12 66.416 0.177 7.16 2.31 7.87
8/15/2022 4:15:00 AM 19.02 66.236 0.177 7.65 2.44 7.89
8/15/2022 4:30:00 AM 18.92 66.056 0.177 7.42 4.07 7.97
8/15/2022 4:45:00 AM 18.82 65.876 0.177 7.6 2.72 7.97
8/15/2022 5:00:00 AM 18.72 65.696 0.177 7.53 2.83 8
8/15/2022 5:15:00 AM 18.62 65.516 0.177 7.51 2.63 8.01
8/15/2022 5:30:00 AM 18.52 65.336 0.177 7.56 2.89 8.04
8/15/2022 5:45:00 AM 18.42 65.156 0.177 7.37 2.92 8.04
8/15/2022 6:00:00 AM 18.31 64.958 0.177 7.56 4.37 8.12
8/15/2022 6:15:00 AM 18.22 64.796 0.177 7.58 2.89 8.1
8/15/2022 6:30:00 AM 18.14 64.652 0.177 7.52 3.04 8.15
8/15/2022 6:45:00 AM 18.06 64.508 0.177 7.45 3.01 8.16
8/15/2022 7:00:00 AM 18 64.4 0.177 7.57 2.67 8.22
8/15/2022 7:15:00 AM 17.97 64.346 0.177 7.49 4.27 8.31
8/15/2022 7:30:00 AM 17.91 64.238 0.177 7.51 2.56 8.31
8/15/2022 7:45:00 AM 17.93 64.274 0.177 7.52 2.62 8.42
8/15/2022 8:00:00 AM 17.95 64.31 0.177 7.51 4.07 8.48
8/15/2022 8:15:00 AM 17.98 64.364 0.177 7.36 2.56 8.54
8/15/2022 8:30:00 AM 17.99 64.382 0.177 7.61 2.79 8.6
8/15/2022 8:45:00 AM 18.01 64.418 0.177 7.54 2.54 8.67
8/15/2022 9:00:00 AM 18.07 64.526 0.177 7.61 2.71 8.74
8/15/2022 9:15:00 AM 18.14 64.652 0.177 7.55 4.05 8.81
8/15/2022 9:30:00 AM 18.24 64.832 0.177 7.4 4.03 8.9
8/15/2022 9:45:00 AM 18.36 65.048 0.176 7.63 4 9.01
8/15/2022 10:00:00 AM 18.45 65.21 0.176 7.61 3.93 9.12
8/15/2022 10:15:00 AM 18.63 65.534 0.176 7.61 3.91 9.23
8/15/2022 10:30:00 AM 18.91 66.038 0.176 7.61 3.14 9.36
8/15/2022 10:45:00 AM 19.24 66.632 0.176 7.71 2.42 9.49
8/15/2022 11:00:00 AM 19.39 66.902 0.176 7.76 2.53 9.59
8/15/2022 11:15:00 AM 19.71 67.478 0.175 7.82 3.82 9.66
8/15/2022 11:30:00 AM 20.11 68.198 0.175 7.78 2.36 9.73
8/15/2022 11:45:00 AM 20.3 68.54 0.175 7.9 3.65 9.76
8/15/2022 12:00:00 PM 20.36 68.648 0.175 7.89 2.83 9.77
8/15/2022 12:15:00 PM 20.46 68.828 0.175 7.93 2.54 9.8
8/15/2022 12:30:00 PM 20.64 69.152 0.175 7.93 2.81 9.78
8/15/2022 12:45:00 PM 20.86 69.548 0.175 7.94 2.6 9.76
8/15/2022 1:00:00 PM 21 69.8 0.175 7.97 2.33 9.77
8/15/2022 1:15:00 PM 21.2 70.16 0.174 7.92 2.59 9.71
8/15/2022 1:30:00 PM 21.45 70.61 0.174 7.94 2.77 9.69
8/15/2022 1:45:00 PM 21.46 70.628 0.174 8.17 2.47 9.57
8/15/2022 2:00:00 PM 21.59 70.862 0.174 8.18 3.04 9.51
8/15/2022 2:15:00 PM 21.72 71.096 0.174 8.14 2.02 9.41
8/15/2022 2:30:00 PM 21.78 71.204 0.174 8.14 2.66 9.27
8/15/2022 2:45:00 PM 21.89 71.402 0.174 8.19 2.05 9.2
8/15/2022 3:00:00 PM 21.97 71.546 0.174 8.04 2.52 9.15
8/15/2022 3:15:00 PM 22.04 71.672 0.174 8.24 2.21 9.08
8/15/2022 3:30:00 PM 22.16 71.888 0.174 8.19 2.2 9.02
8/15/2022 3:45:00 PM 22.22 71.996 0.174 8.22 2.26 8.98
8/15/2022 4:00:00 PM 22.26 72.068 0.174 7.85 2.24 8.91
8/15/2022 4:15:00 PM 22.33 72.194 0.174 8.21 2.21 8.85
8/15/2022 4:30:00 PM 22.41 72.338 0.174 8.25 2.29 8.81
8/15/2022 4:45:00 PM 22.48 72.464 0.174 8.24 2.43 8.78
8/15/2022 5:00:00 PM 22.5 72.5 0.174 8.22 2.29 8.7
8/15/2022 5:15:00 PM 22.49 72.482 0.174 8.21 2.25 8.64
8/15/2022 5:30:00 PM 22.49 72.482 0.174 8.2 2.21 8.63
8/15/2022 5:45:00 PM 22.47 72.446 0.174 8.13 2.35 8.57
8/15/2022 6:00:00 PM 22.4 72.32 0.174 8.15 3.98 8.48
8/15/2022 6:15:00 PM 22.39 72.302 0.174 8.16 3.42 8.47
8/15/2022 6:30:00 PM 22.36 72.248 0.175 8.13 2.3 8.42
8/15/2022 6:45:00 PM 22.33 72.194 0.175 8.11 2.28 8.34
8/15/2022 7:00:00 PM 22.28 72.104 0.175 8.06 3.71 8.29
8/15/2022 7:15:00 PM 22.21 71.978 0.175 8.03 2.2 8.23
8/15/2022 7:30:00 PM 22.1 71.78 0.175 8.01 2.43 8.16
8/15/2022 7:45:00 PM 21.98 71.564 0.175 7.96 2.09 8.11
8/15/2022 8:00:00 PM 21.87 71.366 0.176 7.96 2.23 8.04
8/15/2022 8:15:00 PM 21.74 71.132 0.176 7.9 3.54 8
8/15/2022 8:30:00 PM 21.62 70.916 0.176 7.86 2.31 7.92
8/15/2022 8:45:00 PM 21.54 70.772 0.176 7.84 2.01 7.88
8/15/2022 9:00:00 PM 21.44 70.592 0.176 7.74 2.23 7.86
8/15/2022 9:15:00 PM 21.36 70.448 0.176 7.82 2.28 7.83
8/15/2022 9:30:00 PM 21.26 70.268 0.176 7.75 3.86 7.82
8/15/2022 9:45:00 PM 21.19 70.142 0.176 7.77 2.33 7.78
8/15/2022 10:00:00 PM 21.1 69.98 0.176 7.7 3.7 7.79
8/15/2022 10:15:00 PM 21.01 69.818 0.176 7.71 3.55 7.78
8/15/2022 10:30:00 PM 20.92 69.656 0.177 7.67 3.73 7.77
8/15/2022 10:45:00 PM 20.83 69.494 0.177 7.72 2.2 7.74
8/15/2022 11:00:00 PM 20.76 69.368 0.177 7.71 2.24 7.75
8/15/2022 11:15:00 PM 20.67 69.206 0.177 7.68 2.31 7.71
8/15/2022 11:30:00 PM 20.58 69.044 0.177 7.6 3.67 7.73
8/15/2022 11:45:00 PM 20.49 68.882 0.177 7.62 3.99 7.75
8/16/2022 12:00:00 AM 20.41 68.738 0.177 7.68 2.21 7.71
8/16/2022 12:15:00 AM 20.33 68.594 0.177 7.65 2.19 7.7
8/16/2022 12:30:00 AM 20.24 68.432 0.178 7.66 2.1 7.7
8/16/2022 12:45:00 AM 20.15 68.27 0.178 7.56 4.08 7.76
8/16/2022 1:00:00 AM 20.08 68.144 0.178 7.62 4.07 7.76
8/16/2022 1:15:00 AM 20 68 0.178 7.59 3.97 7.77
8/16/2022 1:30:00 AM 19.91 67.838 0.178 7.58 4.04 7.78
8/16/2022 1:45:00 AM 19.83 67.694 0.178 7.57 4.03 7.79
8/16/2022 2:00:00 AM 19.76 67.568 0.178 7.56 3.74 7.81
8/16/2022 2:15:00 AM 19.68 67.424 0.178 7.56 3.69 7.83
8/16/2022 2:30:00 AM 19.61 67.298 0.178 7.58 3.72 7.83
8/16/2022 2:45:00 AM 19.55 67.19 0.178 7.62 2.56 7.8
8/16/2022 3:00:00 AM 19.48 67.064 0.178 7.55 3.73 7.85
8/16/2022 3:15:00 AM 19.39 66.902 0.178 7.63 2.39 7.8
8/16/2022 3:30:00 AM 19.34 66.812 0.177 7.64 2.24 7.85
8/16/2022 3:45:00 AM 19.25 66.65 0.177 7.53 2.3 7.87
8/16/2022 4:00:00 AM 19.16 66.488 0.178 7.65 2.41 7.85
8/16/2022 4:15:00 AM 19.08 66.344 0.177 7.62 2.45 7.86
8/16/2022 4:30:00 AM 18.99 66.182 0.177 7.55 3.86 7.95
8/16/2022 4:45:00 AM 18.96 66.128 0.177 7.59 2.38 7.89
8/16/2022 5:00:00 AM 18.9 66.02 0.177 7.61 2.36 7.91
8/16/2022 5:15:00 AM 18.82 65.876 0.177 7.56 3.71 7.99
8/16/2022 5:30:00 AM 18.8 65.84 0.177 7.62 2.38 7.97
8/16/2022 5:45:00 AM 18.73 65.714 0.177 7.56 2.37 7.95
8/16/2022 6:00:00 AM 18.68 65.624 0.177 7.62 2.37 7.99
8/16/2022 6:15:00 AM 18.66 65.588 0.177 7.6 2.36 8.01
8/16/2022 6:30:00 AM 18.6 65.48 0.177 7.56 3.65 8.05
8/16/2022 6:45:00 AM 18.54 65.372 0.177 7.56 2.45 8.03
8/16/2022 7:00:00 AM 18.5 65.3 0.177 7.61 2.38 8.07
8/16/2022 7:15:00 AM 18.49 65.282 0.177 7.58 2.23 8.13
8/16/2022 7:30:00 AM 18.47 65.246 0.177 7.52 3.92 8.25
8/16/2022 7:45:00 AM 18.5 65.3 0.177 7.61 2.48 8.28
8/16/2022 8:00:00 AM 18.56 65.408 0.177 7.62 2.52 8.42
8/16/2022 8:15:00 AM 18.57 65.426 0.177 7.58 3.84 8.52
8/16/2022 8:30:00 AM 18.63 65.534 0.177 7.58 3.82 8.63
8/16/2022 8:45:00 AM 18.7 65.66 0.177 7.6 3.94 8.75
8/16/2022 9:00:00 AM 18.77 65.786 0.177 7.61 3.86 8.81
8/16/2022 9:15:00 AM 18.82 65.876 0.177 7.71 2.24 8.85
8/16/2022 9:30:00 AM 18.9 66.02 0.177 7.66 3.99 8.94
8/16/2022 9:45:00 AM 19.03 66.254 0.177 7.74 2.5 9.01
8/16/2022 10:00:00 AM 19.15 66.47 0.177 7.76 2.52 9.09
8/16/2022 10:15:00 AM 19.39 66.902 0.176 7.78 2.45 9.18
8/16/2022 10:30:00 AM 19.67 67.406 0.176 7.8 2.36 9.27
8/16/2022 10:45:00 AM 19.98 67.964 0.176 7.82 2.4 9.32
8/16/2022 11:00:00 AM 20.35 68.63 0.176 7.57 2.39 9.45
8/16/2022 11:15:00 AM 20.66 69.188 0.176 7.8 3.68 9.49
8/16/2022 11:30:00 AM 20.99 69.782 0.176 7.89 2.28 9.53
8/16/2022 11:45:00 AM 21.17 70.106 0.176 7.98 2.31 9.54
8/16/2022 12:00:00 PM 21.28 70.304 0.175 8 2.31 9.54
8/16/2022 12:15:00 PM 21.33 70.394 0.175 8.03 2.3 9.52
8/16/2022 12:30:00 PM 21.54 70.772 0.175 7.99 2.25 9.53
8/16/2022 12:45:00 PM 21.63 70.934 0.175 8.07 2.26 9.5
8/16/2022 1:00:00 PM 21.73 71.114 0.175 7.91 2.23 9.5
8/16/2022 1:15:00 PM 21.93 71.474 0.175 8.04 2.34 9.5
8/16/2022 1:30:00 PM 22.22 71.996 0.175 8.12 2.7 9.47
8/16/2022 1:45:00 PM 22.3 72.14 0.174 8.15 3.74 9.41
8/16/2022 2:00:00 PM 22.45 72.41 0.174 8.19 3.59 9.38
8/16/2022 2:15:00 PM 22.57 72.626 0.174 8.28 3.55 9.3
8/16/2022 2:30:00 PM 22.7 72.86 0.174 8.25 2.26 9.2
8/16/2022 2:45:00 PM 22.82 73.076 0.174 8.12 2.23 9.14
8/16/2022 3:00:00 PM 22.95 73.31 0.175 8.16 2.21 9.01
8/16/2022 3:15:00 PM 23.14 73.652 0.175 8.19 2.22 8.94
8/16/2022 3:30:00 PM 23.25 73.85 0.174 8.01 2.22 8.94
8/16/2022 3:45:00 PM 23.53 74.354 0.174 8.24 2.26 8.97
8/16/2022 4:00:00 PM 23.71 74.67799 0.174 7.98 2.22 8.92
8/16/2022 4:15:00 PM 23.73 74.714 0.174 8.15 2.21 8.9
8/16/2022 4:30:00 PM 23.84 74.912 0.175 8.34 2.23 8.78
8/16/2022 4:45:00 PM 23.99 75.182 0.175 8.33 2.24 8.74
8/16/2022 5:00:00 PM 23.99 75.182 0.175 8.02 2.25 8.64
8/16/2022 5:15:00 PM 24.1 75.38 0.175 7.54 2.21 8.59
8/16/2022 5:30:00 PM 24.01 75.218 0.175 8.21 2.19 8.5
8/16/2022 5:45:00 PM 24.09 75.362 0.175 8.08 2.22 8.5
8/16/2022 6:00:00 PM 24.16 75.488 0.175 8.36 2.21 8.53
8/16/2022 6:15:00 PM 24.24 75.632 0.175 8.39 3.26 8.48
8/16/2022 6:30:00 PM 24.24 75.632 0.175 8.25 2.14 8.39
8/16/2022 6:45:00 PM 24.18 75.524 0.175 8.11 2.23 8.23
8/16/2022 7:00:00 PM 24.08 75.344 0.176 8.25 2.19 8.15
8/16/2022 7:15:00 PM 24.04 75.272 0.176 8.22 2.16 8.06
8/16/2022 7:30:00 PM 23.97 75.146 0.176 8.21 2.18 7.96
8/16/2022 7:45:00 PM 23.88 74.984 0.176 8.14 2.15 7.86
8/16/2022 8:00:00 PM 23.77 74.786 0.176 8.11 2.16 7.76
8/16/2022 8:15:00 PM 23.67 74.606 0.177 8.07 2.2 7.67
8/16/2022 8:30:00 PM 23.56 74.408 0.177 7.91 2.18 7.57
8/16/2022 8:45:00 PM 23.46 74.228 0.177 7.91 2.24 7.51
8/16/2022 9:00:00 PM 23.34 74.012 0.177 7.93 2.24 7.46
8/16/2022 9:15:00 PM 23.19 73.742 0.178 7.97 2.22 7.45
8/16/2022 9:30:00 PM 23.05 73.49 0.178 7.81 2.29 7.39
8/16/2022 9:45:00 PM 22.86 73.148 0.178 7.89 3.03 7.42
8/16/2022 10:00:00 PM 22.73 72.914 0.178 7.91 2.29 7.35
8/16/2022 10:15:00 PM 22.57 72.626 0.179 7.77 2.26 7.31
8/16/2022 10:30:00 PM 22.42 72.356 0.179 7.88 3.42 7.39
8/16/2022 10:45:00 PM 22.26 72.068 0.179 7.85 2.28 7.31
8/16/2022 11:00:00 PM 22.13 71.834 0.179 7.79 3.3 7.41
8/16/2022 11:15:00 PM 21.99 71.582 0.179 7.78 2.24 7.34
8/16/2022 11:30:00 PM 21.86 71.348 0.18 7.76 3.44 7.42
8/16/2022 11:45:00 PM 21.7 71.06 0.18 7.66 2.27 7.37
8/17/2022 12:00:00 AM 21.59 70.862 0.18 7.79 2.15 7.4
8/17/2022 12:15:00 AM 21.4 70.52 0.18 7.75 3.15 7.45
8/17/2022 12:30:00 AM 21.21 70.17799 0.18 7.72 3.23 7.48
8/17/2022 12:45:00 AM 21.05 69.89 0.18 7.69 3.13 7.51
8/17/2022 1:00:00 AM 20.93 69.674 0.18 7.74 3.14 7.53
8/17/2022 1:15:00 AM 20.78 69.404 0.18 7.7 2.21 7.47
8/17/2022 1:30:00 AM 20.64 69.152 0.18 7.74 2.32 7.45
8/17/2022 1:45:00 AM 20.45 68.81 0.181 7.72 3.29 7.62
8/17/2022 2:00:00 AM 20.36 68.648 0.18 7.69 2.28 7.52
8/17/2022 2:15:00 AM 20.25 68.45 0.18 7.73 3.2 7.64
8/17/2022 2:30:00 AM 20.1 68.18 0.18 7.73 3.07 7.69
8/17/2022 2:45:00 AM 19.94 67.892 0.18 7.72 2.81 7.69
8/17/2022 3:00:00 AM 19.88 67.784 0.18 7.74 3.2 7.7
8/17/2022 3:15:00 AM 19.77 67.586 0.18 7.71 3.25 7.73
8/17/2022 3:30:00 AM 19.69 67.442 0.18 7.7 2.24 7.67
8/17/2022 3:45:00 AM 19.57 67.226 0.18 7.69 3.14 7.79
8/17/2022 4:00:00 AM 19.53 67.154 0.18 7.74 2.2 7.78
8/17/2022 4:15:00 AM 19.47 67.046 0.18 7.72 2.23 7.77
8/17/2022 4:30:00 AM 19.37 66.866 0.18 7.64 2.23 7.76
8/17/2022 4:45:00 AM 19.3 66.74 0.179 7.72 2.17 7.77
8/17/2022 5:00:00 AM 19.17 66.506 0.179 7.69 2.63 7.87
8/17/2022 5:15:00 AM 19.02 66.236 0.18 7.69 3.53 7.9
8/17/2022 5:30:00 AM 18.96 66.128 0.179 7.69 3.31 7.95
8/17/2022 5:45:00 AM 18.85 65.93 0.179 7.7 3.32 7.97
8/17/2022 6:00:00 AM 18.72 65.696 0.179 7.7 3.33 7.98
8/17/2022 6:15:00 AM 18.62 65.516 0.179 7.73 2.13 7.95
8/17/2022 6:30:00 AM 18.52 65.336 0.179 7.71 2.21 7.92
8/17/2022 6:45:00 AM 18.43 65.174 0.179 7.76 2.28 7.93
8/17/2022 7:00:00 AM 18.41 65.138 0.179 7.78 2.16 8.02
8/17/2022 7:15:00 AM 18.44 65.192 0.179 7.75 2.13 8.15
8/17/2022 7:30:00 AM 18.43 65.174 0.179 7.71 3.25 8.21
8/17/2022 7:45:00 AM 18.39 65.102 0.179 7.7 3.17 8.28
8/17/2022 8:00:00 AM 18.46 65.228 0.179 7.68 3.24 8.39
8/17/2022 8:15:00 AM 18.49 65.282 0.178 7.71 2.15 8.45
8/17/2022 8:30:00 AM 18.49 65.282 0.178 7.69 2.48 8.51
8/17/2022 8:45:00 AM 18.49 65.282 0.178 7.7 3.46 8.6
8/17/2022 9:00:00 AM 18.52 65.336 0.178 7.72 2.11 8.63
8/17/2022 9:15:00 AM 18.55 65.39 0.178 7.72 2.15 8.69
8/17/2022 9:30:00 AM 18.58 65.444 0.178 7.72 3.23 8.79
8/17/2022 9:45:00 AM 18.62 65.516 0.178 7.72 2.11 8.85
8/17/2022 10:00:00 AM 18.69 65.642 0.178 7.73 3.26 8.98
8/17/2022 10:15:00 AM 18.73 65.714 0.178 7.73 2.18 9.01
8/17/2022 10:30:00 AM 18.78 65.804 0.178 7.75 2.09 9.06
8/17/2022 10:45:00 AM 18.81 65.858 0.178 7.75 2.17 9.09
8/17/2022 11:00:00 AM 18.85 65.93 0.178 7.77 2.16 9.13
8/17/2022 11:15:00 AM 18.86 65.948 0.178 7.77 3.2 9.13
8/17/2022 11:30:00 AM 18.91 66.038 0.177 7.77 3.15 9.16
8/17/2022 11:45:00 AM 18.95 66.11 0.177 7.76 3.19 9.18
8/17/2022 12:00:00 PM 19 66.2 0.177 7.75 3.33 9.2
8/17/2022 12:15:00 PM 19.06 66.308 0.177 7.79 3.22 9.22
8/17/2022 12:30:00 PM 19.13 66.434 0.177 7.78 2.1 9.27
8/17/2022 12:45:00 PM 19.21 66.578 0.177 7.79 3.14 9.32
8/17/2022 1:00:00 PM 19.29 66.722 0.177 7.84 3.18 9.37
8/17/2022 1:15:00 PM 19.39 66.902 0.176 7.83 2.1 9.41
8/17/2022 1:30:00 PM 19.47 67.046 0.176 7.87 2.15 9.45
8/17/2022 1:45:00 PM 19.55 67.19 0.176 7.89 2.17 9.44
8/17/2022 2:00:00 PM 19.65 67.37 0.176 7.92 2.17 9.46
8/17/2022 2:15:00 PM 19.77 67.586 0.176 7.92 2.11 9.48
8/17/2022 2:30:00 PM 19.92 67.856 0.176 7.97 2.11 9.51
8/17/2022 2:45:00 PM 20.05 68.09 0.176 8.01 3 9.52
8/17/2022 3:00:00 PM 20.21 68.378 0.176 8.04 3.22 9.55
8/17/2022 3:15:00 PM 20.36 68.648 0.175 7.99 3.19 9.55
8/17/2022 3:30:00 PM 20.49 68.882 0.175 8.04 2.11 9.57
8/17/2022 3:45:00 PM 20.57 69.026 0.175 8.02 2.08 9.5
8/17/2022 4:00:00 PM 20.64 69.152 0.176 8.07 2.11 9.44
8/17/2022 4:15:00 PM 20.71 69.278 0.176 7.97 2.66 9.38
8/17/2022 4:30:00 PM 20.84 69.512 0.176 8.14 2.11 9.34
8/17/2022 4:45:00 PM 21 69.8 0.176 8.15 3.08 9.36
8/17/2022 5:00:00 PM 21.19 70.142 0.175 8.13 3.17 9.33
8/17/2022 5:15:00 PM 21.21 70.17799 0.175 8.09 2.09 9.25
8/17/2022 5:30:00 PM 21.17 70.106 0.176 8.11 2.13 9.13
8/17/2022 5:45:00 PM 21.27 70.286 0.176 8.16 2.12 9.11
8/17/2022 6:00:00 PM 21.28 70.304 0.176 8.16 2.08 8.99
8/17/2022 6:15:00 PM 21.31 70.358 0.176 8.15 2.15 8.89
8/17/2022 6:30:00 PM 21.33 70.394 0.176 8.11 2.08 8.82
8/17/2022 6:45:00 PM 21.35 70.43 0.176 8.13 2.15 8.81
8/17/2022 7:00:00 PM 21.36 70.448 0.176 8.13 2.15 8.71
8/17/2022 7:15:00 PM 21.25 70.25 0.176 8.19 3.24 8.64
8/17/2022 7:30:00 PM 21.28 70.304 0.176 8.13 2.11 8.47
8/17/2022 7:45:00 PM 21.26 70.268 0.176 8.03 2.15 8.36
8/17/2022 8:00:00 PM 21.2 70.16 0.177 8.1 2.12 8.3
8/17/2022 8:15:00 PM 21.18 70.124 0.177 8.03 2.13 8.21
8/17/2022 8:30:00 PM 21.12 70.016 0.177 8.09 2.1 8.16
8/17/2022 8:45:00 PM 20.98 69.764 0.176 7.72 2.46 8.05
8/17/2022 9:00:00 PM 20.93 69.674 0.176 7.83 2.28 7.96
8/17/2022 9:15:00 PM 20.92 69.656 0.176 7.9 2.05 7.88
8/17/2022 9:30:00 PM 20.86 69.548 0.177 7.87 2.24 7.84
8/17/2022 9:45:00 PM 20.81 69.458 0.177 7.86 2.35 7.8
8/17/2022 10:00:00 PM 20.66 69.188 0.177 7.83 3.24 7.84
8/17/2022 10:15:00 PM 20.6 69.08 0.178 7.8 3 7.76
8/17/2022 10:30:00 PM 20.5 68.9 0.178 7.8 3.35 7.82
8/17/2022 10:45:00 PM 20.41 68.738 0.178 7.74 4.68 7.71
8/17/2022 11:00:00 PM 20.28 68.504 0.179 7.77 3.25 7.81
8/17/2022 11:15:00 PM 20.18 68.324 0.179 7.8 3.87 7.72
8/17/2022 11:30:00 PM 20.07 68.126 0.179 7.77 3.59 7.81
8/17/2022 11:45:00 PM 19.99 67.982 0.179 7.77 3.9 7.74
8/18/2022 12:00:00 AM 19.92 67.856 0.179 7.76 4.41 7.74
8/18/2022 12:15:00 AM 19.78 67.604 0.179 7.7 4.3 7.71
8/18/2022 12:30:00 AM 19.71 67.478 0.179 7.79 3.55 7.75
8/18/2022 12:45:00 AM 19.61 67.298 0.179 7.76 3.36 7.77
8/18/2022 1:00:00 AM 19.49 67.082 0.179 7.82 3.65 7.79
8/18/2022 1:15:00 AM 19.4 66.92 0.179 7.8 3.31 7.79
8/18/2022 1:30:00 AM 19.25 66.65 0.179 7.77 3.57 7.73
8/18/2022 1:45:00 AM 19.16 66.488 0.179 7.78 3.07 7.78
8/18/2022 2:00:00 AM 19.06 66.308 0.179 7.59 3.33 7.77
8/18/2022 2:15:00 AM 19 66.2 0.178 7.67 2.98 7.81
8/18/2022 2:30:00 AM 18.86 65.948 0.178 7.69 3.5 7.91
8/18/2022 2:45:00 AM 18.8 65.84 0.178 7.7 3.42 7.94
8/18/2022 3:00:00 AM 18.78 65.804 0.178 7.7 2.6 7.88
8/18/2022 3:15:00 AM 18.69 65.642 0.178 7.7 3.28 7.96
8/18/2022 3:30:00 AM 18.63 65.534 0.178 7.7 2.4 7.91
8/18/2022 3:45:00 AM 18.59 65.462 0.178 7.66 2.43 7.89
8/18/2022 4:00:00 AM 18.55 65.39 0.178 7.69 3.43 8
8/18/2022 4:15:00 AM 18.5 65.3 0.178 7.66 3.28 8.02
8/18/2022 4:30:00 AM 18.46 65.228 0.178 7.71 2.31 7.97
8/18/2022 4:45:00 AM 18.4 65.12 0.178 7.71 2.3 7.99
8/18/2022 5:00:00 AM 18.32 64.976 0.178 7.69 3.32 8.05
8/18/2022 5:15:00 AM 18.3 64.94 0.178 7.71 2.32 7.99
8/18/2022 5:30:00 AM 18.28 64.904 0.178 7.69 2.3 8.03
8/18/2022 5:45:00 AM 18.23 64.814 0.178 7.7 2.28 8.05
8/18/2022 6:00:00 AM 18.19 64.742 0.178 7.67 3.29 8.11
8/18/2022 6:15:00 AM 18.17 64.706 0.178 7.7 2.23 8.06
8/18/2022 6:30:00 AM 18.11 64.598 0.178 7.72 2.29 8.07
8/18/2022 6:45:00 AM 18.04 64.472 0.178 7.72 2.3 8.07
8/18/2022 7:00:00 AM 18 64.4 0.178 7.73 2.26 8.1
8/18/2022 7:15:00 AM 18 64.4 0.178 7.67 2.56 8.2
8/18/2022 7:30:00 AM 18 64.4 0.178 7.66 3.37 8.24
8/18/2022 7:45:00 AM 17.97 64.346 0.178 7.67 3.33 8.32
8/18/2022 8:00:00 AM 17.98 64.364 0.178 7.71 2.24 8.32
8/18/2022 8:15:00 AM 18.02 64.436 0.177 7.68 3.33 8.5
8/18/2022 8:30:00 AM 18.08 64.544 0.177 7.72 2.24 8.54
8/18/2022 8:45:00 AM 18.09 64.562 0.177 7.75 2.22 8.59
8/18/2022 9:00:00 AM 18.17 64.706 0.177 7.76 2.21 8.69
8/18/2022 9:15:00 AM 18.24 64.832 0.177 7.73 2.2 8.82
8/18/2022 9:30:00 AM 18.27 64.886 0.177 7.74 3.28 8.91
8/18/2022 9:45:00 AM 18.37 65.066 0.177 7.71 3.28 8.99
8/18/2022 10:00:00 AM 18.47 65.246 0.177 7.73 3.29 9.09
8/18/2022 10:15:00 AM 18.58 65.444 0.177 7.76 2.23 9.15
8/18/2022 10:30:00 AM 18.84 65.912 0.177 7.76 3.31 9.29
8/18/2022 10:45:00 AM 19.33 66.794 0.177 7.79 2.22 9.38
8/18/2022 11:00:00 AM 19.68 67.424 0.177 7.78 2.26 9.42
8/18/2022 11:15:00 AM 19.95 67.91 0.177 7.8 2.6 9.45
8/18/2022 11:30:00 AM 20.38 68.684 0.176 7.8 2.22 9.43
8/18/2022 11:45:00 AM 20.46 68.828 0.176 7.81 2.24 9.43
8/18/2022 12:00:00 PM 20.56 69.008 0.176 7.82 2.37 9.35
8/18/2022 12:15:00 PM 20.49 68.882 0.176 7.88 2.55 9.43
8/18/2022 12:30:00 PM 20.56 69.008 0.176 7.9 2.49 9.46
8/18/2022 12:45:00 PM 20.76 69.368 0.176 7.91 2.41 9.43
8/18/2022 1:00:00 PM 20.96 69.728 0.176 7.94 2.35 9.49
8/18/2022 1:15:00 PM 21.16 70.088 0.175 7.84 2.43 9.43
8/18/2022 1:30:00 PM 21.39 70.502 0.175 7.98 2.3 9.46
8/18/2022 1:45:00 PM 21.48 70.664 0.175 8.03 2.22 9.39
8/18/2022 2:00:00 PM 21.67 71.006 0.175 8.04 2.17 9.39
8/18/2022 2:15:00 PM 21.87 71.366 0.175 7.96 2.16 9.33
8/18/2022 2:30:00 PM 22.03 71.654 0.175 8.06 2.16 9.28
8/18/2022 2:45:00 PM 22.25 72.05 0.175 7.98 2.2 9.25
8/18/2022 3:00:00 PM 22.43 72.374 0.175 8.05 2.23 9.16
8/18/2022 3:15:00 PM 22.58 72.644 0.175 8.11 2.19 9.01
8/18/2022 3:30:00 PM 22.89 73.202 0.174 8.16 2.12 9.12
8/18/2022 3:45:00 PM 23.17 73.706 0.174 8.22 2.13 9.11
8/18/2022 4:00:00 PM 23.44 74.192 0.174 7.91 2.12 9.05
8/18/2022 4:15:00 PM 23.63 74.534 0.174 8.22 2.18 8.91
8/18/2022 4:30:00 PM 23.77 74.786 0.175 8.26 2.22 8.77
8/18/2022 4:45:00 PM 23.8 74.84 0.175 7.94 2.12 8.7
8/18/2022 5:00:00 PM 23.82 74.876 0.175 8.28 2.16 8.61
8/18/2022 5:15:00 PM 23.86 74.948 0.175 8.28 3.04 8.54
8/18/2022 5:30:00 PM 23.86 74.948 0.175 8.26 2.13 8.47
8/18/2022 5:45:00 PM 24 75.2 0.175 8.24 2.15 8.48
8/18/2022 6:00:00 PM 24.04 75.272 0.175 8.32 2.2 8.44
8/18/2022 6:15:00 PM 24.04 75.272 0.175 8.27 2.17 8.4
8/18/2022 6:30:00 PM 24.05 75.29 0.175 8.28 2.24 8.31
8/18/2022 6:45:00 PM 24.06 75.308 0.176 8.13 2.2 8.2
8/18/2022 7:00:00 PM 24.02 75.236 0.176 8.1 2.2 8.12
8/18/2022 7:15:00 PM 23.97 75.146 0.176 8.13 2.24 8.03
8/18/2022 7:30:00 PM 23.91 75.038 0.176 8.14 2.16 7.96
8/18/2022 7:45:00 PM 23.85 74.93 0.177 8.01 2.15 7.83
8/18/2022 8:00:00 PM 23.76 74.768 0.177 8.01 2.02 7.77
8/18/2022 8:15:00 PM 23.62 74.516 0.177 8.08 2.03 7.7
8/18/2022 8:30:00 PM 23.51 74.318 0.177 8.01 2.08 7.63
8/18/2022 8:45:00 PM 23.37 74.066 0.178 7.91 2.06 7.49
8/18/2022 9:00:00 PM 23.2 73.76 0.178 7.9 2.13 7.44
8/18/2022 9:15:00 PM 23.1 73.58 0.178 7.85 2.15 7.41
8/18/2022 9:30:00 PM 22.94 73.292 0.178 7.9 2.09 7.33
8/18/2022 9:45:00 PM 22.77 72.986 0.179 7.81 2.23 7.31
8/18/2022 10:00:00 PM 22.6 72.68 0.179 7.94 3.05 7.41
8/18/2022 10:15:00 PM 22.49 72.482 0.179 7.88 2.72 7.4
8/18/2022 10:30:00 PM 22.36 72.248 0.179 7.91 2.14 7.37
8/18/2022 10:45:00 PM 22.19 71.942 0.179 7.85 3.53 7.5
8/18/2022 11:00:00 PM 22.03 71.654 0.179 7.83 2.6 7.4
8/18/2022 11:15:00 PM 21.88 71.384 0.18 7.85 2.23 7.39
8/18/2022 11:30:00 PM 21.73 71.114 0.18 7.87 2.21 7.39
8/18/2022 11:45:00 PM 21.57 70.826 0.18 7.85 2.2 7.31
8/19/2022 12:00:00 AM 21.4 70.52 0.18 7.85 3.38 7.44
8/19/2022 12:15:00 AM 21.24 70.232 0.18 7.82 2.22 7.33
8/19/2022 12:30:00 AM 21.09 69.962 0.18 7.86 2.22 7.41
8/19/2022 12:45:00 AM 20.87 69.566 0.181 7.76 3.56 7.52
8/19/2022 1:00:00 AM 20.69 69.242 0.181 7.76 2.26 7.51
8/19/2022 1:15:00 AM 20.52 68.936 0.181 7.81 3.32 7.66
8/19/2022 1:30:00 AM 20.41 68.738 0.181 7.8 2.2 7.67
8/19/2022 1:45:00 AM 20.25 68.45 0.181 7.91 2.24 7.68
8/19/2022 2:00:00 AM 20.14 68.252 0.181 7.82 2.18 7.78
8/19/2022 2:15:00 AM 19.96 67.92799 0.181 7.84 3.27 7.94
8/19/2022 2:30:00 AM 19.81 67.658 0.181 7.83 3.19 8.05
8/19/2022 2:45:00 AM 19.71 67.478 0.181 7.89 2.2 8.27
8/19/2022 3:00:00 AM 19.53 67.154 0.181 7.85 3.45 8.3
8/19/2022 3:15:00 AM 19.39 66.902 0.181 7.81 3.33 8.32
8/19/2022 3:30:00 AM 19.29 66.722 0.181 7.76 2.28 8.28
8/19/2022 3:45:00 AM 19.11 66.398 0.181 7.8 3.38 8.36
8/19/2022 4:00:00 AM 19.09 66.362 0.18 7.81 3.25 8.42
8/19/2022 4:15:00 AM 18.98 66.164 0.18 7.78 3.61 8.42
8/19/2022 4:30:00 AM 18.93 66.074 0.18 7.82 2.12 8.44
8/19/2022 4:45:00 AM 18.81 65.858 0.18 7.76 3.54 8.45
8/19/2022 5:00:00 AM 18.75 65.75 0.18 7.67 2.16 8.4
8/19/2022 5:15:00 AM 18.7 65.66 0.18 7.76 2.21 8.5
8/19/2022 5:30:00 AM 18.6 65.48 0.18 7.75 2.07 8.49
8/19/2022 5:45:00 AM 18.53 65.354 0.18 7.68 2.26 8.52
8/19/2022 6:00:00 AM 18.46 65.228 0.179 7.81 2.3 8.72
8/19/2022 6:15:00 AM 18.39 65.102 0.179 7.78 2.17 8.73
8/19/2022 6:30:00 AM 18.3 64.94 0.179 7.73 3.5 8.73
8/19/2022 6:45:00 AM 18.24 64.832 0.179 7.77 2.11 8.81
8/19/2022 7:00:00 AM 18.15 64.67 0.179 7.76 2.24 8.81
8/19/2022 7:15:00 AM 18.14 64.652 0.179 7.72 2.21 8.79
8/19/2022 7:30:00 AM 18.08 64.544 0.179 7.69 2.27 8.8
8/19/2022 7:45:00 AM 18.05 64.49 0.179 7.68 2.2 8.81
8/19/2022 8:00:00 AM 18.03 64.454 0.179 7.75 2.06 8.94
8/19/2022 8:15:00 AM 18.09 64.562 0.179 7.74 2.08 8.94
8/19/2022 8:30:00 AM 18.13 64.634 0.179 7.78 1.97 9.02
8/19/2022 8:45:00 AM 18.18 64.724 0.178 7.78 2.07 9.02
8/19/2022 9:00:00 AM 18.23 64.814 0.178 7.76 1.88 9.02
8/19/2022 9:15:00 AM 18.31 64.958 0.178 7.75 3.1 9.02
8/19/2022 9:30:00 AM 18.42 65.156 0.178 7.74 2.98 9.01
8/19/2022 9:45:00 AM 18.56 65.408 0.178 7.77 2.01 9.04
8/19/2022 10:00:00 AM 18.67 65.606 0.178 7.83 1.87 9.01
8/19/2022 10:15:00 AM 18.95 66.11 0.178 7.86 1.93 9
8/19/2022 10:30:00 AM 19.21 66.578 0.178 7.82 1.92 8.94
8/19/2022 10:45:00 AM 19.68 67.424 0.178 7.91 2 8.93
8/19/2022 11:00:00 AM 20.05 68.09 0.178 7.76 1.91 8.88
8/19/2022 11:15:00 AM 20.36 68.648 0.177 7.92 1.97 8.87
8/19/2022 11:30:00 AM 20.87 69.566 0.177 7.79 1.92 8.78
8/19/2022 11:45:00 AM 20.92 69.656 0.177 7.9 3.04 8.84
8/19/2022 12:00:00 PM 20.88 69.584 0.177 7.52 2.05 8.8
8/19/2022 12:15:00 PM 20.97 69.746 0.177 7.66 2.02 8.76
8/19/2022 12:30:00 PM 21.11 69.998 0.177 7.93 2.82 8.77
8/19/2022 12:45:00 PM 21.3 70.34 0.177 7.92 2.11 8.7
8/19/2022 1:00:00 PM 21.48 70.664 0.176 7.66 2.09 8.59
8/19/2022 1:15:00 PM 21.75 71.15 0.176 7.91 1.85 8.56
8/19/2022 1:30:00 PM 21.86 71.348 0.176 8 1.99 8.54
8/19/2022 1:45:00 PM 21.98 71.564 0.176 7.95 1.8 8.52
8/19/2022 2:00:00 PM 22.28 72.104 0.176 7.94 2.07 8.42
8/19/2022 2:15:00 PM 22.39 72.302 0.176 7.47 2.02 8.3
8/19/2022 2:30:00 PM 22.56 72.608 0.176 7.78 1.84 8.38
8/19/2022 2:45:00 PM 22.84 73.112 0.176 7.85 1.95 8.32
8/19/2022 3:00:00 PM 23.12 73.616 0.176 7.6 2.09 8.14
8/19/2022 3:15:00 PM 23.46 74.228 0.176 7.95 1.84 8.25
8/19/2022 3:30:00 PM 23.67 74.606 0.176 7.94 1.9 8.18
8/19/2022 3:45:00 PM 23.95 75.11 0.176 7.87 2.17 8.12
8/19/2022 4:00:00 PM 24.16 75.488 0.176 7.92 2.16 8.13
8/19/2022 4:15:00 PM 24.33 75.794 0.176 7.96 1.91 8.11
8/19/2022 4:30:00 PM 24.51 76.118 0.176 7.82 2.07 8.05
8/19/2022 4:45:00 PM 24.56 76.208 0.176 7.96 2.13 8.03
8/19/2022 5:00:00 PM 24.61 76.298 0.176 7.89 2.15 7.97
8/19/2022 5:15:00 PM 24.65 76.37 0.176 8.04 1.86 7.98
8/19/2022 5:30:00 PM 24.76 76.568 0.176 8.02 1.89 8
8/19/2022 5:45:00 PM 24.77 76.586 0.177 7.98 1.8 7.97
8/19/2022 6:00:00 PM 24.79 76.622 0.177 8 2.11 7.91
8/19/2022 6:15:00 PM 24.86 76.748 0.177 8.02 1.87 7.97
8/19/2022 6:30:00 PM 24.84 76.712 0.177 7.99 1.89 7.96
8/19/2022 6:45:00 PM 24.82 76.676 0.177 8 1.76 7.93
8/19/2022 7:00:00 PM 24.8 76.64 0.178 7.95 1.94 7.93
8/19/2022 7:15:00 PM 24.71 76.478 0.178 7.9 2 7.95
8/19/2022 7:30:00 PM 24.62 76.316 0.178 7.97 1.97 7.95
8/19/2022 7:45:00 PM 24.5 76.1 0.179 7.8 2.08 7.98
8/19/2022 8:00:00 PM 24.41 75.938 0.179 7.82 2.04 8
8/19/2022 8:15:00 PM 24.32 75.776 0.179 7.74 1.99 7.91
8/19/2022 8:30:00 PM 24.2 75.56 0.179 7.73 1.94 7.89
8/19/2022 8:45:00 PM 24.01 75.218 0.18 7.75 2.95 7.94
8/19/2022 9:00:00 PM 23.91 75.038 0.18 7.75 2.05 7.89
8/19/2022 9:15:00 PM 23.73 74.714 0.181 8.03 3.09 8.02
8/19/2022 9:30:00 PM 23.69 74.642 0.181 7.85 2.02 8.09
8/19/2022 9:45:00 PM 23.52 74.336 0.181 7.68 2.01 7.87
8/19/2022 10:00:00 PM 23.38 74.084 0.181 7.89 2.81 8.18
8/19/2022 10:15:00 PM 23.34 74.012 0.181 7.82 2.35 8.13
8/19/2022 10:30:00 PM 23.23 73.814 0.182 7.65 2.14 7.95
8/19/2022 10:45:00 PM 23.11 73.598 0.182 7.65 2.23 7.95
8/19/2022 11:00:00 PM 22.99 73.382 0.182 7.76 2.01 8.2
8/19/2022 11:15:00 PM 22.82 73.076 0.183 7.78 2.86 8.16
8/19/2022 11:30:00 PM 22.64 72.752 0.183 7.68 1.9 8
8/19/2022 11:45:00 PM 22.47 72.446 0.183 7.84 2.76 8.08
8/20/2022 12:00:00 AM 22.39 72.302 0.183 7.79 2.5 8.16
8/20/2022 12:15:00 AM 22.24 72.032 0.183 7.67 2.19 8.02
8/20/2022 12:30:00 AM 22 71.6 0.184 7.91 3.1 8.44
8/20/2022 12:45:00 AM 21.89 71.402 0.184 7.7 2.1 8.12
8/20/2022 1:00:00 AM 21.7 71.06 0.184 7.71 2.08 8.2
8/20/2022 1:15:00 AM 21.56 70.808 0.184 7.76 2.07 8.29
8/20/2022 1:30:00 AM 21.46 70.628 0.184 7.87 2.09 8.35
8/20/2022 1:45:00 AM 21.27 70.286 0.184 7.99 2.96 8.49
8/20/2022 2:00:00 AM 21.12 70.016 0.184 7.73 3.32 8.32
8/20/2022 2:15:00 AM 21.02 69.836 0.184 7.68 3.13 8.46
8/20/2022 2:30:00 AM 20.9 69.62 0.184 7.92 2.06 8.51
8/20/2022 2:45:00 AM 20.75 69.35 0.184 7.67 2.02 8.34
8/20/2022 3:00:00 AM 20.62 69.116 0.185 7.83 2.05 8.55
8/20/2022 3:15:00 AM 20.49 68.882 0.184 7.88 3.27 8.67
8/20/2022 3:30:00 AM 20.33 68.594 0.185 7.81 2.15 8.49
8/20/2022 3:45:00 AM 20.23 68.414 0.184 7.81 2.15 8.47
8/20/2022 4:00:00 AM 20.14 68.252 0.184 7.89 3.08 8.58
8/20/2022 4:15:00 AM 20 68 0.184 7.83 3.04 8.58
8/20/2022 4:30:00 AM 19.91 67.838 0.184 7.84 2.58 8.71
8/20/2022 4:45:00 AM 19.79 67.622 0.184 7.92 2.97 8.69
8/20/2022 5:00:00 AM 19.74 67.532 0.184 7.78 1.96 8.6
8/20/2022 5:15:00 AM 19.64 67.352 0.184 7.95 2.27 8.69
8/20/2022 5:30:00 AM 19.55 67.19 0.183 7.79 2.11 8.55
8/20/2022 5:45:00 AM 19.53 67.154 0.183 7.84 2.18 8.63
8/20/2022 6:00:00 AM 19.49 67.082 0.183 7.84 2.13 8.74
8/20/2022 6:15:00 AM 19.36 66.848 0.183 7.76 3.16 8.76
8/20/2022 6:30:00 AM 19.35 66.83 0.183 7.81 1.99 8.75
8/20/2022 6:45:00 AM 19.27 66.686 0.183 7.73 1.91 8.75
8/20/2022 7:00:00 AM 19.23 66.614 0.183 7.82 2.95 8.82
8/20/2022 7:15:00 AM 19.22 66.596 0.182 7.82 3.11 8.86
8/20/2022 7:30:00 AM 19.21 66.578 0.182 7.8 1.99 8.83
8/20/2022 7:45:00 AM 19.2 66.56 0.182 7.78 2.1 8.83
8/20/2022 8:00:00 AM 19.22 66.596 0.182 7.84 3.24 8.86
8/20/2022 8:15:00 AM 19.27 66.686 0.182 7.82 2.36 8.87
8/20/2022 8:30:00 AM 19.32 66.776 0.182 7.8 2.07 8.88
8/20/2022 8:45:00 AM 19.34 66.812 0.181 7.8 2.07 8.91
8/20/2022 9:00:00 AM 19.41 66.938 0.181 7.8 2.02 8.93
8/20/2022 9:15:00 AM 19.53 67.154 0.181 7.84 2.89 8.92
8/20/2022 9:30:00 AM 19.68 67.424 0.181 7.75 1.88 8.94
8/20/2022 9:45:00 AM 19.82 67.676 0.18 7.82 2.93 8.89
8/20/2022 10:00:00 AM 19.96 67.92799 0.18 7.82 3.26 8.87
8/20/2022 10:15:00 AM 20.23 68.414 0.18 7.82 2.01 8.85
8/20/2022 10:30:00 AM 20.45 68.81 0.18 7.77 1.95 8.82
8/20/2022 10:45:00 AM 20.58 69.044 0.18 7.8 1.97 8.78
8/20/2022 11:00:00 AM 20.65 69.17 0.18 7.81 1.96 8.76
8/20/2022 11:15:00 AM 21.04 69.872 0.179 7.81 1.94 8.72
8/20/2022 11:30:00 AM 21.85 71.33 0.18 7.56 2 8.55
8/20/2022 11:45:00 AM 22.18 71.924 0.179 7.64 2.02 8.57
8/20/2022 12:00:00 PM 22.23 72.014 0.179 7.7 2.05 8.57
8/20/2022 12:15:00 PM 22.1 71.78 0.179 7.66 1.99 8.59
8/20/2022 12:30:00 PM 22.23 72.014 0.178 7.68 2.25 8.58
8/20/2022 12:45:00 PM 22.37 72.266 0.178 7.43 1.92 8.47
8/20/2022 1:00:00 PM 22.64 72.752 0.178 7.72 1.97 8.45
8/20/2022 1:15:00 PM 22.79 73.022 0.178 7.52 1.99 8.4
8/20/2022 1:30:00 PM 23 73.4 0.178 7.63 2.06 8.4
8/20/2022 1:45:00 PM 23.23 73.814 0.178 7.62 1.94 8.29
8/20/2022 2:00:00 PM 23.42 74.156 0.177 7.7 1.93 8.35
8/20/2022 2:15:00 PM 23.53 74.354 0.177 7.76 2.04 8.25
8/20/2022 2:30:00 PM 23.73 74.714 0.177 7.8 2.08 8.21
8/20/2022 2:45:00 PM 23.88 74.984 0.177 7.75 2.03 8.18
8/20/2022 3:00:00 PM 24.14 75.452 0.177 7.74 2.04 8.12
8/20/2022 3:15:00 PM 24.22 75.596 0.177 7.24 1.92 8.12
8/20/2022 3:30:00 PM 24.46 76.028 0.177 7.83 1.95 8.11
8/20/2022 3:45:00 PM 24.58 76.244 0.177 7.59 1.96 8.1
8/20/2022 4:00:00 PM 24.71 76.478 0.176 8.02 1.97 8.15
8/20/2022 4:15:00 PM 24.84 76.712 0.176 6.67 3.51 7.89
8/20/2022 4:30:00 PM 25.07 77.126 0.176 7.86 1.95 8.12
8/20/2022 4:45:00 PM 25.1 77.18 0.175 7.56 2.05 8.06
8/20/2022 5:00:00 PM 25.25 77.45 0.175 7.7 2.09 8.01
8/20/2022 5:15:00 PM 25.24 77.432 0.174 7.81 1.87 8.03
8/20/2022 5:30:00 PM 25.38 77.684 0.174 7.93 2.13 8.03
8/20/2022 5:45:00 PM 25.47 77.846 0.174 7.93 1.89 7.96
8/20/2022 6:00:00 PM 25.39 77.702 0.173 8.02 1.98 7.97
8/20/2022 6:15:00 PM 25.36 77.648 0.173 8.19 2.13 8.01
8/20/2022 6:30:00 PM 25.41 77.738 0.172 8.08 2.09 7.97
8/20/2022 6:45:00 PM 25.45 77.81 0.171 8.05 2.06 8.03
8/20/2022 7:00:00 PM 25.43 77.774 0.172 7.97 1.98 7.96
8/20/2022 7:15:00 PM 25.37 77.666 0.171 7.91 1.95 8.01
8/20/2022 7:30:00 PM 25.3 77.54 0.171 7.86 2.04 7.92
8/20/2022 7:45:00 PM 25.28 77.504 0.172 7.82 2.03 7.99
8/20/2022 8:00:00 PM 25.18 77.324 0.173 7.75 2.15 7.93
8/20/2022 8:15:00 PM 25.1 77.18 0.174 7.83 2.37 8.02
8/20/2022 8:30:00 PM 25.01 77.018 0.173 7.76 1.92 7.97
8/20/2022 8:45:00 PM 24.87 76.766 0.174 7.77 2.16 7.95
8/20/2022 9:00:00 PM 24.77 76.586 0.174 7.81 1.91 7.86
8/20/2022 9:15:00 PM 24.66 76.388 0.174 7.63 2.02 7.92
8/20/2022 9:30:00 PM 24.57 76.226 0.173 7.63 2.11 7.9
8/20/2022 9:45:00 PM 24.5 76.1 0.174 7.89 3.26 8.08
8/20/2022 10:00:00 PM 24.35 75.83 0.175 7.69 1.99 7.94
8/20/2022 10:15:00 PM 24.21 75.578 0.175 7.65 1.97 7.9
8/20/2022 10:30:00 PM 24.09 75.362 0.176 7.65 2.06 7.92
8/20/2022 10:45:00 PM 23.98 75.164 0.178 7.6 1.98 7.91
8/20/2022 11:00:00 PM 23.91 75.038 0.179 8 2.03 8.09
8/20/2022 11:15:00 PM 23.73 74.714 0.179 7.83 2.06 8.07
8/20/2022 11:30:00 PM 23.61 74.498 0.181 8.07 3.58 8.18
8/20/2022 11:45:00 PM 23.51 74.318 0.181 7.88 2.34 8.12
8/21/2022 12:00:00 AM 23.37 74.066 0.181 8 3.15 8.16
8/21/2022 12:15:00 AM 23.23 73.814 0.182 7.85 3.38 8.22
8/21/2022 12:30:00 AM 23.11 73.598 0.183 7.91 2.29 8.18
8/21/2022 12:45:00 AM 22.98 73.364 0.184 7.85 1.92 8.18
8/21/2022 1:00:00 AM 22.79 73.022 0.184 7.76 2.26 8.18
8/21/2022 1:15:00 AM 22.65 72.77 0.184 7.97 2.93 8.28
8/21/2022 1:30:00 AM 22.49 72.482 0.185 7.95 3.26 8.34
8/21/2022 1:45:00 AM 22.37 72.266 0.185 7.8 1.95 8.22
8/21/2022 2:00:00 AM 22.17 71.906 0.185 7.79 2.13 8.29
8/21/2022 2:15:00 AM 22.11 71.798 0.185 7.9 1.97 8.32
8/21/2022 2:30:00 AM 21.86 71.348 0.185 7.76 2.04 8.32
8/21/2022 2:45:00 AM 21.82 71.276 0.184 7.92 2.01 8.4
8/21/2022 3:00:00 AM 21.69 71.042 0.185 7.77 2.02 8.4
8/21/2022 3:15:00 AM 21.56 70.808 0.185 7.9 2.12 8.47
8/21/2022 3:30:00 AM 21.45 70.61 0.185 7.91 3.69 8.49
8/21/2022 3:45:00 AM 21.25 70.25 0.185 7.65 2.1 8.42
8/21/2022 4:00:00 AM 21.22 70.196 0.185 7.87 2.1 8.51
8/21/2022 4:15:00 AM 21.12 70.016 0.185 7.9 2.25 8.49
8/21/2022 4:30:00 AM 21.05 69.89 0.185 7.87 1.99 8.54
8/21/2022 4:45:00 AM 20.96 69.728 0.184 7.74 2.12 8.47
8/21/2022 5:00:00 AM 20.85 69.53 0.184 7.86 4.05 8.63
8/21/2022 5:15:00 AM 20.82 69.476 0.184 7.86 2.16 8.57
8/21/2022 5:30:00 AM 20.72 69.296 0.183 7.82 2.12 8.6
8/21/2022 5:45:00 AM 20.65 69.17 0.183 7.74 3.9 8.63
8/21/2022 6:00:00 AM 20.58 69.044 0.183 7.77 2.01 8.65
8/21/2022 6:15:00 AM 20.48 68.864 0.183 7.8 3.36 8.73
8/21/2022 6:30:00 AM 20.43 68.774 0.183 7.63 2 8.61
8/21/2022 6:45:00 AM 20.4 68.72 0.183 7.78 3.11 8.74
8/21/2022 7:00:00 AM 20.34 68.612 0.182 7.8 2.97 8.73
8/21/2022 7:15:00 AM 20.3 68.54 0.182 7.62 2.04 8.66
8/21/2022 7:30:00 AM 20.34 68.612 0.182 7.74 2.06 8.72
8/21/2022 7:45:00 AM 20.34 68.612 0.182 7.8 3.74 8.77
8/21/2022 8:00:00 AM 20.41 68.738 0.182 7.69 2.13 8.75
8/21/2022 8:15:00 AM 20.56 69.008 0.183 7.75 3.85 8.75
8/21/2022 8:30:00 AM 20.63 69.134 0.182 7.74 3.69 8.74
8/21/2022 8:45:00 AM 20.7 69.26 0.182 7.73 3.33 8.76
8/21/2022 9:00:00 AM 20.72 69.296 0.182 7.72 2.11 8.77
8/21/2022 9:15:00 AM 20.73 69.314 0.182 7.72 2.6 8.79
8/21/2022 9:30:00 AM 20.72 69.296 0.182 7.8 2.23 8.8
8/21/2022 9:45:00 AM 20.72 69.296 0.183 7.81 2.06 8.79
8/21/2022 10:00:00 AM 20.71 69.278 0.183 7.83 2.03 8.77
8/21/2022 10:15:00 AM 20.71 69.278 0.183 7.83 2.14 8.77
8/21/2022 10:30:00 AM 20.69 69.242 0.182 7.82 2.01 8.77
8/21/2022 10:45:00 AM 20.7 69.26 0.182 7.77 2.16 8.78
8/21/2022 11:00:00 AM 20.7 69.26 0.182 7.75 2.06 8.77
8/21/2022 11:15:00 AM 20.74 69.332 0.182 7.76 2.31 8.77
8/21/2022 11:30:00 AM 20.79 69.422 0.182 7.78 2.91 8.74
8/21/2022 11:45:00 AM 20.86 69.548 0.182 7.81 3.87 8.74
8/21/2022 12:00:00 PM 20.95 69.71 0.182 7.76 2.45 8.76
8/21/2022 12:15:00 PM 21.07 69.926 0.181 7.82 3.83 8.71
8/21/2022 12:30:00 PM 21.18 70.124 0.181 7.75 2.19 8.73
8/21/2022 12:45:00 PM 21.35 70.43 0.181 7.83 3.71 8.7
8/21/2022 1:00:00 PM 21.49 70.682 0.181 7.6 2.07 8.7
8/21/2022 1:15:00 PM 21.65 70.97 0.18 7.62 2.12 8.68
8/21/2022 1:30:00 PM 21.78 71.204 0.18 7.62 1.98 8.67
8/21/2022 1:45:00 PM 21.97 71.546 0.18 7.64 2.16 8.64
8/21/2022 2:00:00 PM 22.1 71.78 0.18 7.76 2.03 8.61
8/21/2022 2:15:00 PM 22.21 71.978 0.18 7.76 2.06 8.57
8/21/2022 2:30:00 PM 22.24 72.032 0.18 7.75 2.24 8.56
8/21/2022 2:45:00 PM 22.23 72.014 0.18 7.75 2.11 8.57
8/21/2022 3:00:00 PM 22.21 71.978 0.179 7.76 2.19 8.58
8/21/2022 3:15:00 PM 22.19 71.942 0.179 7.85 2.06 8.56
8/21/2022 3:30:00 PM 22.17 71.906 0.179 7.83 2.06 8.54
8/21/2022 3:45:00 PM 22.13 71.834 0.179 7.95 2.03 8.57
8/21/2022 4:00:00 PM 22.12 71.816 0.179 7.94 2.14 8.56
8/21/2022 4:15:00 PM 22.11 71.798 0.179 7.99 2.98 8.53
8/21/2022 4:30:00 PM 22.11 71.798 0.179 7.93 2.95 8.48
8/21/2022 4:45:00 PM 22.13 71.834 0.179 8 3.09 8.51
8/21/2022 5:00:00 PM 22.14 71.852 0.179 7.99 2.21 8.49
8/21/2022 5:15:00 PM 22.18 71.924 0.179 7.94 2.03 8.48
8/21/2022 5:30:00 PM 22.23 72.014 0.178 7.96 2.15 8.45
8/21/2022 5:45:00 PM 22.28 72.104 0.178 7.92 2.04 8.44
8/21/2022 6:00:00 PM 22.34 72.212 0.178 7.92 2.12 8.42
8/21/2022 6:15:00 PM 22.39 72.302 0.178 7.9 2.05 8.4
8/21/2022 6:30:00 PM 22.42 72.356 0.178 7.85 3.14 8.38
8/21/2022 6:45:00 PM 22.44 72.392 0.179 7.86 2.44 8.34
8/21/2022 7:00:00 PM 22.44 72.392 0.179 7.82 2.06 8.33
8/21/2022 7:15:00 PM 22.4 72.32 0.179 7.89 3.09 8.26
8/21/2022 7:30:00 PM 22.39 72.302 0.179 7.86 3.08 8.17
8/21/2022 7:45:00 PM 22.35 72.23 0.18 7.85 3.32 8.06
8/21/2022 8:00:00 PM 22.31 72.158 0.18 7.77 2.15 8
8/21/2022 8:15:00 PM 22.26 72.068 0.18 7.77 2.08 7.91
8/21/2022 8:30:00 PM 22.19 71.942 0.18 7.82 2.19 7.81
8/21/2022 8:45:00 PM 22.16 71.888 0.18 7.83 3.23 7.76
8/21/2022 9:00:00 PM 22.11 71.798 0.181 7.78 2.08 7.68
8/21/2022 9:15:00 PM 22.03 71.654 0.181 7.8 2.63 7.64
8/21/2022 9:30:00 PM 22 71.6 0.181 7.77 2.07 7.6
8/21/2022 9:45:00 PM 21.94 71.492 0.181 7.81 3.75 7.63
8/21/2022 10:00:00 PM 21.88 71.384 0.182 7.78 3.33 7.61
8/21/2022 10:15:00 PM 21.84 71.312 0.182 7.8 3.57 7.59
8/21/2022 10:30:00 PM 21.73 71.114 0.182 7.75 2.22 7.5
8/21/2022 10:45:00 PM 21.74 71.132 0.182 7.75 3.24 7.56
8/21/2022 11:00:00 PM 21.68 71.024 0.182 7.71 2.17 7.48
8/21/2022 11:15:00 PM 21.63 70.934 0.182 7.72 2.18 7.52
8/21/2022 11:30:00 PM 21.51 70.718 0.183 7.75 2.25 7.49
8/21/2022 11:45:00 PM 21.47 70.646 0.183 7.73 3.36 7.56
8/22/2022 12:00:00 AM 21.37 70.466 0.183 7.73 3.35 7.54
8/22/2022 12:15:00 AM 21.28 70.304 0.183 7.7 2.22 7.52
8/22/2022 12:30:00 AM 21.23 70.214 0.183 7.69 2.17 7.44
8/22/2022 12:45:00 AM 21.18 70.124 0.183 7.67 3.09 7.51
8/22/2022 1:00:00 AM 21.11 69.998 0.183 7.7 2.23 7.46
8/22/2022 1:15:00 AM 21.03 69.854 0.183 7.7 2.24 7.46
8/22/2022 1:30:00 AM 20.96 69.728 0.183 7.68 2.22 7.46
8/22/2022 1:45:00 AM 20.87 69.566 0.183 7.67 2.17 7.5
8/22/2022 2:00:00 AM 20.82 69.476 0.183 7.69 3.21 7.57
8/22/2022 2:15:00 AM 20.77 69.386 0.183 7.7 2.2 7.52
8/22/2022 2:30:00 AM 20.72 69.296 0.183 7.7 2.22 7.56
8/22/2022 2:45:00 AM 20.65 69.17 0.183 7.76 2.19 7.56
8/22/2022 3:00:00 AM 20.62 69.116 0.183 7.76 2.22 7.59
8/22/2022 3:15:00 AM 20.59 69.062 0.183 7.69 2.17 7.58
8/22/2022 3:30:00 AM 20.43 68.774 0.174 7.74 5.93 7.75
8/22/2022 3:45:00 AM 20.42 68.756 0.178 7.65 5.92 7.59
8/22/2022 4:00:00 AM 20.43 68.774 0.179 7.56 6.48 7.63
8/22/2022 4:15:00 AM 20.38 68.684 0.178 7.49 6.4 7.65
8/22/2022 4:30:00 AM 20.34 68.612 0.179 7.41 4.08 7.65
8/22/2022 4:45:00 AM 20.29 68.522 0.179 7.45 5.22 7.63
8/22/2022 5:00:00 AM 20.26 68.468 0.18 7.42 4.16 7.64
8/22/2022 5:15:00 AM 20.23 68.414 0.18 7.41 4.08 7.65
8/22/2022 5:30:00 AM 20.21 68.378 0.179 7.44 2.62 7.73
8/22/2022 5:45:00 AM 20.16 68.288 0.179 7.43 2.46 7.72
8/22/2022 6:00:00 AM 20.14 68.252 0.179 7.41 2.81 7.75
8/22/2022 6:15:00 AM 20.12 68.216 0.178 7.41 4.06 7.79
8/22/2022 6:30:00 AM 19.97 67.946 0.161 7.43 7.4 8.13
8/22/2022 6:45:00 AM 19.97 67.946 0.161 7.39 23.52 8.09
8/22/2022 7:00:00 AM 19.93 67.874 0.157 7.32 43.7 8.07
8/22/2022 7:15:00 AM 19.92 67.856 0.16 7.27 34.03 8.03
8/22/2022 7:30:00 AM 19.9 67.82 0.158 7.31 31.56 8.08
8/22/2022 7:45:00 AM 19.89 67.802 0.158 7.34 25.89 8.21
8/22/2022 8:00:00 AM 19.86 67.748 0.158 7.35 14.64 8.26
8/22/2022 8:15:00 AM 19.85 67.73 0.158 7.36 12.45 8.34
8/22/2022 8:30:00 AM 19.86 67.748 0.157 7.38 9.49 8.4
8/22/2022 8:45:00 AM 19.87 67.766 0.155 7.4 8.92 8.49
8/22/2022 9:00:00 AM 19.91 67.838 0.152 7.39 10.03 8.56
8/22/2022 9:15:00 AM 20.01 68.018 0.148 7.41 10.04 8.66
8/22/2022 9:30:00 AM 20.07 68.126 0.146 7.44 10 8.72
8/22/2022 9:45:00 AM 20.12 68.216 0.146 7.46 8.77 8.74
8/22/2022 10:00:00 AM 20.18 68.324 0.148 7.47 8.53 8.73
8/22/2022 10:15:00 AM 20.24 68.432 0.149 7.47 9.73 8.69
8/22/2022 10:30:00 AM 20.43 68.774 0.15 7.5 6.88 8.72
8/22/2022 10:45:00 AM 20.53 68.954 0.152 7.52 6.18 8.76
8/22/2022 11:00:00 AM 20.64 69.152 0.154 7.52 7.17 8.79
8/22/2022 11:15:00 AM 20.86 69.548 0.156 7.54 6.59 8.85
8/22/2022 11:30:00 AM 20.92 69.656 0.158 7.56 6.49 8.86
8/22/2022 11:45:00 AM 21.24 70.232 0.159 7.6 5.01 8.94
8/22/2022 12:00:00 PM 21.37 70.466 0.16 7.6 6.48 8.94
8/22/2022 12:15:00 PM 21.63 70.934 0.161 7.64 5.11 8.96
8/22/2022 12:30:00 PM 21.7 71.06 0.161 7.67 4.83 8.97
8/22/2022 12:45:00 PM 21.82 71.276 0.16 7.67 5.27 8.94
8/22/2022 1:00:00 PM 22.1 71.78 0.16 7.69 5.01 8.92
8/22/2022 1:15:00 PM 22.43 72.374 0.159 7.71 5.25 8.94
8/22/2022 1:30:00 PM 22.63 72.734 0.158 7.73 4.78 8.91
8/22/2022 1:45:00 PM 22.74 72.932 0.157 7.75 4.76 8.85
8/22/2022 2:00:00 PM 22.87 73.166 0.156 7.75 4.63 8.81
8/22/2022 2:15:00 PM 23.03 73.454 0.155 7.77 4.6 8.8
8/22/2022 2:30:00 PM 23.19 73.742 0.154 7.78 4.44 8.75
8/22/2022 2:45:00 PM 23.31 73.958 0.152 7.78 4.64 8.68
8/22/2022 3:00:00 PM 23.45 74.21 0.151 7.78 5.29 8.65
8/22/2022 3:15:00 PM 23.23 73.814 0.146 7.77 5.48 8.5
8/22/2022 3:30:00 PM 23.18 73.724 0.147 7.69 10.34 8.3
8/22/2022 3:45:00 PM 23.16 73.688 0.146 7.69 7.49 8.24
8/22/2022 4:00:00 PM 23.13 73.634 0.146 7.67 5.3 8.17
8/22/2022 4:15:00 PM 22.85 73.13 0.14 7.62 13.12 8.16
8/22/2022 4:30:00 PM 22.69 72.842 0.138 7.5 24.83 8.16
8/22/2022 4:45:00 PM 22.59 72.662 0.141 7.49 15.68 8.15
8/22/2022 5:00:00 PM 22.61 72.698 0.142 7.53 9.19 8.27
8/22/2022 5:15:00 PM 22.65 72.77 0.142 7.55 9 8.37
8/22/2022 5:30:00 PM 22.54 72.57201 0.142 7.54 11.57 8.36
8/22/2022 5:45:00 PM 22.59 72.662 0.142 7.54 9.88 8.36
8/22/2022 6:00:00 PM 22.62 72.716 0.141 7.52 8.93 8.38
8/22/2022 6:15:00 PM 22.54 72.57201 0.141 7.56 9.2 8.33
8/22/2022 6:30:00 PM 22.44 72.392 0.141 7.54 9.5 8.28
8/22/2022 6:45:00 PM 22.35 72.23 0.142 7.53 9.25 8.25
8/22/2022 7:00:00 PM 22.24 72.032 0.144 7.52 7.75 8.22
8/22/2022 7:15:00 PM 22.12 71.816 0.146 7.51 8.16 8.21
8/22/2022 7:30:00 PM 22.01 71.618 0.149 7.48 8.58 8.19
8/22/2022 7:45:00 PM 21.89 71.402 0.151 7.48 8.67 8.19
8/22/2022 8:00:00 PM 21.79 71.222 0.153 7.47 8.95 8.18
8/22/2022 8:15:00 PM 21.71 71.078 0.153 7.45 10.09 8.18
8/22/2022 8:30:00 PM 21.65 70.97 0.152 7.46 9.79 8.18
8/22/2022 8:45:00 PM 21.59 70.862 0.151 7.43 10.78 8.17
8/22/2022 9:00:00 PM 21.53 70.754 0.15 7.44 9.05 8.18
8/22/2022 9:15:00 PM 21.48 70.664 0.15 7.44 8.87 8.18
8/22/2022 9:30:00 PM 21.42 70.556 0.15 7.43 8.56 8.18
8/22/2022 9:45:00 PM 21.37 70.466 0.149 7.43 8.62 8.18
8/22/2022 10:00:00 PM 21.32 70.376 0.15 7.43 8.46 8.19
8/22/2022 10:15:00 PM 21.28 70.304 0.15 7.42 7.96 8.19
8/22/2022 10:30:00 PM 21.23 70.214 0.15 7.42 7.42 8.18
8/22/2022 10:45:00 PM 21.18 70.124 0.151 7.42 7.04 8.19
8/22/2022 11:00:00 PM 21.13 70.034 0.151 7.41 6.8 8.18
8/22/2022 11:15:00 PM 21.08 69.944 0.152 7.41 6.87 8.18
8/22/2022 11:30:00 PM 21.03 69.854 0.152 7.41 6.73 8.18
8/22/2022 11:45:00 PM 20.99 69.782 0.153 7.41 6.42 8.19
8/23/2022 12:00:00 AM 20.96 69.728 0.153 7.41 5.94 8.2
8/23/2022 12:15:00 AM 20.92 69.656 0.154 7.41 5.93 8.2
8/23/2022 12:30:00 AM 20.89 69.602 0.154 7.41 6.16 8.21
8/23/2022 12:45:00 AM 20.86 69.548 0.154 7.41 5.74 8.2
8/23/2022 1:00:00 AM 20.83 69.494 0.155 7.4 5.64 8.2
8/23/2022 1:15:00 AM 20.8 69.44 0.155 7.4 5.51 8.21
8/23/2022 1:30:00 AM 20.78 69.404 0.155 7.39 7.12 8.21
8/23/2022 1:45:00 AM 20.75 69.35 0.156 7.4 5.65 8.21
8/23/2022 2:00:00 AM 20.73 69.314 0.156 7.4 5.49 8.2
8/23/2022 2:15:00 AM 20.7 69.26 0.156 7.4 5.28 8.21
8/23/2022 2:30:00 AM 20.68 69.224 0.156 7.39 5.33 8.22
8/23/2022 2:45:00 AM 20.66 69.188 0.156 7.39 5.87 8.22
8/23/2022 3:00:00 AM 20.64 69.152 0.157 7.39 5.73 8.22
8/23/2022 3:15:00 AM 20.62 69.116 0.157 7.38 6.62 8.21
8/23/2022 3:30:00 AM 20.59 69.062 0.157 7.4 6.24 8.22
8/23/2022 3:45:00 AM 20.57 69.026 0.157 7.4 6.25 8.22
8/23/2022 4:00:00 AM 20.55 68.99 0.158 7.4 6.21 8.23
8/23/2022 4:15:00 AM 20.53 68.954 0.158 7.4 6.4 8.24
8/23/2022 4:30:00 AM 20.51 68.918 0.158 7.39 7.21 8.24
8/23/2022 4:45:00 AM 20.49 68.882 0.159 7.41 5.76 8.24
8/23/2022 5:00:00 AM 20.47 68.846 0.159 7.39 6.24 8.25
8/23/2022 5:15:00 AM 20.45 68.81 0.16 7.41 6.15 8.26
8/23/2022 5:30:00 AM 20.42 68.756 0.16 7.39 6.99 8.25
8/23/2022 5:45:00 AM 20.4 68.72 0.161 7.41 7.16 8.26
8/23/2022 6:00:00 AM 20.38 68.684 0.162 7.4 7.36 8.26
8/23/2022 6:15:00 AM 20.35 68.63 0.163 7.39 7.03 8.26
8/23/2022 6:30:00 AM 20.33 68.594 0.164 7.31 7.19 8.27
8/23/2022 6:45:00 AM 20.31 68.558 0.165 7.4 6.73 8.28
8/23/2022 7:00:00 AM 20.29 68.522 0.166 7.4 6.9 8.28
8/23/2022 7:15:00 AM 20.28 68.504 0.167 7.42 5.82 8.31
8/23/2022 7:30:00 AM 20.27 68.486 0.168 7.42 5.79 8.35
8/23/2022 7:45:00 AM 20.27 68.486 0.168 7.42 6.45 8.38
8/23/2022 8:00:00 AM 20.27 68.486 0.169 7.43 5.89 8.43
8/23/2022 8:15:00 AM 20.25 68.45 0.169 7.45 5.03 8.45
8/23/2022 8:30:00 AM 20.25 68.45 0.17 7.44 6.02 8.44
8/23/2022 8:45:00 AM 20.28 68.504 0.17 7.45 6.15 8.5
8/23/2022 9:00:00 AM 20.34 68.612 0.17 7.5 4.59 8.61
8/23/2022 9:15:00 AM 20.37 68.666 0.17 7.5 5.74 8.65
8/23/2022 9:30:00 AM 20.39 68.702 0.17 7.47 4.78 8.67
8/23/2022 9:45:00 AM 20.44 68.792 0.17 7.55 4.48 8.72
8/23/2022 10:00:00 AM 20.53 68.954 0.17 7.57 4.42 8.79
8/23/2022 10:15:00 AM 20.64 69.152 0.169 7.6 4.35 8.88
8/23/2022 10:30:00 AM 20.74 69.332 0.169 7.63 4.15 8.94
8/23/2022 10:45:00 AM 20.83 69.494 0.169 7.65 4.09 8.98
8/23/2022 11:00:00 AM 20.95 69.71 0.169 7.68 4.06 9.02
8/23/2022 11:15:00 AM 21.04 69.872 0.169 7.71 4.23 8.99
8/23/2022 11:30:00 AM 21.15 70.07 0.168 7.62 4.98 8.99
8/23/2022 11:45:00 AM 21.31 70.358 0.168 7.71 3.92 9.04
8/23/2022 12:00:00 PM 21.53 70.754 0.168 7.75 3.84 9.09
8/23/2022 12:15:00 PM 21.73 71.114 0.168 7.81 4.13 9.07
8/23/2022 12:30:00 PM 21.97 71.546 0.167 7.8 15.8 9
8/23/2022 12:45:00 PM 22.25 72.05 0.165 7.82 22.8 8.88
8/23/2022 1:00:00 PM 22.26 72.068 0.164 7.81 13.17 8.75
8/23/2022 1:15:00 PM 22.35 72.23 0.163 7.8 12.37 8.71
8/23/2022 1:30:00 PM 22.51 72.518 0.162 7.8 10.99 8.73
8/23/2022 1:45:00 PM 22.7 72.86 0.161 7.76 10.43 8.66
8/23/2022 2:00:00 PM 22.93 73.274 0.161 7.82 10.52 8.62
8/23/2022 2:15:00 PM 22.99 73.382 0.161 7.81 9.87 8.54
8/23/2022 2:30:00 PM 23.16 73.688 0.161 7.81 9.58 8.56
8/23/2022 2:45:00 PM 23.27 73.886 0.161 7.82 8.89 8.57
8/23/2022 3:00:00 PM 23.48 74.264 0.16 7.77 9.13 8.55
8/23/2022 3:15:00 PM 23.59 74.462 0.159 7.79 8.22 8.51
8/23/2022 3:30:00 PM 23.58 74.444 0.158 7.83 8.58 8.45
8/23/2022 3:45:00 PM 23.48 74.264 0.157 7.82 8.77 8.41
8/23/2022 4:00:00 PM 23.47 74.246 0.156 7.81 8.02 8.46
8/23/2022 4:15:00 PM 23.56 74.408 0.155 7.82 7.76 8.48
8/23/2022 4:30:00 PM 23.65 74.57 0.154 7.83 8.19 8.45
8/23/2022 4:45:00 PM 23.73 74.714 0.153 7.84 8.22 8.44
8/23/2022 5:00:00 PM 23.64 74.552 0.153 7.83 8.01 8.42
8/23/2022 5:15:00 PM 23.51 74.318 0.154 7.82 8.56 8.41
8/23/2022 5:30:00 PM 23.4 74.12 0.154 7.8 7.9 8.37
8/23/2022 5:45:00 PM 23.3 73.94 0.155 7.78 8.19 8.33
8/23/2022 6:00:00 PM 23.19 73.742 0.156 7.76 7.46 8.32
8/23/2022 6:15:00 PM 23.08 73.544 0.157 7.74 7.63 8.3
8/23/2022 6:30:00 PM 22.96 73.328 0.158 7.72 8.05 8.28
8/23/2022 6:45:00 PM 22.83 73.094 0.159 7.69 8.29 8.25
8/23/2022 7:00:00 PM 22.71 72.878 0.159 7.67 8 8.23
8/23/2022 7:15:00 PM 22.61 72.698 0.16 7.65 8.66 8.23
8/23/2022 7:30:00 PM 22.51 72.518 0.16 7.64 7.68 8.24
8/23/2022 7:45:00 PM 22.41 72.338 0.16 7.63 8.17 8.25
8/23/2022 8:00:00 PM 22.31 72.158 0.161 7.62 7.98 8.24
8/23/2022 8:15:00 PM 22.22 71.996 0.161 7.61 8.18 8.24
8/23/2022 8:30:00 PM 22.12 71.816 0.161 7.59 9.68 8.25
8/23/2022 8:45:00 PM 22.03 71.654 0.161 7.59 9.1 8.26
8/23/2022 9:00:00 PM 21.95 71.51 0.161 7.56 10.34 8.27
8/23/2022 9:15:00 PM 21.87 71.366 0.161 7.57 8.44 8.28
8/23/2022 9:30:00 PM 21.79 71.222 0.161 7.56 8.39 8.28
8/23/2022 9:45:00 PM 21.72 71.096 0.161 7.54 10.58 8.29
8/23/2022 10:00:00 PM 21.65 70.97 0.161 7.55 7.98 8.3
8/23/2022 10:15:00 PM 21.58 70.844 0.16 7.54 8.61 8.31
8/23/2022 10:30:00 PM 21.52 70.736 0.16 7.54 7.42 8.33
8/23/2022 10:45:00 PM 21.46 70.628 0.16 7.54 7.54 8.33
8/23/2022 11:00:00 PM 21.4 70.52 0.16 7.53 7.82 8.35
8/23/2022 11:15:00 PM 21.35 70.43 0.16 7.53 7.46 8.36
8/23/2022 11:30:00 PM 21.28 70.304 0.159 7.53 7.17 8.37
8/23/2022 11:45:00 PM 21.23 70.214 0.159 7.45 7.13 8.38
8/24/2022 12:00:00 AM 21.17 70.106 0.159 7.52 7.4 8.39
8/24/2022 12:15:00 AM 21.12 70.016 0.159 7.51 6.74 8.4
8/24/2022 12:30:00 AM 21.08 69.944 0.159 7.52 6.93 8.4
8/24/2022 12:45:00 AM 21.04 69.872 0.159 7.52 6.96 8.41
8/24/2022 1:00:00 AM 21 69.8 0.159 7.52 6.56 8.42
8/24/2022 1:15:00 AM 20.97 69.746 0.159 7.51 7.55 8.42
8/24/2022 1:30:00 AM 20.94 69.692 0.159 7.52 6.67 8.42
8/24/2022 1:45:00 AM 20.89 69.602 0.16 7.52 6.71 8.43
8/24/2022 2:00:00 AM 20.85 69.53 0.16 7.51 7.49 8.44
8/24/2022 2:15:00 AM 20.8 69.44 0.16 7.51 7.44 8.46
8/24/2022 2:30:00 AM 20.75 69.35 0.16 7.43 7.59 8.46
8/24/2022 2:45:00 AM 20.7 69.26 0.16 7.52 7.65 8.47
8/24/2022 3:00:00 AM 20.64 69.152 0.16 7.49 7.46 8.48
8/24/2022 3:15:00 AM 20.59 69.062 0.16 7.51 7.42 8.48
8/24/2022 3:30:00 AM 20.53 68.954 0.16 7.51 7.46 8.49
8/24/2022 3:45:00 AM 20.47 68.846 0.16 7.51 7.18 8.5
8/24/2022 4:00:00 AM 20.41 68.738 0.161 7.52 6.33 8.51
8/24/2022 4:15:00 AM 20.35 68.63 0.161 7.51 7.13 8.52
8/24/2022 4:30:00 AM 20.29 68.522 0.161 7.51 6.69 8.53
8/24/2022 4:45:00 AM 20.23 68.414 0.161 7.52 6.11 8.54
8/24/2022 5:00:00 AM 20.17 68.306 0.161 7.53 6.05 8.55
8/24/2022 5:15:00 AM 20.1 68.18 0.161 7.52 5.87 8.56
8/24/2022 5:30:00 AM 20.03 68.054 0.161 7.51 6.88 8.57
8/24/2022 5:45:00 AM 19.96 67.92799 0.161 7.52 5.91 8.58
8/24/2022 6:00:00 AM 19.9 67.82 0.161 7.52 5.81 8.59
8/24/2022 6:15:00 AM 19.83 67.694 0.161 7.52 5.77 8.6
8/24/2022 6:30:00 AM 19.76 67.568 0.161 7.52 6.16 8.62
8/24/2022 6:45:00 AM 19.7 67.46 0.161 7.5 6.89 8.64
8/24/2022 7:00:00 AM 19.64 67.352 0.161 7.5 6.73 8.67
8/24/2022 7:15:00 AM 19.59 67.262 0.161 7.52 5.19 8.7
8/24/2022 7:30:00 AM 19.55 67.19 0.161 7.51 5.84 8.74
8/24/2022 7:45:00 AM 19.52 67.136 0.161 7.52 5.77 8.78
8/24/2022 8:00:00 AM 19.51 67.118 0.161 7.55 4.53 8.83
8/24/2022 8:15:00 AM 19.51 67.118 0.161 7.55 5.55 8.86
8/24/2022 8:30:00 AM 19.52 67.136 0.161 7.58 4.19 8.89
8/24/2022 8:45:00 AM 19.57 67.226 0.161 7.6 4.03 8.92
8/24/2022 9:00:00 AM 19.64 67.352 0.161 7.6 4.95 8.95
8/24/2022 9:15:00 AM 19.72 67.496 0.161 7.64 3.76 8.98
8/24/2022 9:30:00 AM 19.82 67.676 0.161 7.64 5.06 9
8/24/2022 9:45:00 AM 19.94 67.892 0.161 7.6 3.72 9.02
8/24/2022 10:00:00 AM 20.09 68.162 0.161 7.71 3.5 9.05
8/24/2022 10:15:00 AM 20.27 68.486 0.161 7.74 3.46 9.07
8/24/2022 10:30:00 AM 20.47 68.846 0.161 7.75 4.67 9.08
8/24/2022 10:45:00 AM 20.68 69.224 0.161 7.79 3.31 9.1
8/24/2022 11:00:00 AM 20.89 69.602 0.161 7.82 3.48 9.11
8/24/2022 11:15:00 AM 21.12 70.016 0.161 7.84 3.79 9.11
8/24/2022 11:30:00 AM 21.34 70.412 0.161 7.88 3.42 9.11
8/24/2022 11:45:00 AM 21.57 70.826 0.161 7.9 3.27 9.1
8/24/2022 12:00:00 PM 21.8 71.24 0.161 7.93 3.22 9.08
8/24/2022 12:15:00 PM 21.92 71.456 0.161 7.95 3.4 9.04
8/24/2022 12:30:00 PM 22.22 71.996 0.161 7.96 3.27 9.02
8/24/2022 12:45:00 PM 22.47 72.446 0.161 7.99 3.31 9.02
8/24/2022 1:00:00 PM 22.7 72.86 0.161 8.01 4.18 8.98
8/24/2022 1:15:00 PM 22.94 73.292 0.162 8.03 3.25 8.95
8/24/2022 1:30:00 PM 23.11 73.598 0.162 8.04 3.22 8.88
8/24/2022 1:45:00 PM 23.41 74.138 0.162 8.06 3.24 8.84
8/24/2022 2:00:00 PM 23.66 74.588 0.162 8.07 3.31 8.82
8/24/2022 2:15:00 PM 23.91 75.038 0.162 8.09 3.35 8.77
8/24/2022 2:30:00 PM 24.18 75.524 0.162 8.11 3.28 8.75
8/24/2022 2:45:00 PM 24.38 75.884 0.162 8.12 3.23 8.68
8/24/2022 3:00:00 PM 24.57 76.226 0.162 8.12 3.21 8.64
8/24/2022 3:15:00 PM 24.78 76.604 0.162 8.14 3.26 8.63
8/24/2022 3:30:00 PM 24.77 76.586 0.163 8.12 3.28 8.5
8/24/2022 3:45:00 PM 24.81 76.658 0.163 8.11 3.37 8.48
8/24/2022 4:00:00 PM 24.77 76.586 0.163 8.08 3.32 8.38
8/24/2022 4:15:00 PM 24.77 76.586 0.163 8.04 4.01 8.36
8/24/2022 4:30:00 PM 24.83 76.694 0.164 8.06 3.34 8.41
8/24/2022 4:45:00 PM 24.8 76.64 0.164 8.05 3.25 8.39
8/24/2022 5:00:00 PM 24.75 76.55 0.164 8.03 3.36 8.37
8/24/2022 5:15:00 PM 24.67 76.406 0.165 8 3.41 8.31
8/24/2022 5:30:00 PM 24.62 76.316 0.165 7.98 3.38 8.3
8/24/2022 5:45:00 PM 24.52 76.136 0.165 7.96 3.39 8.3
8/24/2022 6:00:00 PM 24.37 75.866 0.166 7.92 3.4 8.26
8/24/2022 6:15:00 PM 24.22 75.596 0.166 7.87 4.44 8.19
8/24/2022 6:30:00 PM 24.11 75.398 0.166 7.84 3.64 8.16
8/24/2022 6:45:00 PM 23.98 75.164 0.167 7.82 3.7 8.12
8/24/2022 7:00:00 PM 23.86 74.948 0.167 7.78 3.59 8.1
8/24/2022 7:15:00 PM 23.73 74.714 0.167 7.75 3.87 8.07
8/24/2022 7:30:00 PM 23.61 74.498 0.168 7.71 3.95 8.04
8/24/2022 7:45:00 PM 23.48 74.264 0.168 7.69 3.75 8
8/24/2022 8:00:00 PM 23.36 74.048 0.168 7.66 3.7 7.98
8/24/2022 8:15:00 PM 23.25 73.85 0.169 7.64 4.28 7.97
8/24/2022 8:30:00 PM 23.13 73.634 0.169 7.62 4.34 7.98
8/24/2022 8:45:00 PM 23.02 73.436 0.169 7.6 4.16 7.97
8/24/2022 9:00:00 PM 22.91 73.238 0.17 7.57 5.69 7.97
8/24/2022 9:15:00 PM 22.78 73.004 0.17 7.56 5.25 7.99
8/24/2022 9:30:00 PM 22.67 72.806 0.17 7.57 4.17 8.01
8/24/2022 9:45:00 PM 22.55 72.59 0.17 7.56 4.22 8.03
8/24/2022 10:00:00 PM 22.42 72.356 0.17 7.55 4.17 8.05
8/24/2022 10:15:00 PM 22.29 72.122 0.17 7.55 4.35 8.06
8/24/2022 10:30:00 PM 22.16 71.888 0.17 7.54 4.48 8.09
8/24/2022 10:45:00 PM 22.04 71.672 0.17 7.54 4.15 8.11
8/24/2022 11:00:00 PM 21.91 71.438 0.17 7.52 4.75 8.14
8/24/2022 11:15:00 PM 21.79 71.222 0.17 7.53 4.15 8.15
8/24/2022 11:30:00 PM 21.67 71.006 0.17 7.53 4.06 8.17
8/24/2022 11:45:00 PM 21.55 70.79 0.17 7.51 5.21 8.19
8/25/2022 12:00:00 AM 21.44 70.592 0.17 7.52 4.62 8.22
8/25/2022 12:15:00 AM 21.33 70.394 0.17 7.52 4.23 8.25
8/25/2022 12:30:00 AM 21.22 70.196 0.17 7.52 4.08 8.26
8/25/2022 12:45:00 AM 21.12 70.016 0.169 7.51 4.15 8.27
8/25/2022 1:00:00 AM 21.02 69.836 0.169 7.51 4.31 8.3
8/25/2022 1:15:00 AM 20.93 69.674 0.169 7.51 4.08 8.31
8/25/2022 1:30:00 AM 20.84 69.512 0.169 7.51 4.09 8.34
8/25/2022 1:45:00 AM 20.75 69.35 0.169 7.5 4.36 8.35
8/25/2022 2:00:00 AM 20.66 69.188 0.168 7.5 4.38 8.37
8/25/2022 2:15:00 AM 20.57 69.026 0.168 7.5 4.32 8.38
8/25/2022 2:30:00 AM 20.48 68.864 0.168 7.5 4.22 8.4
8/25/2022 2:45:00 AM 20.39 68.702 0.168 7.48 5.27 8.42
8/25/2022 3:00:00 AM 20.31 68.558 0.167 7.48 5.27 8.43
8/25/2022 3:15:00 AM 20.22 68.396 0.167 7.43 4.16 8.45
8/25/2022 3:30:00 AM 20.14 68.252 0.167 7.49 4.18 8.47
8/25/2022 3:45:00 AM 20.06 68.108 0.167 7.49 4.34 8.47
8/25/2022 4:00:00 AM 19.98 67.964 0.166 7.49 4.18 8.49
8/25/2022 4:15:00 AM 19.9 67.82 0.166 7.49 3.97 8.5
8/25/2022 4:30:00 AM 19.82 67.676 0.166 7.46 4.07 8.53
8/25/2022 4:45:00 AM 19.75 67.55 0.165 7.48 4.06 8.54
8/25/2022 5:00:00 AM 19.68 67.424 0.165 7.48 4.09 8.56
8/25/2022 5:15:00 AM 19.61 67.298 0.165 7.47 5.8 8.58
8/25/2022 5:30:00 AM 19.54 67.172 0.165 7.47 5.31 8.59
8/25/2022 5:45:00 AM 19.47 67.046 0.164 7.46 5.34 8.6
8/25/2022 6:00:00 AM 19.4 66.92 0.164 7.47 4.25 8.62
8/25/2022 6:15:00 AM 19.34 66.812 0.164 7.48 4.08 8.63
8/25/2022 6:30:00 AM 19.28 66.704 0.164 7.49 3.9 8.64
8/25/2022 6:45:00 AM 19.23 66.614 0.163 7.48 3.98 8.67
8/25/2022 7:00:00 AM 19.18 66.524 0.163 7.47 5.23 8.7
8/25/2022 7:15:00 AM 19.14 66.452 0.163 7.48 5.19 8.73
8/25/2022 7:30:00 AM 19.11 66.398 0.163 7.5 3.67 8.78
8/25/2022 7:45:00 AM 19.09 66.362 0.162 7.5 4.67 8.82
8/25/2022 8:00:00 AM 19.08 66.344 0.162 7.52 3.31 8.88
8/25/2022 8:15:00 AM 19.08 66.344 0.162 7.54 3.17 8.94
8/25/2022 8:30:00 AM 19.09 66.362 0.162 7.56 3.09 8.99
8/25/2022 8:45:00 AM 19.14 66.452 0.161 7.58 3.11 9.02
8/25/2022 9:00:00 AM 19.22 66.596 0.161 7.58 4.33 9.05
8/25/2022 9:15:00 AM 19.35 66.83 0.16 7.62 3.07 9.09
8/25/2022 9:30:00 AM 19.49 67.082 0.16 7.65 3.11 9.13
8/25/2022 9:45:00 AM 19.64 67.352 0.16 7.67 3.04 9.18
8/25/2022 10:00:00 AM 19.82 67.676 0.16 7.7 4.22 9.22
8/25/2022 10:15:00 AM 20.01 68.018 0.16 7.75 2.86 9.25
8/25/2022 10:30:00 AM 20.25 68.45 0.159 7.77 4.38 9.26
8/25/2022 10:45:00 AM 20.5 68.9 0.159 7.8 3.96 9.26
8/25/2022 11:00:00 AM 20.76</